<?xml version="1.0" encoding="UTF-8" standalone="no" ?>
<gpx xmlns="http://www.topografix.com/GPX/1/1" xmlns:xsi="http://www.w3.org/2001/XMLSchema-instance" xsi:schemaLocation="http://www.topografix.com/GPX/1/1 http://www.topografix.com/GPX/1/1/gpx.xsd" version="1.1" creator="VisuGPX - https://www.visugpx.com">
  <metadata>
    <name>Cime de la Jasse</name>
    <desc><![CDATA[
]]></desc>
  </metadata>
  <trk>
    <name><![CDATA[Cime de la Jasse_1]]></name>
    <extensions>
      <line xmlns="http://www.topografix.com/GPX/gpx_style/0/2">
        <color>0000FF</color>
        <width>4</width>
      </line>
    </extensions>
    <trkseg>
      <trkpt lat="45.26435" lon="6.01529">
        <ele>1588.4549560547</ele>
        <time>2017-11-26T12:21:14Z</time>
      </trkpt>
      <trkpt lat="45.26438" lon="6.01535">
        <ele>1577.4549560547</ele>
        <time>2017-11-26T12:21:20Z</time>
      </trkpt>
      <trkpt lat="45.26442" lon="6.01533">
        <ele>1578.4549560547</ele>
        <time>2017-11-26T12:21:24Z</time>
      </trkpt>
      <trkpt lat="45.26448" lon="6.01532">
        <ele>1575.4549560547</ele>
        <time>2017-11-26T12:21:35Z</time>
      </trkpt>
      <trkpt lat="45.26452" lon="6.01538">
        <ele>1573.4549560547</ele>
        <time>2017-11-26T12:21:39Z</time>
      </trkpt>
      <trkpt lat="45.26451" lon="6.01544">
        <ele>1571.4549560547</ele>
        <time>2017-11-26T12:21:44Z</time>
      </trkpt>
      <trkpt lat="45.2645" lon="6.01553">
        <ele>1571.4549560547</ele>
        <time>2017-11-26T12:21:49Z</time>
      </trkpt>
      <trkpt lat="45.26452" lon="6.0156">
        <ele>1571.4549560547</ele>
        <time>2017-11-26T12:21:52Z</time>
      </trkpt>
      <trkpt lat="45.26456" lon="6.01563">
        <ele>1575.4549560547</ele>
        <time>2017-11-26T12:21:56Z</time>
      </trkpt>
      <trkpt lat="45.2646" lon="6.01566">
        <ele>1576.4549560547</ele>
        <time>2017-11-26T12:22:02Z</time>
      </trkpt>
      <trkpt lat="45.26462" lon="6.01573">
        <ele>1575.4549560547</ele>
        <time>2017-11-26T12:22:24Z</time>
      </trkpt>
      <trkpt lat="45.26462" lon="6.01582">
        <ele>1575.4549560547</ele>
        <time>2017-11-26T12:22:26Z</time>
      </trkpt>
      <trkpt lat="45.26465" lon="6.01589">
        <ele>1574.4549560547</ele>
        <time>2017-11-26T12:22:29Z</time>
      </trkpt>
      <trkpt lat="45.26464" lon="6.01596">
        <ele>1572.4549560547</ele>
        <time>2017-11-26T12:22:32Z</time>
      </trkpt>
      <trkpt lat="45.26466" lon="6.01603">
        <ele>1570.4549560547</ele>
        <time>2017-11-26T12:22:35Z</time>
      </trkpt>
      <trkpt lat="45.26467" lon="6.01611">
        <ele>1570.4549560547</ele>
        <time>2017-11-26T12:22:38Z</time>
      </trkpt>
      <trkpt lat="45.26467" lon="6.01618">
        <ele>1571.4549560547</ele>
        <time>2017-11-26T12:22:41Z</time>
      </trkpt>
      <trkpt lat="45.26467" lon="6.01626">
        <ele>1570.4549560547</ele>
        <time>2017-11-26T12:22:45Z</time>
      </trkpt>
      <trkpt lat="45.26467" lon="6.01632">
        <ele>1569.4549560547</ele>
        <time>2017-11-26T12:22:48Z</time>
      </trkpt>
      <trkpt lat="45.26468" lon="6.01639">
        <ele>1568.4549560547</ele>
        <time>2017-11-26T12:22:51Z</time>
      </trkpt>
      <trkpt lat="45.26468" lon="6.01647">
        <ele>1567.4549560547</ele>
        <time>2017-11-26T12:22:54Z</time>
      </trkpt>
      <trkpt lat="45.26468" lon="6.01654">
        <ele>1567.4549560547</ele>
        <time>2017-11-26T12:22:57Z</time>
      </trkpt>
      <trkpt lat="45.26466" lon="6.01661">
        <ele>1569.4549560547</ele>
        <time>2017-11-26T12:23:00Z</time>
      </trkpt>
      <trkpt lat="45.26465" lon="6.01668">
        <ele>1568.4549560547</ele>
        <time>2017-11-26T12:23:04Z</time>
      </trkpt>
      <trkpt lat="45.26464" lon="6.01677">
        <ele>1568.4549560547</ele>
        <time>2017-11-26T12:23:07Z</time>
      </trkpt>
      <trkpt lat="45.26463" lon="6.01684">
        <ele>1566.4549560547</ele>
        <time>2017-11-26T12:23:11Z</time>
      </trkpt>
      <trkpt lat="45.26465" lon="6.0169">
        <ele>1564.4549560547</ele>
        <time>2017-11-26T12:23:15Z</time>
      </trkpt>
      <trkpt lat="45.26465" lon="6.01697">
        <ele>1565.4549560547</ele>
        <time>2017-11-26T12:23:19Z</time>
      </trkpt>
      <trkpt lat="45.26468" lon="6.01704">
        <ele>1565.4549560547</ele>
        <time>2017-11-26T12:23:23Z</time>
      </trkpt>
      <trkpt lat="45.26468" lon="6.01712">
        <ele>1567.4549560547</ele>
        <time>2017-11-26T12:23:27Z</time>
      </trkpt>
      <trkpt lat="45.26471" lon="6.01718">
        <ele>1567.4549560547</ele>
        <time>2017-11-26T12:23:31Z</time>
      </trkpt>
      <trkpt lat="45.26468" lon="6.01725">
        <ele>1567.4549560547</ele>
        <time>2017-11-26T12:23:34Z</time>
      </trkpt>
      <trkpt lat="45.26466" lon="6.01731">
        <ele>1567.4549560547</ele>
        <time>2017-11-26T12:23:37Z</time>
      </trkpt>
      <trkpt lat="45.26465" lon="6.01738">
        <ele>1566.4549560547</ele>
        <time>2017-11-26T12:23:41Z</time>
      </trkpt>
      <trkpt lat="45.26465" lon="6.01745">
        <ele>1569.4549560547</ele>
        <time>2017-11-26T12:23:45Z</time>
      </trkpt>
      <trkpt lat="45.26463" lon="6.01751">
        <ele>1569.4549560547</ele>
        <time>2017-11-26T12:23:48Z</time>
      </trkpt>
      <trkpt lat="45.26461" lon="6.01757">
        <ele>1570.4549560547</ele>
        <time>2017-11-26T12:23:52Z</time>
      </trkpt>
      <trkpt lat="45.26461" lon="6.01764">
        <ele>1571.4549560547</ele>
        <time>2017-11-26T12:23:57Z</time>
      </trkpt>
      <trkpt lat="45.2646" lon="6.01772">
        <ele>1572.4549560547</ele>
        <time>2017-11-26T12:24:01Z</time>
      </trkpt>
      <trkpt lat="45.26457" lon="6.01777">
        <ele>1575.4549560547</ele>
        <time>2017-11-26T12:24:04Z</time>
      </trkpt>
      <trkpt lat="45.26455" lon="6.01785">
        <ele>1576.4549560547</ele>
        <time>2017-11-26T12:24:09Z</time>
      </trkpt>
      <trkpt lat="45.26454" lon="6.01792">
        <ele>1577.4549560547</ele>
        <time>2017-11-26T12:24:15Z</time>
      </trkpt>
      <trkpt lat="45.26452" lon="6.01798">
        <ele>1577.4549560547</ele>
        <time>2017-11-26T12:24:19Z</time>
      </trkpt>
      <trkpt lat="45.2645" lon="6.01804">
        <ele>1579.4549560547</ele>
        <time>2017-11-26T12:24:23Z</time>
      </trkpt>
      <trkpt lat="45.26448" lon="6.01811">
        <ele>1581.4549560547</ele>
        <time>2017-11-26T12:24:27Z</time>
      </trkpt>
      <trkpt lat="45.26447" lon="6.01817">
        <ele>1582.4549560547</ele>
        <time>2017-11-26T12:24:31Z</time>
      </trkpt>
      <trkpt lat="45.26443" lon="6.01827">
        <ele>1583.4549560547</ele>
        <time>2017-11-26T12:24:36Z</time>
      </trkpt>
      <trkpt lat="45.26441" lon="6.01832">
        <ele>1584.4549560547</ele>
        <time>2017-11-26T12:24:38Z</time>
      </trkpt>
      <trkpt lat="45.2644" lon="6.01839">
        <ele>1584.4549560547</ele>
        <time>2017-11-26T12:24:42Z</time>
      </trkpt>
      <trkpt lat="45.26439" lon="6.01845">
        <ele>1585.4549560547</ele>
        <time>2017-11-26T12:24:46Z</time>
      </trkpt>
      <trkpt lat="45.26437" lon="6.01852">
        <ele>1586.4549560547</ele>
        <time>2017-11-26T12:24:49Z</time>
      </trkpt>
      <trkpt lat="45.26435" lon="6.01859">
        <ele>1587.4549560547</ele>
        <time>2017-11-26T12:24:53Z</time>
      </trkpt>
      <trkpt lat="45.26431" lon="6.01866">
        <ele>1591.4549560547</ele>
        <time>2017-11-26T12:24:57Z</time>
      </trkpt>
      <trkpt lat="45.26431" lon="6.01873">
        <ele>1592.4549560547</ele>
        <time>2017-11-26T12:25:01Z</time>
      </trkpt>
      <trkpt lat="45.26431" lon="6.01881">
        <ele>1593.4549560547</ele>
        <time>2017-11-26T12:25:06Z</time>
      </trkpt>
      <trkpt lat="45.26427" lon="6.01887">
        <ele>1596.4549560547</ele>
        <time>2017-11-26T12:25:09Z</time>
      </trkpt>
      <trkpt lat="45.26425" lon="6.01894">
        <ele>1595.4549560547</ele>
        <time>2017-11-26T12:25:14Z</time>
      </trkpt>
      <trkpt lat="45.26424" lon="6.01902">
        <ele>1596.4549560547</ele>
        <time>2017-11-26T12:25:19Z</time>
      </trkpt>
      <trkpt lat="45.26421" lon="6.01908">
        <ele>1597.4549560547</ele>
        <time>2017-11-26T12:25:22Z</time>
      </trkpt>
      <trkpt lat="45.26419" lon="6.01915">
        <ele>1599.4549560547</ele>
        <time>2017-11-26T12:25:26Z</time>
      </trkpt>
      <trkpt lat="45.26419" lon="6.01921">
        <ele>1600.4549560547</ele>
        <time>2017-11-26T12:25:31Z</time>
      </trkpt>
      <trkpt lat="45.26418" lon="6.01929">
        <ele>1601.4549560547</ele>
        <time>2017-11-26T12:25:36Z</time>
      </trkpt>
      <trkpt lat="45.26422" lon="6.01934">
        <ele>1600.4549560547</ele>
        <time>2017-11-26T12:25:40Z</time>
      </trkpt>
      <trkpt lat="45.2642" lon="6.0194">
        <ele>1603.4549560547</ele>
        <time>2017-11-26T12:25:45Z</time>
      </trkpt>
      <trkpt lat="45.26417" lon="6.01948">
        <ele>1604.4549560547</ele>
        <time>2017-11-26T12:25:50Z</time>
      </trkpt>
      <trkpt lat="45.26416" lon="6.01955">
        <ele>1606.4560546875</ele>
        <time>2017-11-26T12:25:55Z</time>
      </trkpt>
      <trkpt lat="45.26414" lon="6.01961">
        <ele>1604.4560546875</ele>
        <time>2017-11-26T12:26:00Z</time>
      </trkpt>
      <trkpt lat="45.26415" lon="6.01968">
        <ele>1603.4560546875</ele>
        <time>2017-11-26T12:26:06Z</time>
      </trkpt>
      <trkpt lat="45.26411" lon="6.01976">
        <ele>1603.4560546875</ele>
        <time>2017-11-26T12:26:11Z</time>
      </trkpt>
      <trkpt lat="45.26409" lon="6.01983">
        <ele>1607.4560546875</ele>
        <time>2017-11-26T12:26:16Z</time>
      </trkpt>
      <trkpt lat="45.26408" lon="6.01989">
        <ele>1612.4560546875</ele>
        <time>2017-11-26T12:26:23Z</time>
      </trkpt>
      <trkpt lat="45.26406" lon="6.01996">
        <ele>1614.4560546875</ele>
        <time>2017-11-26T12:26:30Z</time>
      </trkpt>
      <trkpt lat="45.26404" lon="6.02003">
        <ele>1618.4560546875</ele>
        <time>2017-11-26T12:26:38Z</time>
      </trkpt>
      <trkpt lat="45.26401" lon="6.02009">
        <ele>1620.4560546875</ele>
        <time>2017-11-26T12:26:44Z</time>
      </trkpt>
      <trkpt lat="45.264" lon="6.02015">
        <ele>1621.4560546875</ele>
        <time>2017-11-26T12:26:50Z</time>
      </trkpt>
      <trkpt lat="45.26398" lon="6.02023">
        <ele>1622.4560546875</ele>
        <time>2017-11-26T12:26:58Z</time>
      </trkpt>
      <trkpt lat="45.26396" lon="6.02028">
        <ele>1623.4560546875</ele>
        <time>2017-11-26T12:27:03Z</time>
      </trkpt>
      <trkpt lat="45.26394" lon="6.02035">
        <ele>1625.4560546875</ele>
        <time>2017-11-26T12:27:09Z</time>
      </trkpt>
      <trkpt lat="45.26392" lon="6.02041">
        <ele>1627.4560546875</ele>
        <time>2017-11-26T12:27:15Z</time>
      </trkpt>
      <trkpt lat="45.26389" lon="6.02047">
        <ele>1629.4560546875</ele>
        <time>2017-11-26T12:27:21Z</time>
      </trkpt>
      <trkpt lat="45.2639" lon="6.02053">
        <ele>1630.4560546875</ele>
        <time>2017-11-26T12:27:25Z</time>
      </trkpt>
      <trkpt lat="45.26386" lon="6.02058">
        <ele>1634.4560546875</ele>
        <time>2017-11-26T12:27:31Z</time>
      </trkpt>
      <trkpt lat="45.26384" lon="6.02064">
        <ele>1637.4560546875</ele>
        <time>2017-11-26T12:27:36Z</time>
      </trkpt>
      <trkpt lat="45.26384" lon="6.0207">
        <ele>1638.4560546875</ele>
        <time>2017-11-26T12:27:42Z</time>
      </trkpt>
      <trkpt lat="45.26383" lon="6.02077">
        <ele>1640.4560546875</ele>
        <time>2017-11-26T12:27:51Z</time>
      </trkpt>
      <trkpt lat="45.26384" lon="6.02084">
        <ele>1643.4560546875</ele>
        <time>2017-11-26T12:28:00Z</time>
      </trkpt>
      <trkpt lat="45.2638" lon="6.02088">
        <ele>1646.4560546875</ele>
        <time>2017-11-26T12:28:04Z</time>
      </trkpt>
      <trkpt lat="45.26377" lon="6.02093">
        <ele>1647.4560546875</ele>
        <time>2017-11-26T12:28:11Z</time>
      </trkpt>
      <trkpt lat="45.26377" lon="6.021">
        <ele>1651.4560546875</ele>
        <time>2017-11-26T12:28:20Z</time>
      </trkpt>
      <trkpt lat="45.26377" lon="6.02107">
        <ele>1650.4560546875</ele>
        <time>2017-11-26T12:28:29Z</time>
      </trkpt>
      <trkpt lat="45.26375" lon="6.02113">
        <ele>1652.4560546875</ele>
        <time>2017-11-26T12:28:35Z</time>
      </trkpt>
      <trkpt lat="45.26373" lon="6.0212">
        <ele>1654.4560546875</ele>
        <time>2017-11-26T12:28:41Z</time>
      </trkpt>
      <trkpt lat="45.26373" lon="6.02126">
        <ele>1659.4560546875</ele>
        <time>2017-11-26T12:28:51Z</time>
      </trkpt>
      <trkpt lat="45.2637" lon="6.02132">
        <ele>1661.4560546875</ele>
        <time>2017-11-26T12:29:02Z</time>
      </trkpt>
      <trkpt lat="45.26367" lon="6.02138">
        <ele>1664.4560546875</ele>
        <time>2017-11-26T12:29:09Z</time>
      </trkpt>
      <trkpt lat="45.26368" lon="6.02145">
        <ele>1664.4560546875</ele>
        <time>2017-11-26T12:29:17Z</time>
      </trkpt>
      <trkpt lat="45.26367" lon="6.02152">
        <ele>1668.4560546875</ele>
        <time>2017-11-26T12:29:23Z</time>
      </trkpt>
      <trkpt lat="45.26366" lon="6.02158">
        <ele>1668.4560546875</ele>
        <time>2017-11-26T12:29:32Z</time>
      </trkpt>
      <trkpt lat="45.26367" lon="6.02166">
        <ele>1668.4560546875</ele>
        <time>2017-11-26T12:29:41Z</time>
      </trkpt>
      <trkpt lat="45.26364" lon="6.02172">
        <ele>1672.4560546875</ele>
        <time>2017-11-26T12:29:48Z</time>
      </trkpt>
      <trkpt lat="45.26362" lon="6.02179">
        <ele>1673.4560546875</ele>
        <time>2017-11-26T12:29:54Z</time>
      </trkpt>
      <trkpt lat="45.26359" lon="6.02185">
        <ele>1675.4560546875</ele>
        <time>2017-11-26T12:29:59Z</time>
      </trkpt>
      <trkpt lat="45.26357" lon="6.02192">
        <ele>1676.4560546875</ele>
        <time>2017-11-26T12:30:04Z</time>
      </trkpt>
      <trkpt lat="45.26353" lon="6.02197">
        <ele>1680.4560546875</ele>
        <time>2017-11-26T12:30:10Z</time>
      </trkpt>
      <trkpt lat="45.26353" lon="6.02204">
        <ele>1682.4560546875</ele>
        <time>2017-11-26T12:30:15Z</time>
      </trkpt>
      <trkpt lat="45.26353" lon="6.02211">
        <ele>1683.4560546875</ele>
        <time>2017-11-26T12:30:21Z</time>
      </trkpt>
      <trkpt lat="45.26356" lon="6.02216">
        <ele>1683.4560546875</ele>
        <time>2017-11-26T12:30:26Z</time>
      </trkpt>
      <trkpt lat="45.26353" lon="6.02222">
        <ele>1685.4560546875</ele>
        <time>2017-11-26T12:30:32Z</time>
      </trkpt>
      <trkpt lat="45.26352" lon="6.0223">
        <ele>1686.4560546875</ele>
        <time>2017-11-26T12:30:38Z</time>
      </trkpt>
      <trkpt lat="45.2635" lon="6.02238">
        <ele>1692.4560546875</ele>
        <time>2017-11-26T12:33:02Z</time>
      </trkpt>
      <trkpt lat="45.26348" lon="6.02244">
        <ele>1692.4560546875</ele>
        <time>2017-11-26T12:33:07Z</time>
      </trkpt>
      <trkpt lat="45.26346" lon="6.0225">
        <ele>1691.4560546875</ele>
        <time>2017-11-26T12:33:19Z</time>
      </trkpt>
      <trkpt lat="45.26343" lon="6.02256">
        <ele>1692.4560546875</ele>
        <time>2017-11-26T12:33:22Z</time>
      </trkpt>
      <trkpt lat="45.26341" lon="6.02262">
        <ele>1692.4560546875</ele>
        <time>2017-11-26T12:33:26Z</time>
      </trkpt>
      <trkpt lat="45.26339" lon="6.02268">
        <ele>1695.4560546875</ele>
        <time>2017-11-26T12:33:31Z</time>
      </trkpt>
      <trkpt lat="45.26338" lon="6.02275">
        <ele>1696.4560546875</ele>
        <time>2017-11-26T12:33:35Z</time>
      </trkpt>
      <trkpt lat="45.26336" lon="6.02281">
        <ele>1696.4560546875</ele>
        <time>2017-11-26T12:33:38Z</time>
      </trkpt>
      <trkpt lat="45.26336" lon="6.02288">
        <ele>1696.4560546875</ele>
        <time>2017-11-26T12:33:42Z</time>
      </trkpt>
      <trkpt lat="45.26334" lon="6.02294">
        <ele>1696.4560546875</ele>
        <time>2017-11-26T12:33:46Z</time>
      </trkpt>
      <trkpt lat="45.26332" lon="6.02302">
        <ele>1697.4560546875</ele>
        <time>2017-11-26T12:33:50Z</time>
      </trkpt>
      <trkpt lat="45.2633" lon="6.02309">
        <ele>1696.4560546875</ele>
        <time>2017-11-26T12:33:55Z</time>
      </trkpt>
      <trkpt lat="45.26328" lon="6.02316">
        <ele>1695.4560546875</ele>
        <time>2017-11-26T12:34:00Z</time>
      </trkpt>
      <trkpt lat="45.26326" lon="6.02322">
        <ele>1695.4560546875</ele>
        <time>2017-11-26T12:34:04Z</time>
      </trkpt>
      <trkpt lat="45.26324" lon="6.0233">
        <ele>1695.4560546875</ele>
        <time>2017-11-26T12:34:08Z</time>
      </trkpt>
      <trkpt lat="45.2632" lon="6.02337">
        <ele>1696.4560546875</ele>
        <time>2017-11-26T12:34:12Z</time>
      </trkpt>
      <trkpt lat="45.2632" lon="6.02344">
        <ele>1695.4560546875</ele>
        <time>2017-11-26T12:34:16Z</time>
      </trkpt>
      <trkpt lat="45.26321" lon="6.02351">
        <ele>1697.4560546875</ele>
        <time>2017-11-26T12:34:20Z</time>
      </trkpt>
      <trkpt lat="45.26319" lon="6.02358">
        <ele>1697.4560546875</ele>
        <time>2017-11-26T12:34:23Z</time>
      </trkpt>
      <trkpt lat="45.26316" lon="6.02364">
        <ele>1698.4560546875</ele>
        <time>2017-11-26T12:34:27Z</time>
      </trkpt>
      <trkpt lat="45.26315" lon="6.02372">
        <ele>1700.4560546875</ele>
        <time>2017-11-26T12:34:32Z</time>
      </trkpt>
      <trkpt lat="45.26315" lon="6.0238">
        <ele>1701.4560546875</ele>
        <time>2017-11-26T12:34:36Z</time>
      </trkpt>
      <trkpt lat="45.26313" lon="6.02387">
        <ele>1701.4560546875</ele>
        <time>2017-11-26T12:34:39Z</time>
      </trkpt>
      <trkpt lat="45.26309" lon="6.02393">
        <ele>1703.4560546875</ele>
        <time>2017-11-26T12:34:43Z</time>
      </trkpt>
      <trkpt lat="45.26312" lon="6.02399">
        <ele>1702.4560546875</ele>
        <time>2017-11-26T12:34:48Z</time>
      </trkpt>
      <trkpt lat="45.26309" lon="6.02405">
        <ele>1703.4560546875</ele>
        <time>2017-11-26T12:34:51Z</time>
      </trkpt>
      <trkpt lat="45.26306" lon="6.02411">
        <ele>1702.4560546875</ele>
        <time>2017-11-26T12:34:54Z</time>
      </trkpt>
      <trkpt lat="45.26304" lon="6.02418">
        <ele>1704.4560546875</ele>
        <time>2017-11-26T12:34:58Z</time>
      </trkpt>
      <trkpt lat="45.26304" lon="6.02424">
        <ele>1703.4560546875</ele>
        <time>2017-11-26T12:35:02Z</time>
      </trkpt>
      <trkpt lat="45.26306" lon="6.02431">
        <ele>1703.4560546875</ele>
        <time>2017-11-26T12:35:06Z</time>
      </trkpt>
      <trkpt lat="45.26305" lon="6.02438">
        <ele>1705.4560546875</ele>
        <time>2017-11-26T12:35:10Z</time>
      </trkpt>
      <trkpt lat="45.26303" lon="6.02444">
        <ele>1706.4560546875</ele>
        <time>2017-11-26T12:35:15Z</time>
      </trkpt>
      <trkpt lat="45.26302" lon="6.02452">
        <ele>1707.4560546875</ele>
        <time>2017-11-26T12:35:20Z</time>
      </trkpt>
      <trkpt lat="45.26299" lon="6.02458">
        <ele>1710.4560546875</ele>
        <time>2017-11-26T12:35:25Z</time>
      </trkpt>
      <trkpt lat="45.26296" lon="6.02464">
        <ele>1713.4560546875</ele>
        <time>2017-11-26T12:35:30Z</time>
      </trkpt>
      <trkpt lat="45.26293" lon="6.02471">
        <ele>1715.4560546875</ele>
        <time>2017-11-26T12:35:34Z</time>
      </trkpt>
      <trkpt lat="45.2629" lon="6.02477">
        <ele>1717.4560546875</ele>
        <time>2017-11-26T12:35:39Z</time>
      </trkpt>
      <trkpt lat="45.26288" lon="6.02483">
        <ele>1718.4560546875</ele>
        <time>2017-11-26T12:35:44Z</time>
      </trkpt>
      <trkpt lat="45.26287" lon="6.02491">
        <ele>1718.4560546875</ele>
        <time>2017-11-26T12:35:50Z</time>
      </trkpt>
      <trkpt lat="45.26287" lon="6.02497">
        <ele>1721.4560546875</ele>
        <time>2017-11-26T12:35:55Z</time>
      </trkpt>
      <trkpt lat="45.26287" lon="6.02504">
        <ele>1721.4560546875</ele>
        <time>2017-11-26T12:35:59Z</time>
      </trkpt>
      <trkpt lat="45.26285" lon="6.02513">
        <ele>1720.4560546875</ele>
        <time>2017-11-26T12:36:03Z</time>
      </trkpt>
      <trkpt lat="45.26284" lon="6.0252">
        <ele>1722.4560546875</ele>
        <time>2017-11-26T12:36:07Z</time>
      </trkpt>
      <trkpt lat="45.26282" lon="6.02527">
        <ele>1723.4560546875</ele>
        <time>2017-11-26T12:36:10Z</time>
      </trkpt>
      <trkpt lat="45.26283" lon="6.02536">
        <ele>1723.4560546875</ele>
        <time>2017-11-26T12:36:14Z</time>
      </trkpt>
      <trkpt lat="45.26287" lon="6.02542">
        <ele>1724.4560546875</ele>
        <time>2017-11-26T12:36:18Z</time>
      </trkpt>
      <trkpt lat="45.26291" lon="6.02546">
        <ele>1726.4560546875</ele>
        <time>2017-11-26T12:36:22Z</time>
      </trkpt>
      <trkpt lat="45.26295" lon="6.02551">
        <ele>1728.4560546875</ele>
        <time>2017-11-26T12:36:25Z</time>
      </trkpt>
      <trkpt lat="45.26298" lon="6.02557">
        <ele>1730.4560546875</ele>
        <time>2017-11-26T12:36:35Z</time>
      </trkpt>
      <trkpt lat="45.26302" lon="6.02561">
        <ele>1730.4560546875</ele>
        <time>2017-11-26T12:36:38Z</time>
      </trkpt>
      <trkpt lat="45.26307" lon="6.02565">
        <ele>1732.4560546875</ele>
        <time>2017-11-26T12:36:41Z</time>
      </trkpt>
      <trkpt lat="45.26312" lon="6.0257">
        <ele>1733.4560546875</ele>
        <time>2017-11-26T12:36:44Z</time>
      </trkpt>
      <trkpt lat="45.26316" lon="6.02575">
        <ele>1734.4560546875</ele>
        <time>2017-11-26T12:36:47Z</time>
      </trkpt>
      <trkpt lat="45.26321" lon="6.02578">
        <ele>1735.4560546875</ele>
        <time>2017-11-26T12:36:50Z</time>
      </trkpt>
      <trkpt lat="45.26325" lon="6.02584">
        <ele>1736.4560546875</ele>
        <time>2017-11-26T12:36:54Z</time>
      </trkpt>
      <trkpt lat="45.26328" lon="6.02589">
        <ele>1738.4560546875</ele>
        <time>2017-11-26T12:36:57Z</time>
      </trkpt>
      <trkpt lat="45.26331" lon="6.02596">
        <ele>1738.4560546875</ele>
        <time>2017-11-26T12:37:01Z</time>
      </trkpt>
      <trkpt lat="45.2633" lon="6.02603">
        <ele>1737.4560546875</ele>
        <time>2017-11-26T12:37:05Z</time>
      </trkpt>
      <trkpt lat="45.26327" lon="6.0261">
        <ele>1739.4560546875</ele>
        <time>2017-11-26T12:37:10Z</time>
      </trkpt>
      <trkpt lat="45.26324" lon="6.02617">
        <ele>1739.4560546875</ele>
        <time>2017-11-26T12:37:14Z</time>
      </trkpt>
      <trkpt lat="45.2632" lon="6.02622">
        <ele>1739.4560546875</ele>
        <time>2017-11-26T12:37:18Z</time>
      </trkpt>
      <trkpt lat="45.26316" lon="6.02627">
        <ele>1740.4560546875</ele>
        <time>2017-11-26T12:37:24Z</time>
      </trkpt>
      <trkpt lat="45.26315" lon="6.02633">
        <ele>1743.4560546875</ele>
        <time>2017-11-26T12:37:29Z</time>
      </trkpt>
      <trkpt lat="45.26309" lon="6.02637">
        <ele>1744.4560546875</ele>
        <time>2017-11-26T12:37:31Z</time>
      </trkpt>
      <trkpt lat="45.26305" lon="6.02639">
        <ele>1744.4560546875</ele>
        <time>2017-11-26T12:37:34Z</time>
      </trkpt>
      <trkpt lat="45.263" lon="6.02641">
        <ele>1743.4560546875</ele>
        <time>2017-11-26T12:37:43Z</time>
      </trkpt>
      <trkpt lat="45.26295" lon="6.02643">
        <ele>1746.4560546875</ele>
        <time>2017-11-26T12:37:45Z</time>
      </trkpt>
      <trkpt lat="45.2629" lon="6.02643">
        <ele>1748.4560546875</ele>
        <time>2017-11-26T12:37:49Z</time>
      </trkpt>
      <trkpt lat="45.26286" lon="6.02649">
        <ele>1749.4560546875</ele>
        <time>2017-11-26T12:37:55Z</time>
      </trkpt>
      <trkpt lat="45.26282" lon="6.02654">
        <ele>1748.4560546875</ele>
        <time>2017-11-26T12:38:01Z</time>
      </trkpt>
      <trkpt lat="45.26277" lon="6.02657">
        <ele>1750.4560546875</ele>
        <time>2017-11-26T12:38:06Z</time>
      </trkpt>
      <trkpt lat="45.26273" lon="6.0266">
        <ele>1751.4560546875</ele>
        <time>2017-11-26T12:38:10Z</time>
      </trkpt>
      <trkpt lat="45.26268" lon="6.02663">
        <ele>1752.4560546875</ele>
        <time>2017-11-26T12:38:18Z</time>
      </trkpt>
      <trkpt lat="45.26265" lon="6.02667">
        <ele>1754.4560546875</ele>
        <time>2017-11-26T12:38:29Z</time>
      </trkpt>
      <trkpt lat="45.26259" lon="6.02671">
        <ele>1755.4560546875</ele>
        <time>2017-11-26T12:38:35Z</time>
      </trkpt>
      <trkpt lat="45.26254" lon="6.02672">
        <ele>1757.4560546875</ele>
        <time>2017-11-26T12:38:39Z</time>
      </trkpt>
      <trkpt lat="45.26249" lon="6.02674">
        <ele>1759.4560546875</ele>
        <time>2017-11-26T12:38:42Z</time>
      </trkpt>
      <trkpt lat="45.26245" lon="6.02677">
        <ele>1763.4560546875</ele>
        <time>2017-11-26T12:38:48Z</time>
      </trkpt>
      <trkpt lat="45.26242" lon="6.02683">
        <ele>1764.4560546875</ele>
        <time>2017-11-26T12:38:52Z</time>
      </trkpt>
      <trkpt lat="45.26239" lon="6.02689">
        <ele>1765.4560546875</ele>
        <time>2017-11-26T12:38:57Z</time>
      </trkpt>
      <trkpt lat="45.2624" lon="6.02695">
        <ele>1766.4560546875</ele>
        <time>2017-11-26T12:39:02Z</time>
      </trkpt>
      <trkpt lat="45.26236" lon="6.027">
        <ele>1769.4560546875</ele>
        <time>2017-11-26T12:39:06Z</time>
      </trkpt>
      <trkpt lat="45.26231" lon="6.02698">
        <ele>1771.4560546875</ele>
        <time>2017-11-26T12:39:22Z</time>
      </trkpt>
      <trkpt lat="45.26226" lon="6.02697">
        <ele>1743.4560546875</ele>
        <time>2017-11-26T12:39:28Z</time>
      </trkpt>
      <trkpt lat="45.26222" lon="6.02696">
        <ele>1764.4560546875</ele>
        <time>2017-11-26T12:39:34Z</time>
      </trkpt>
      <trkpt lat="45.26216" lon="6.02693">
        <ele>1772.4560546875</ele>
        <time>2017-11-26T12:39:41Z</time>
      </trkpt>
      <trkpt lat="45.26217" lon="6.027">
        <ele>1775.4560546875</ele>
        <time>2017-11-26T12:39:54Z</time>
      </trkpt>
      <trkpt lat="45.26219" lon="6.02706">
        <ele>1776.4560546875</ele>
        <time>2017-11-26T12:40:00Z</time>
      </trkpt>
      <trkpt lat="45.2622" lon="6.02713">
        <ele>1779.4560546875</ele>
        <time>2017-11-26T12:40:05Z</time>
      </trkpt>
      <trkpt lat="45.26218" lon="6.02719">
        <ele>1780.4560546875</ele>
        <time>2017-11-26T12:40:10Z</time>
      </trkpt>
      <trkpt lat="45.2622" lon="6.02726">
        <ele>1780.4560546875</ele>
        <time>2017-11-26T12:40:14Z</time>
      </trkpt>
      <trkpt lat="45.26215" lon="6.02726">
        <ele>1783.4560546875</ele>
        <time>2017-11-26T12:40:26Z</time>
      </trkpt>
      <trkpt lat="45.26212" lon="6.0272">
        <ele>1785.4560546875</ele>
        <time>2017-11-26T12:40:33Z</time>
      </trkpt>
      <trkpt lat="45.26207" lon="6.02719">
        <ele>1787.4560546875</ele>
        <time>2017-11-26T12:40:37Z</time>
      </trkpt>
      <trkpt lat="45.26203" lon="6.02716">
        <ele>1788.4560546875</ele>
        <time>2017-11-26T12:40:49Z</time>
      </trkpt>
      <trkpt lat="45.26199" lon="6.02712">
        <ele>1789.4560546875</ele>
        <time>2017-11-26T12:40:52Z</time>
      </trkpt>
      <trkpt lat="45.26195" lon="6.02709">
        <ele>1790.4560546875</ele>
        <time>2017-11-26T12:40:58Z</time>
      </trkpt>
      <trkpt lat="45.26189" lon="6.02709">
        <ele>1903.4560546875</ele>
        <time>2017-11-26T12:41:03Z</time>
      </trkpt>
      <trkpt lat="45.26185" lon="6.02705">
        <ele>1844.4560546875</ele>
        <time>2017-11-26T12:41:07Z</time>
      </trkpt>
      <trkpt lat="45.26179" lon="6.02705">
        <ele>1812.4560546875</ele>
        <time>2017-11-26T12:41:12Z</time>
      </trkpt>
      <trkpt lat="45.2618" lon="6.02711">
        <ele>1808.4560546875</ele>
        <time>2017-11-26T12:41:27Z</time>
      </trkpt>
      <trkpt lat="45.26184" lon="6.02717">
        <ele>1808.4560546875</ele>
        <time>2017-11-26T12:41:32Z</time>
      </trkpt>
      <trkpt lat="45.26181" lon="6.02723">
        <ele>1807.4560546875</ele>
        <time>2017-11-26T12:41:51Z</time>
      </trkpt>
      <trkpt lat="45.26183" lon="6.0273">
        <ele>1809.4560546875</ele>
        <time>2017-11-26T12:42:13Z</time>
      </trkpt>
      <trkpt lat="45.26184" lon="6.02737">
        <ele>1811.4560546875</ele>
        <time>2017-11-26T12:42:19Z</time>
      </trkpt>
      <trkpt lat="45.26184" lon="6.02744">
        <ele>1814.4560546875</ele>
        <time>2017-11-26T12:42:25Z</time>
      </trkpt>
      <trkpt lat="45.26179" lon="6.02746">
        <ele>1816.4560546875</ele>
        <time>2017-11-26T12:42:32Z</time>
      </trkpt>
      <trkpt lat="45.26174" lon="6.02746">
        <ele>1818.4560546875</ele>
        <time>2017-11-26T12:42:37Z</time>
      </trkpt>
      <trkpt lat="45.2617" lon="6.02744">
        <ele>1819.4560546875</ele>
        <time>2017-11-26T12:42:41Z</time>
      </trkpt>
      <trkpt lat="45.26166" lon="6.02741">
        <ele>1820.4560546875</ele>
        <time>2017-11-26T12:42:48Z</time>
      </trkpt>
      <trkpt lat="45.26161" lon="6.02738">
        <ele>1823.4560546875</ele>
        <time>2017-11-26T12:42:53Z</time>
      </trkpt>
      <trkpt lat="45.26157" lon="6.02734">
        <ele>1825.4560546875</ele>
        <time>2017-11-26T12:42:59Z</time>
      </trkpt>
      <trkpt lat="45.26152" lon="6.0273">
        <ele>1827.4560546875</ele>
        <time>2017-11-26T12:43:05Z</time>
      </trkpt>
      <trkpt lat="45.26147" lon="6.02731">
        <ele>1829.4560546875</ele>
        <time>2017-11-26T12:43:12Z</time>
      </trkpt>
      <trkpt lat="45.26144" lon="6.02725">
        <ele>1832.4560546875</ele>
        <time>2017-11-26T12:43:17Z</time>
      </trkpt>
      <trkpt lat="45.2614" lon="6.02721">
        <ele>1834.4560546875</ele>
        <time>2017-11-26T12:43:26Z</time>
      </trkpt>
      <trkpt lat="45.26135" lon="6.02718">
        <ele>1834.4560546875</ele>
        <time>2017-11-26T12:43:33Z</time>
      </trkpt>
      <trkpt lat="45.26132" lon="6.02714">
        <ele>1835.4560546875</ele>
        <time>2017-11-26T12:43:37Z</time>
      </trkpt>
      <trkpt lat="45.26129" lon="6.02708">
        <ele>1837.4560546875</ele>
        <time>2017-11-26T12:43:42Z</time>
      </trkpt>
      <trkpt lat="45.26126" lon="6.02703">
        <ele>1838.4560546875</ele>
        <time>2017-11-26T12:43:47Z</time>
      </trkpt>
      <trkpt lat="45.26122" lon="6.02698">
        <ele>1840.4560546875</ele>
        <time>2017-11-26T12:43:53Z</time>
      </trkpt>
      <trkpt lat="45.26118" lon="6.02692">
        <ele>1843.4560546875</ele>
        <time>2017-11-26T12:43:58Z</time>
      </trkpt>
      <trkpt lat="45.26115" lon="6.02687">
        <ele>1843.4560546875</ele>
        <time>2017-11-26T12:44:04Z</time>
      </trkpt>
      <trkpt lat="45.26113" lon="6.02682">
        <ele>1845.4560546875</ele>
        <time>2017-11-26T12:44:08Z</time>
      </trkpt>
      <trkpt lat="45.26107" lon="6.02683">
        <ele>1846.4560546875</ele>
        <time>2017-11-26T12:44:13Z</time>
      </trkpt>
      <trkpt lat="45.26103" lon="6.02683">
        <ele>1847.4560546875</ele>
        <time>2017-11-26T12:44:17Z</time>
      </trkpt>
      <trkpt lat="45.26097" lon="6.02685">
        <ele>1847.4560546875</ele>
        <time>2017-11-26T12:44:22Z</time>
      </trkpt>
      <trkpt lat="45.26095" lon="6.02692">
        <ele>1847.4560546875</ele>
        <time>2017-11-26T12:44:27Z</time>
      </trkpt>
      <trkpt lat="45.2609" lon="6.02695">
        <ele>1845.4560546875</ele>
        <time>2017-11-26T12:44:30Z</time>
      </trkpt>
      <trkpt lat="45.26092" lon="6.02701">
        <ele>1845.4560546875</ele>
        <time>2017-11-26T12:44:34Z</time>
      </trkpt>
      <trkpt lat="45.26091" lon="6.02708">
        <ele>1845.4560546875</ele>
        <time>2017-11-26T12:44:40Z</time>
      </trkpt>
      <trkpt lat="45.26088" lon="6.02713">
        <ele>1845.4560546875</ele>
        <time>2017-11-26T12:44:44Z</time>
      </trkpt>
      <trkpt lat="45.2609" lon="6.02721">
        <ele>1843.4560546875</ele>
        <time>2017-11-26T12:44:50Z</time>
      </trkpt>
      <trkpt lat="45.26086" lon="6.02727">
        <ele>1844.4560546875</ele>
        <time>2017-11-26T12:44:55Z</time>
      </trkpt>
      <trkpt lat="45.26086" lon="6.02734">
        <ele>1846.4560546875</ele>
        <time>2017-11-26T12:44:59Z</time>
      </trkpt>
      <trkpt lat="45.26087" lon="6.02741">
        <ele>1846.4560546875</ele>
        <time>2017-11-26T12:45:03Z</time>
      </trkpt>
      <trkpt lat="45.26089" lon="6.02748">
        <ele>1848.4560546875</ele>
        <time>2017-11-26T12:45:08Z</time>
      </trkpt>
      <trkpt lat="45.26087" lon="6.02754">
        <ele>1851.4560546875</ele>
        <time>2017-11-26T12:45:12Z</time>
      </trkpt>
      <trkpt lat="45.26088" lon="6.0276">
        <ele>1854.4560546875</ele>
        <time>2017-11-26T12:45:18Z</time>
      </trkpt>
      <trkpt lat="45.26088" lon="6.02767">
        <ele>1853.4560546875</ele>
        <time>2017-11-26T12:45:23Z</time>
      </trkpt>
      <trkpt lat="45.26086" lon="6.02774">
        <ele>1854.4560546875</ele>
        <time>2017-11-26T12:45:27Z</time>
      </trkpt>
      <trkpt lat="45.26086" lon="6.02781">
        <ele>1856.4560546875</ele>
        <time>2017-11-26T12:45:32Z</time>
      </trkpt>
      <trkpt lat="45.26087" lon="6.02789">
        <ele>1861.4560546875</ele>
        <time>2017-11-26T12:45:38Z</time>
      </trkpt>
      <trkpt lat="45.26088" lon="6.02796">
        <ele>1863.4560546875</ele>
        <time>2017-11-26T12:45:43Z</time>
      </trkpt>
      <trkpt lat="45.26088" lon="6.02803">
        <ele>1864.4560546875</ele>
        <time>2017-11-26T12:45:47Z</time>
      </trkpt>
      <trkpt lat="45.26091" lon="6.02809">
        <ele>1868.4560546875</ele>
        <time>2017-11-26T12:45:53Z</time>
      </trkpt>
      <trkpt lat="45.26094" lon="6.02814">
        <ele>1870.4560546875</ele>
        <time>2017-11-26T12:46:00Z</time>
      </trkpt>
      <trkpt lat="45.26098" lon="6.02821">
        <ele>1873.4560546875</ele>
        <time>2017-11-26T12:46:08Z</time>
      </trkpt>
      <trkpt lat="45.26099" lon="6.02828">
        <ele>1876.4560546875</ele>
        <time>2017-11-26T12:46:13Z</time>
      </trkpt>
      <trkpt lat="45.26099" lon="6.02836">
        <ele>1877.4560546875</ele>
        <time>2017-11-26T12:46:18Z</time>
      </trkpt>
      <trkpt lat="45.26096" lon="6.02842">
        <ele>1877.4560546875</ele>
        <time>2017-11-26T12:46:25Z</time>
      </trkpt>
      <trkpt lat="45.26096" lon="6.0285">
        <ele>1878.4560546875</ele>
        <time>2017-11-26T12:46:38Z</time>
      </trkpt>
      <trkpt lat="45.26095" lon="6.02856">
        <ele>1876.4560546875</ele>
        <time>2017-11-26T12:46:43Z</time>
      </trkpt>
      <trkpt lat="45.26094" lon="6.02862">
        <ele>1880.4560546875</ele>
        <time>2017-11-26T12:46:52Z</time>
      </trkpt>
      <trkpt lat="45.26095" lon="6.0287">
        <ele>1883.4560546875</ele>
        <time>2017-11-26T12:46:57Z</time>
      </trkpt>
      <trkpt lat="45.26097" lon="6.02876">
        <ele>1882.4560546875</ele>
        <time>2017-11-26T12:47:04Z</time>
      </trkpt>
      <trkpt lat="45.26092" lon="6.02879">
        <ele>1884.4560546875</ele>
        <time>2017-11-26T12:47:06Z</time>
      </trkpt>
      <trkpt lat="45.26089" lon="6.02885">
        <ele>1886.4560546875</ele>
        <time>2017-11-26T12:47:14Z</time>
      </trkpt>
      <trkpt lat="45.26087" lon="6.02892">
        <ele>1893.4560546875</ele>
        <time>2017-11-26T12:47:22Z</time>
      </trkpt>
      <trkpt lat="45.26088" lon="6.02899">
        <ele>1893.4560546875</ele>
        <time>2017-11-26T12:47:29Z</time>
      </trkpt>
      <trkpt lat="45.26085" lon="6.02904">
        <ele>1894.4560546875</ele>
        <time>2017-11-26T12:47:33Z</time>
      </trkpt>
      <trkpt lat="45.26087" lon="6.02911">
        <ele>1892.4560546875</ele>
        <time>2017-11-26T12:47:39Z</time>
      </trkpt>
      <trkpt lat="45.26083" lon="6.02916">
        <ele>1895.4560546875</ele>
        <time>2017-11-26T12:47:44Z</time>
      </trkpt>
      <trkpt lat="45.26083" lon="6.02923">
        <ele>1893.4560546875</ele>
        <time>2017-11-26T12:47:49Z</time>
      </trkpt>
      <trkpt lat="45.26081" lon="6.02929">
        <ele>1893.4560546875</ele>
        <time>2017-11-26T12:47:53Z</time>
      </trkpt>
      <trkpt lat="45.26078" lon="6.02935">
        <ele>1893.4560546875</ele>
        <time>2017-11-26T12:47:57Z</time>
      </trkpt>
      <trkpt lat="45.26077" lon="6.02942">
        <ele>1893.4560546875</ele>
        <time>2017-11-26T12:48:02Z</time>
      </trkpt>
      <trkpt lat="45.26071" lon="6.02947">
        <ele>1897.4560546875</ele>
        <time>2017-11-26T12:48:05Z</time>
      </trkpt>
      <trkpt lat="45.26068" lon="6.02955">
        <ele>1897.4560546875</ele>
        <time>2017-11-26T12:48:09Z</time>
      </trkpt>
      <trkpt lat="45.26065" lon="6.02961">
        <ele>1899.4560546875</ele>
        <time>2017-11-26T12:48:13Z</time>
      </trkpt>
      <trkpt lat="45.26061" lon="6.02966">
        <ele>1899.4560546875</ele>
        <time>2017-11-26T12:48:17Z</time>
      </trkpt>
      <trkpt lat="45.26063" lon="6.02974">
        <ele>1897.4560546875</ele>
        <time>2017-11-26T12:48:22Z</time>
      </trkpt>
      <trkpt lat="45.26062" lon="6.02981">
        <ele>1897.4560546875</ele>
        <time>2017-11-26T12:48:26Z</time>
      </trkpt>
      <trkpt lat="45.26062" lon="6.02989">
        <ele>1898.4560546875</ele>
        <time>2017-11-26T12:48:31Z</time>
      </trkpt>
      <trkpt lat="45.26062" lon="6.02997">
        <ele>1898.4560546875</ele>
        <time>2017-11-26T12:48:36Z</time>
      </trkpt>
      <trkpt lat="45.26058" lon="6.03002">
        <ele>1900.4560546875</ele>
        <time>2017-11-26T12:48:39Z</time>
      </trkpt>
      <trkpt lat="45.26055" lon="6.0301">
        <ele>1901.4560546875</ele>
        <time>2017-11-26T12:48:44Z</time>
      </trkpt>
      <trkpt lat="45.26052" lon="6.03015">
        <ele>1901.4560546875</ele>
        <time>2017-11-26T12:48:47Z</time>
      </trkpt>
      <trkpt lat="45.26049" lon="6.03022">
        <ele>1902.4560546875</ele>
        <time>2017-11-26T12:48:50Z</time>
      </trkpt>
      <trkpt lat="45.26051" lon="6.03029">
        <ele>1900.4560546875</ele>
        <time>2017-11-26T12:48:53Z</time>
      </trkpt>
      <trkpt lat="45.26051" lon="6.03036">
        <ele>1899.4560546875</ele>
        <time>2017-11-26T12:48:57Z</time>
      </trkpt>
      <trkpt lat="45.26052" lon="6.03044">
        <ele>1901.4560546875</ele>
        <time>2017-11-26T12:49:02Z</time>
      </trkpt>
      <trkpt lat="45.26051" lon="6.0305">
        <ele>1902.4560546875</ele>
        <time>2017-11-26T12:49:07Z</time>
      </trkpt>
      <trkpt lat="45.26052" lon="6.03057">
        <ele>1902.4560546875</ele>
        <time>2017-11-26T12:49:11Z</time>
      </trkpt>
      <trkpt lat="45.2605" lon="6.03063">
        <ele>1903.4560546875</ele>
        <time>2017-11-26T12:49:17Z</time>
      </trkpt>
      <trkpt lat="45.26048" lon="6.0307">
        <ele>1905.4560546875</ele>
        <time>2017-11-26T12:49:23Z</time>
      </trkpt>
      <trkpt lat="45.26047" lon="6.03077">
        <ele>1909.4560546875</ele>
        <time>2017-11-26T12:49:28Z</time>
      </trkpt>
      <trkpt lat="45.2605" lon="6.03083">
        <ele>1915.4560546875</ele>
        <time>2017-11-26T12:49:37Z</time>
      </trkpt>
      <trkpt lat="45.26055" lon="6.03088">
        <ele>1919.4560546875</ele>
        <time>2017-11-26T12:49:43Z</time>
      </trkpt>
      <trkpt lat="45.26058" lon="6.03093">
        <ele>1923.4560546875</ele>
        <time>2017-11-26T12:49:48Z</time>
      </trkpt>
      <trkpt lat="45.2606" lon="6.03098">
        <ele>1925.4560546875</ele>
        <time>2017-11-26T12:49:53Z</time>
      </trkpt>
      <trkpt lat="45.26062" lon="6.03105">
        <ele>1927.4560546875</ele>
        <time>2017-11-26T12:49:59Z</time>
      </trkpt>
      <trkpt lat="45.2606" lon="6.03112">
        <ele>1928.4560546875</ele>
        <time>2017-11-26T12:50:04Z</time>
      </trkpt>
      <trkpt lat="45.26057" lon="6.03119">
        <ele>1931.4560546875</ele>
        <time>2017-11-26T12:50:10Z</time>
      </trkpt>
      <trkpt lat="45.26054" lon="6.03125">
        <ele>1933.4560546875</ele>
        <time>2017-11-26T12:50:17Z</time>
      </trkpt>
      <trkpt lat="45.26051" lon="6.0313">
        <ele>1932.4560546875</ele>
        <time>2017-11-26T12:50:21Z</time>
      </trkpt>
      <trkpt lat="45.26049" lon="6.03136">
        <ele>1933.4560546875</ele>
        <time>2017-11-26T12:50:27Z</time>
      </trkpt>
      <trkpt lat="45.26045" lon="6.0314">
        <ele>1933.4560546875</ele>
        <time>2017-11-26T12:50:35Z</time>
      </trkpt>
      <trkpt lat="45.2604" lon="6.03144">
        <ele>1935.4560546875</ele>
        <time>2017-11-26T12:50:42Z</time>
      </trkpt>
      <trkpt lat="45.26035" lon="6.03146">
        <ele>1933.4560546875</ele>
        <time>2017-11-26T12:50:51Z</time>
      </trkpt>
      <trkpt lat="45.26029" lon="6.03147">
        <ele>1934.4560546875</ele>
        <time>2017-11-26T12:50:56Z</time>
      </trkpt>
      <trkpt lat="45.26024" lon="6.03148">
        <ele>1938.4560546875</ele>
        <time>2017-11-26T12:50:59Z</time>
      </trkpt>
      <trkpt lat="45.2602" lon="6.03149">
        <ele>1938.4560546875</ele>
        <time>2017-11-26T12:51:03Z</time>
      </trkpt>
      <trkpt lat="45.26015" lon="6.03151">
        <ele>1941.4560546875</ele>
        <time>2017-11-26T12:51:09Z</time>
      </trkpt>
      <trkpt lat="45.26011" lon="6.03152">
        <ele>1942.4560546875</ele>
        <time>2017-11-26T12:51:14Z</time>
      </trkpt>
      <trkpt lat="45.26005" lon="6.03153">
        <ele>1944.4560546875</ele>
        <time>2017-11-26T12:51:22Z</time>
      </trkpt>
      <trkpt lat="45.26004" lon="6.0316">
        <ele>1947.4560546875</ele>
        <time>2017-11-26T12:51:29Z</time>
      </trkpt>
      <trkpt lat="45.26" lon="6.03165">
        <ele>1947.4560546875</ele>
        <time>2017-11-26T12:51:35Z</time>
      </trkpt>
      <trkpt lat="45.25995" lon="6.03169">
        <ele>1944.4560546875</ele>
        <time>2017-11-26T12:51:41Z</time>
      </trkpt>
      <trkpt lat="45.25995" lon="6.03176">
        <ele>1947.4560546875</ele>
        <time>2017-11-26T12:51:48Z</time>
      </trkpt>
      <trkpt lat="45.25993" lon="6.03183">
        <ele>1952.4560546875</ele>
        <time>2017-11-26T12:51:53Z</time>
      </trkpt>
      <trkpt lat="45.25992" lon="6.03189">
        <ele>1953.4560546875</ele>
        <time>2017-11-26T12:52:00Z</time>
      </trkpt>
      <trkpt lat="45.25989" lon="6.03195">
        <ele>1952.4560546875</ele>
        <time>2017-11-26T12:52:05Z</time>
      </trkpt>
      <trkpt lat="45.25985" lon="6.032">
        <ele>1953.4560546875</ele>
        <time>2017-11-26T12:52:10Z</time>
      </trkpt>
      <trkpt lat="45.25979" lon="6.03202">
        <ele>1954.4560546875</ele>
        <time>2017-11-26T12:52:15Z</time>
      </trkpt>
      <trkpt lat="45.25974" lon="6.03203">
        <ele>1958.4560546875</ele>
        <time>2017-11-26T12:52:20Z</time>
      </trkpt>
      <trkpt lat="45.25969" lon="6.03204">
        <ele>1960.4560546875</ele>
        <time>2017-11-26T12:52:26Z</time>
      </trkpt>
      <trkpt lat="45.25964" lon="6.03201">
        <ele>1962.4560546875</ele>
        <time>2017-11-26T12:52:30Z</time>
      </trkpt>
      <trkpt lat="45.2596" lon="6.03197">
        <ele>1965.4560546875</ele>
        <time>2017-11-26T12:52:36Z</time>
      </trkpt>
      <trkpt lat="45.25956" lon="6.03195">
        <ele>1964.4560546875</ele>
        <time>2017-11-26T12:52:43Z</time>
      </trkpt>
      <trkpt lat="45.2595" lon="6.03196">
        <ele>1965.4560546875</ele>
        <time>2017-11-26T12:52:48Z</time>
      </trkpt>
      <trkpt lat="45.25946" lon="6.03192">
        <ele>1967.4560546875</ele>
        <time>2017-11-26T12:52:52Z</time>
      </trkpt>
      <trkpt lat="45.25941" lon="6.03189">
        <ele>1970.4560546875</ele>
        <time>2017-11-26T12:52:56Z</time>
      </trkpt>
      <trkpt lat="45.25937" lon="6.03186">
        <ele>1972.4560546875</ele>
        <time>2017-11-26T12:53:00Z</time>
      </trkpt>
      <trkpt lat="45.25932" lon="6.03183">
        <ele>1974.4560546875</ele>
        <time>2017-11-26T12:53:05Z</time>
      </trkpt>
      <trkpt lat="45.25928" lon="6.03184">
        <ele>1972.4560546875</ele>
        <time>2017-11-26T12:53:12Z</time>
      </trkpt>
      <trkpt lat="45.25924" lon="6.03178">
        <ele>1974.4560546875</ele>
        <time>2017-11-26T12:53:17Z</time>
      </trkpt>
      <trkpt lat="45.2592" lon="6.03173">
        <ele>1977.4560546875</ele>
        <time>2017-11-26T12:53:23Z</time>
      </trkpt>
      <trkpt lat="45.25915" lon="6.03169">
        <ele>1979.4560546875</ele>
        <time>2017-11-26T12:53:28Z</time>
      </trkpt>
      <trkpt lat="45.25912" lon="6.03164">
        <ele>1979.4560546875</ele>
        <time>2017-11-26T12:53:35Z</time>
      </trkpt>
      <trkpt lat="45.25909" lon="6.03159">
        <ele>1980.4560546875</ele>
        <time>2017-11-26T12:53:42Z</time>
      </trkpt>
      <trkpt lat="45.25906" lon="6.03153">
        <ele>1983.4560546875</ele>
        <time>2017-11-26T12:53:45Z</time>
      </trkpt>
      <trkpt lat="45.25902" lon="6.03146">
        <ele>1987.4560546875</ele>
        <time>2017-11-26T12:53:49Z</time>
      </trkpt>
      <trkpt lat="45.25898" lon="6.03139">
        <ele>1988.4560546875</ele>
        <time>2017-11-26T12:53:54Z</time>
      </trkpt>
      <trkpt lat="45.25893" lon="6.03136">
        <ele>1990.4560546875</ele>
        <time>2017-11-26T12:54:00Z</time>
      </trkpt>
      <trkpt lat="45.25891" lon="6.0313">
        <ele>1995.4560546875</ele>
        <time>2017-11-26T12:54:06Z</time>
      </trkpt>
      <trkpt lat="45.2589" lon="6.03122">
        <ele>1996.4560546875</ele>
        <time>2017-11-26T12:54:16Z</time>
      </trkpt>
      <trkpt lat="45.25887" lon="6.03116">
        <ele>1996.4560546875</ele>
        <time>2017-11-26T12:54:20Z</time>
      </trkpt>
      <trkpt lat="45.25884" lon="6.03112">
        <ele>1978.4560546875</ele>
        <time>2017-11-26T12:54:27Z</time>
      </trkpt>
      <trkpt lat="45.2588" lon="6.03106">
        <ele>1992.4560546875</ele>
        <time>2017-11-26T12:54:32Z</time>
      </trkpt>
      <trkpt lat="45.25875" lon="6.03102">
        <ele>2001.4560546875</ele>
        <time>2017-11-26T12:54:38Z</time>
      </trkpt>
      <trkpt lat="45.25871" lon="6.03098">
        <ele>2003.4560546875</ele>
        <time>2017-11-26T12:54:42Z</time>
      </trkpt>
      <trkpt lat="45.25867" lon="6.03092">
        <ele>2005.4560546875</ele>
        <time>2017-11-26T12:54:47Z</time>
      </trkpt>
      <trkpt lat="45.25863" lon="6.03087">
        <ele>2009.4560546875</ele>
        <time>2017-11-26T12:54:54Z</time>
      </trkpt>
      <trkpt lat="45.25858" lon="6.03083">
        <ele>2012.4560546875</ele>
        <time>2017-11-26T12:55:05Z</time>
      </trkpt>
      <trkpt lat="45.25852" lon="6.0308">
        <ele>2010.4560546875</ele>
        <time>2017-11-26T12:55:07Z</time>
      </trkpt>
      <trkpt lat="45.25845" lon="6.03075">
        <ele>2011.4560546875</ele>
        <time>2017-11-26T12:55:10Z</time>
      </trkpt>
      <trkpt lat="45.25841" lon="6.03073">
        <ele>2011.4560546875</ele>
        <time>2017-11-26T12:55:12Z</time>
      </trkpt>
      <trkpt lat="45.25836" lon="6.03079">
        <ele>2012.4560546875</ele>
        <time>2017-11-26T12:55:23Z</time>
      </trkpt>
      <trkpt lat="45.25837" lon="6.03086">
        <ele>2013.4560546875</ele>
        <time>2017-11-26T12:55:31Z</time>
      </trkpt>
      <trkpt lat="45.25835" lon="6.03093">
        <ele>2012.4560546875</ele>
        <time>2017-11-26T12:55:38Z</time>
      </trkpt>
      <trkpt lat="45.25832" lon="6.03098">
        <ele>2013.4560546875</ele>
        <time>2017-11-26T12:55:43Z</time>
      </trkpt>
      <trkpt lat="45.25827" lon="6.03103">
        <ele>2014.4560546875</ele>
        <time>2017-11-26T12:55:47Z</time>
      </trkpt>
      <trkpt lat="45.25831" lon="6.03107">
        <ele>2012.4560546875</ele>
        <time>2017-11-26T12:55:52Z</time>
      </trkpt>
      <trkpt lat="45.25828" lon="6.03113">
        <ele>2012.4560546875</ele>
        <time>2017-11-26T12:55:57Z</time>
      </trkpt>
      <trkpt lat="45.25828" lon="6.03121">
        <ele>2013.4560546875</ele>
        <time>2017-11-26T12:56:02Z</time>
      </trkpt>
      <trkpt lat="45.25824" lon="6.03126">
        <ele>2014.4560546875</ele>
        <time>2017-11-26T12:56:08Z</time>
      </trkpt>
      <trkpt lat="45.25825" lon="6.03134">
        <ele>2015.4560546875</ele>
        <time>2017-11-26T12:56:14Z</time>
      </trkpt>
      <trkpt lat="45.25824" lon="6.0314">
        <ele>2019.4560546875</ele>
        <time>2017-11-26T12:56:19Z</time>
      </trkpt>
      <trkpt lat="45.25823" lon="6.03148">
        <ele>2021.4560546875</ele>
        <time>2017-11-26T12:56:24Z</time>
      </trkpt>
      <trkpt lat="45.2582" lon="6.03153">
        <ele>2024.4560546875</ele>
        <time>2017-11-26T12:56:29Z</time>
      </trkpt>
      <trkpt lat="45.25821" lon="6.03159">
        <ele>2026.4560546875</ele>
        <time>2017-11-26T12:56:34Z</time>
      </trkpt>
      <trkpt lat="45.25822" lon="6.03166">
        <ele>2026.4560546875</ele>
        <time>2017-11-26T12:56:41Z</time>
      </trkpt>
      <trkpt lat="45.2582" lon="6.03174">
        <ele>2030.4560546875</ele>
        <time>2017-11-26T12:56:46Z</time>
      </trkpt>
      <trkpt lat="45.25821" lon="6.0318">
        <ele>2032.4560546875</ele>
        <time>2017-11-26T12:56:52Z</time>
      </trkpt>
      <trkpt lat="45.25819" lon="6.03187">
        <ele>2031.4560546875</ele>
        <time>2017-11-26T12:56:59Z</time>
      </trkpt>
      <trkpt lat="45.25813" lon="6.03192">
        <ele>2037.4560546875</ele>
        <time>2017-11-26T12:57:06Z</time>
      </trkpt>
      <trkpt lat="45.25809" lon="6.03196">
        <ele>2041.4560546875</ele>
        <time>2017-11-26T12:57:10Z</time>
      </trkpt>
      <trkpt lat="45.25803" lon="6.03197">
        <ele>2041.4560546875</ele>
        <time>2017-11-26T12:57:17Z</time>
      </trkpt>
      <trkpt lat="45.25799" lon="6.03201">
        <ele>2046.4560546875</ele>
        <time>2017-11-26T12:57:23Z</time>
      </trkpt>
      <trkpt lat="45.25794" lon="6.03203">
        <ele>2049.4560546875</ele>
        <time>2017-11-26T12:57:27Z</time>
      </trkpt>
      <trkpt lat="45.25789" lon="6.03202">
        <ele>2043.4560546875</ele>
        <time>2017-11-26T12:57:35Z</time>
      </trkpt>
      <trkpt lat="45.25783" lon="6.03203">
        <ele>2045.4560546875</ele>
        <time>2017-11-26T12:57:39Z</time>
      </trkpt>
      <trkpt lat="45.25778" lon="6.03203">
        <ele>2046.4560546875</ele>
        <time>2017-11-26T12:57:44Z</time>
      </trkpt>
      <trkpt lat="45.25773" lon="6.03207">
        <ele>2048.4560546875</ele>
        <time>2017-11-26T12:57:50Z</time>
      </trkpt>
      <trkpt lat="45.25769" lon="6.03205">
        <ele>2048.4560546875</ele>
        <time>2017-11-26T12:57:54Z</time>
      </trkpt>
      <trkpt lat="45.25764" lon="6.03202">
        <ele>2049.4560546875</ele>
        <time>2017-11-26T12:57:57Z</time>
      </trkpt>
      <trkpt lat="45.25758" lon="6.03203">
        <ele>2048.4560546875</ele>
        <time>2017-11-26T12:58:02Z</time>
      </trkpt>
      <trkpt lat="45.25753" lon="6.03202">
        <ele>2054.4560546875</ele>
        <time>2017-11-26T12:58:06Z</time>
      </trkpt>
      <trkpt lat="45.25748" lon="6.03202">
        <ele>2054.4560546875</ele>
        <time>2017-11-26T12:58:11Z</time>
      </trkpt>
      <trkpt lat="45.25743" lon="6.03201">
        <ele>2056.4560546875</ele>
        <time>2017-11-26T12:58:15Z</time>
      </trkpt>
      <trkpt lat="45.25738" lon="6.032">
        <ele>2056.4560546875</ele>
        <time>2017-11-26T12:58:19Z</time>
      </trkpt>
      <trkpt lat="45.25733" lon="6.03197">
        <ele>2057.4560546875</ele>
        <time>2017-11-26T12:58:23Z</time>
      </trkpt>
      <trkpt lat="45.25727" lon="6.03197">
        <ele>2057.4560546875</ele>
        <time>2017-11-26T12:58:29Z</time>
      </trkpt>
      <trkpt lat="45.25723" lon="6.03196">
        <ele>2058.4560546875</ele>
        <time>2017-11-26T12:58:34Z</time>
      </trkpt>
      <trkpt lat="45.25718" lon="6.03196">
        <ele>2060.4560546875</ele>
        <time>2017-11-26T12:58:38Z</time>
      </trkpt>
      <trkpt lat="45.25713" lon="6.03195">
        <ele>2056.4560546875</ele>
        <time>2017-11-26T12:58:42Z</time>
      </trkpt>
      <trkpt lat="45.25708" lon="6.03195">
        <ele>2057.4560546875</ele>
        <time>2017-11-26T12:58:46Z</time>
      </trkpt>
      <trkpt lat="45.25704" lon="6.03193">
        <ele>2055.4560546875</ele>
        <time>2017-11-26T12:58:51Z</time>
      </trkpt>
      <trkpt lat="45.25699" lon="6.03192">
        <ele>2058.4560546875</ele>
        <time>2017-11-26T12:58:56Z</time>
      </trkpt>
      <trkpt lat="45.25693" lon="6.03191">
        <ele>2063.4560546875</ele>
        <time>2017-11-26T12:59:02Z</time>
      </trkpt>
      <trkpt lat="45.25689" lon="6.03192">
        <ele>2066.4560546875</ele>
        <time>2017-11-26T12:59:08Z</time>
      </trkpt>
      <trkpt lat="45.25684" lon="6.03192">
        <ele>2067.4560546875</ele>
        <time>2017-11-26T12:59:13Z</time>
      </trkpt>
      <trkpt lat="45.25679" lon="6.03192">
        <ele>2068.4560546875</ele>
        <time>2017-11-26T12:59:18Z</time>
      </trkpt>
      <trkpt lat="45.25675" lon="6.03189">
        <ele>2068.4560546875</ele>
        <time>2017-11-26T12:59:23Z</time>
      </trkpt>
      <trkpt lat="45.2567" lon="6.03187">
        <ele>2069.4560546875</ele>
        <time>2017-11-26T12:59:29Z</time>
      </trkpt>
      <trkpt lat="45.25665" lon="6.03186">
        <ele>2070.4560546875</ele>
        <time>2017-11-26T12:59:34Z</time>
      </trkpt>
      <trkpt lat="45.2566" lon="6.03184">
        <ele>2073.4560546875</ele>
        <time>2017-11-26T12:59:40Z</time>
      </trkpt>
      <trkpt lat="45.25656" lon="6.03182">
        <ele>2073.4560546875</ele>
        <time>2017-11-26T12:59:44Z</time>
      </trkpt>
      <trkpt lat="45.25652" lon="6.03179">
        <ele>2074.4560546875</ele>
        <time>2017-11-26T12:59:48Z</time>
      </trkpt>
      <trkpt lat="45.25646" lon="6.03178">
        <ele>2078.4560546875</ele>
        <time>2017-11-26T12:59:54Z</time>
      </trkpt>
      <trkpt lat="45.25642" lon="6.03175">
        <ele>2078.4560546875</ele>
        <time>2017-11-26T13:00:00Z</time>
      </trkpt>
      <trkpt lat="45.25638" lon="6.03171">
        <ele>2079.4560546875</ele>
        <time>2017-11-26T13:00:04Z</time>
      </trkpt>
      <trkpt lat="45.25634" lon="6.03167">
        <ele>2080.4560546875</ele>
        <time>2017-11-26T13:00:10Z</time>
      </trkpt>
      <trkpt lat="45.2563" lon="6.03163">
        <ele>2083.4560546875</ele>
        <time>2017-11-26T13:00:17Z</time>
      </trkpt>
      <trkpt lat="45.25625" lon="6.0316">
        <ele>2084.4560546875</ele>
        <time>2017-11-26T13:00:22Z</time>
      </trkpt>
      <trkpt lat="45.25622" lon="6.03156">
        <ele>2085.4560546875</ele>
        <time>2017-11-26T13:00:26Z</time>
      </trkpt>
      <trkpt lat="45.25617" lon="6.03153">
        <ele>2089.4560546875</ele>
        <time>2017-11-26T13:00:34Z</time>
      </trkpt>
      <trkpt lat="45.25612" lon="6.03155">
        <ele>2095.4560546875</ele>
        <time>2017-11-26T13:00:46Z</time>
      </trkpt>
      <trkpt lat="45.25609" lon="6.0316">
        <ele>2096.4560546875</ele>
        <time>2017-11-26T13:00:50Z</time>
      </trkpt>
      <trkpt lat="45.25605" lon="6.03165">
        <ele>2097.4560546875</ele>
        <time>2017-11-26T13:00:54Z</time>
      </trkpt>
      <trkpt lat="45.25603" lon="6.03172">
        <ele>2098.4560546875</ele>
        <time>2017-11-26T13:00:58Z</time>
      </trkpt>
      <trkpt lat="45.25599" lon="6.03178">
        <ele>2099.4560546875</ele>
        <time>2017-11-26T13:01:02Z</time>
      </trkpt>
      <trkpt lat="45.25596" lon="6.03184">
        <ele>2100.4560546875</ele>
        <time>2017-11-26T13:01:06Z</time>
      </trkpt>
      <trkpt lat="45.25592" lon="6.03188">
        <ele>2100.4560546875</ele>
        <time>2017-11-26T13:01:09Z</time>
      </trkpt>
      <trkpt lat="45.25588" lon="6.03192">
        <ele>2099.4560546875</ele>
        <time>2017-11-26T13:01:13Z</time>
      </trkpt>
      <trkpt lat="45.25585" lon="6.03198">
        <ele>2100.4560546875</ele>
        <time>2017-11-26T13:01:17Z</time>
      </trkpt>
      <trkpt lat="45.25583" lon="6.03204">
        <ele>2100.4560546875</ele>
        <time>2017-11-26T13:01:21Z</time>
      </trkpt>
      <trkpt lat="45.25579" lon="6.03209">
        <ele>2101.4560546875</ele>
        <time>2017-11-26T13:01:24Z</time>
      </trkpt>
      <trkpt lat="45.25576" lon="6.03214">
        <ele>2100.4560546875</ele>
        <time>2017-11-26T13:01:29Z</time>
      </trkpt>
      <trkpt lat="45.25573" lon="6.03219">
        <ele>2102.4560546875</ele>
        <time>2017-11-26T13:01:33Z</time>
      </trkpt>
      <trkpt lat="45.25569" lon="6.03224">
        <ele>2103.4560546875</ele>
        <time>2017-11-26T13:01:37Z</time>
      </trkpt>
      <trkpt lat="45.25567" lon="6.0323">
        <ele>2104.4560546875</ele>
        <time>2017-11-26T13:01:42Z</time>
      </trkpt>
      <trkpt lat="45.25565" lon="6.03236">
        <ele>2105.4560546875</ele>
        <time>2017-11-26T13:01:47Z</time>
      </trkpt>
      <trkpt lat="45.25562" lon="6.03242">
        <ele>2107.4560546875</ele>
        <time>2017-11-26T13:01:51Z</time>
      </trkpt>
      <trkpt lat="45.25561" lon="6.03248">
        <ele>2107.4560546875</ele>
        <time>2017-11-26T13:01:55Z</time>
      </trkpt>
      <trkpt lat="45.25557" lon="6.03254">
        <ele>2109.4560546875</ele>
        <time>2017-11-26T13:02:00Z</time>
      </trkpt>
      <trkpt lat="45.25555" lon="6.0326">
        <ele>2109.4560546875</ele>
        <time>2017-11-26T13:02:05Z</time>
      </trkpt>
      <trkpt lat="45.25552" lon="6.03265">
        <ele>2109.4560546875</ele>
        <time>2017-11-26T13:02:11Z</time>
      </trkpt>
      <trkpt lat="45.25549" lon="6.03272">
        <ele>2110.4560546875</ele>
        <time>2017-11-26T13:02:15Z</time>
      </trkpt>
      <trkpt lat="45.25546" lon="6.03279">
        <ele>2113.4560546875</ele>
        <time>2017-11-26T13:02:19Z</time>
      </trkpt>
      <trkpt lat="45.25542" lon="6.03285">
        <ele>2113.4560546875</ele>
        <time>2017-11-26T13:02:24Z</time>
      </trkpt>
      <trkpt lat="45.2554" lon="6.03291">
        <ele>2113.4560546875</ele>
        <time>2017-11-26T13:02:29Z</time>
      </trkpt>
      <trkpt lat="45.25539" lon="6.03299">
        <ele>2115.4560546875</ele>
        <time>2017-11-26T13:02:33Z</time>
      </trkpt>
      <trkpt lat="45.25536" lon="6.03304">
        <ele>2116.4560546875</ele>
        <time>2017-11-26T13:02:36Z</time>
      </trkpt>
      <trkpt lat="45.25533" lon="6.0331">
        <ele>2118.4560546875</ele>
        <time>2017-11-26T13:02:40Z</time>
      </trkpt>
      <trkpt lat="45.25531" lon="6.03315">
        <ele>2119.4560546875</ele>
        <time>2017-11-26T13:02:44Z</time>
      </trkpt>
      <trkpt lat="45.25529" lon="6.03321">
        <ele>2120.4560546875</ele>
        <time>2017-11-26T13:02:48Z</time>
      </trkpt>
      <trkpt lat="45.25527" lon="6.03328">
        <ele>2118.4560546875</ele>
        <time>2017-11-26T13:02:55Z</time>
      </trkpt>
      <trkpt lat="45.25525" lon="6.03334">
        <ele>2119.4560546875</ele>
        <time>2017-11-26T13:03:01Z</time>
      </trkpt>
      <trkpt lat="45.25523" lon="6.03341">
        <ele>2119.4560546875</ele>
        <time>2017-11-26T13:03:07Z</time>
      </trkpt>
      <trkpt lat="45.2552" lon="6.03345">
        <ele>2121.4560546875</ele>
        <time>2017-11-26T13:03:13Z</time>
      </trkpt>
      <trkpt lat="45.25516" lon="6.03351">
        <ele>2124.4560546875</ele>
        <time>2017-11-26T13:03:16Z</time>
      </trkpt>
      <trkpt lat="45.25511" lon="6.03355">
        <ele>2128.4560546875</ele>
        <time>2017-11-26T13:03:23Z</time>
      </trkpt>
      <trkpt lat="45.25507" lon="6.03358">
        <ele>2128.4560546875</ele>
        <time>2017-11-26T13:03:29Z</time>
      </trkpt>
      <trkpt lat="45.25502" lon="6.03359">
        <ele>2131.4560546875</ele>
        <time>2017-11-26T13:03:34Z</time>
      </trkpt>
      <trkpt lat="45.25497" lon="6.03359">
        <ele>2131.4560546875</ele>
        <time>2017-11-26T13:03:40Z</time>
      </trkpt>
      <trkpt lat="45.25493" lon="6.03356">
        <ele>2131.4560546875</ele>
        <time>2017-11-26T13:03:47Z</time>
      </trkpt>
      <trkpt lat="45.25489" lon="6.03351">
        <ele>2132.4560546875</ele>
        <time>2017-11-26T13:03:50Z</time>
      </trkpt>
      <trkpt lat="45.25483" lon="6.03347">
        <ele>2134.4560546875</ele>
        <time>2017-11-26T13:03:59Z</time>
      </trkpt>
      <trkpt lat="45.2548" lon="6.03343">
        <ele>2137.4560546875</ele>
        <time>2017-11-26T13:04:09Z</time>
      </trkpt>
      <trkpt lat="45.25476" lon="6.03337">
        <ele>2139.4560546875</ele>
        <time>2017-11-26T13:04:14Z</time>
      </trkpt>
      <trkpt lat="45.25471" lon="6.03336">
        <ele>2143.4560546875</ele>
        <time>2017-11-26T13:04:19Z</time>
      </trkpt>
      <trkpt lat="45.25466" lon="6.03336">
        <ele>2145.4560546875</ele>
        <time>2017-11-26T13:04:25Z</time>
      </trkpt>
      <trkpt lat="45.25461" lon="6.03337">
        <ele>2145.4560546875</ele>
        <time>2017-11-26T13:04:31Z</time>
      </trkpt>
      <trkpt lat="45.25456" lon="6.03336">
        <ele>2148.455078125</ele>
        <time>2017-11-26T13:04:36Z</time>
      </trkpt>
      <trkpt lat="45.25452" lon="6.03335">
        <ele>2147.455078125</ele>
        <time>2017-11-26T13:04:40Z</time>
      </trkpt>
      <trkpt lat="45.25447" lon="6.0334">
        <ele>2151.455078125</ele>
        <time>2017-11-26T13:04:46Z</time>
      </trkpt>
      <trkpt lat="45.25443" lon="6.03345">
        <ele>2152.455078125</ele>
        <time>2017-11-26T13:04:53Z</time>
      </trkpt>
      <trkpt lat="45.25438" lon="6.03348">
        <ele>2153.455078125</ele>
        <time>2017-11-26T13:04:58Z</time>
      </trkpt>
      <trkpt lat="45.25433" lon="6.03351">
        <ele>2155.455078125</ele>
        <time>2017-11-26T13:05:03Z</time>
      </trkpt>
      <trkpt lat="45.25428" lon="6.03354">
        <ele>2155.455078125</ele>
        <time>2017-11-26T13:05:08Z</time>
      </trkpt>
      <trkpt lat="45.25427" lon="6.03361">
        <ele>2158.455078125</ele>
        <time>2017-11-26T13:05:12Z</time>
      </trkpt>
      <trkpt lat="45.25424" lon="6.03365">
        <ele>2159.455078125</ele>
        <time>2017-11-26T13:05:18Z</time>
      </trkpt>
      <trkpt lat="45.25422" lon="6.03372">
        <ele>2159.455078125</ele>
        <time>2017-11-26T13:05:25Z</time>
      </trkpt>
      <trkpt lat="45.25418" lon="6.03377">
        <ele>2160.455078125</ele>
        <time>2017-11-26T13:05:31Z</time>
      </trkpt>
      <trkpt lat="45.25416" lon="6.03383">
        <ele>2163.455078125</ele>
        <time>2017-11-26T13:05:36Z</time>
      </trkpt>
      <trkpt lat="45.25413" lon="6.03388">
        <ele>2162.455078125</ele>
        <time>2017-11-26T13:05:46Z</time>
      </trkpt>
      <trkpt lat="45.25409" lon="6.03392">
        <ele>2164.455078125</ele>
        <time>2017-11-26T13:05:49Z</time>
      </trkpt>
      <trkpt lat="45.25405" lon="6.03397">
        <ele>2166.455078125</ele>
        <time>2017-11-26T13:05:54Z</time>
      </trkpt>
      <trkpt lat="45.25401" lon="6.034">
        <ele>2166.455078125</ele>
        <time>2017-11-26T13:05:59Z</time>
      </trkpt>
      <trkpt lat="45.25396" lon="6.03402">
        <ele>2167.455078125</ele>
        <time>2017-11-26T13:06:04Z</time>
      </trkpt>
      <trkpt lat="45.25391" lon="6.03403">
        <ele>2169.455078125</ele>
        <time>2017-11-26T13:06:09Z</time>
      </trkpt>
      <trkpt lat="45.25386" lon="6.03407">
        <ele>2174.455078125</ele>
        <time>2017-11-26T13:06:15Z</time>
      </trkpt>
      <trkpt lat="45.25381" lon="6.03407">
        <ele>2174.455078125</ele>
        <time>2017-11-26T13:06:32Z</time>
      </trkpt>
      <trkpt lat="45.25376" lon="6.03405">
        <ele>2176.455078125</ele>
        <time>2017-11-26T13:06:37Z</time>
      </trkpt>
      <trkpt lat="45.2537" lon="6.03404">
        <ele>2178.455078125</ele>
        <time>2017-11-26T13:06:41Z</time>
      </trkpt>
      <trkpt lat="45.25366" lon="6.03402">
        <ele>2177.455078125</ele>
        <time>2017-11-26T13:06:46Z</time>
      </trkpt>
      <trkpt lat="45.25361" lon="6.03402">
        <ele>2178.455078125</ele>
        <time>2017-11-26T13:06:51Z</time>
      </trkpt>
      <trkpt lat="45.25356" lon="6.03403">
        <ele>2180.455078125</ele>
        <time>2017-11-26T13:06:57Z</time>
      </trkpt>
      <trkpt lat="45.25351" lon="6.03403">
        <ele>2181.455078125</ele>
        <time>2017-11-26T13:07:04Z</time>
      </trkpt>
      <trkpt lat="45.25347" lon="6.03399">
        <ele>2180.455078125</ele>
        <time>2017-11-26T13:07:08Z</time>
      </trkpt>
      <trkpt lat="45.25342" lon="6.03397">
        <ele>2181.455078125</ele>
        <time>2017-11-26T13:07:12Z</time>
      </trkpt>
      <trkpt lat="45.25337" lon="6.03398">
        <ele>2184.455078125</ele>
        <time>2017-11-26T13:07:17Z</time>
      </trkpt>
      <trkpt lat="45.25332" lon="6.03395">
        <ele>2185.455078125</ele>
        <time>2017-11-26T13:07:21Z</time>
      </trkpt>
      <trkpt lat="45.25327" lon="6.03392">
        <ele>2187.455078125</ele>
        <time>2017-11-26T13:07:26Z</time>
      </trkpt>
      <trkpt lat="45.25322" lon="6.03394">
        <ele>2190.455078125</ele>
        <time>2017-11-26T13:07:31Z</time>
      </trkpt>
      <trkpt lat="45.25317" lon="6.03393">
        <ele>2189.455078125</ele>
        <time>2017-11-26T13:07:40Z</time>
      </trkpt>
      <trkpt lat="45.25312" lon="6.03393">
        <ele>2190.455078125</ele>
        <time>2017-11-26T13:07:44Z</time>
      </trkpt>
      <trkpt lat="45.25307" lon="6.03389">
        <ele>2186.455078125</ele>
        <time>2017-11-26T13:07:50Z</time>
      </trkpt>
      <trkpt lat="45.25302" lon="6.03389">
        <ele>2188.455078125</ele>
        <time>2017-11-26T13:07:56Z</time>
      </trkpt>
      <trkpt lat="45.25297" lon="6.03388">
        <ele>2188.455078125</ele>
        <time>2017-11-26T13:08:00Z</time>
      </trkpt>
      <trkpt lat="45.25292" lon="6.03388">
        <ele>2189.455078125</ele>
        <time>2017-11-26T13:08:04Z</time>
      </trkpt>
      <trkpt lat="45.25287" lon="6.03385">
        <ele>2191.455078125</ele>
        <time>2017-11-26T13:08:09Z</time>
      </trkpt>
      <trkpt lat="45.25283" lon="6.03389">
        <ele>2196.455078125</ele>
        <time>2017-11-26T13:08:18Z</time>
      </trkpt>
      <trkpt lat="45.25278" lon="6.03389">
        <ele>2197.455078125</ele>
        <time>2017-11-26T13:08:22Z</time>
      </trkpt>
      <trkpt lat="45.25273" lon="6.03389">
        <ele>2199.455078125</ele>
        <time>2017-11-26T13:08:25Z</time>
      </trkpt>
      <trkpt lat="45.25268" lon="6.03388">
        <ele>2199.455078125</ele>
        <time>2017-11-26T13:08:31Z</time>
      </trkpt>
      <trkpt lat="45.25262" lon="6.03386">
        <ele>2199.455078125</ele>
        <time>2017-11-26T13:08:36Z</time>
      </trkpt>
      <trkpt lat="45.25256" lon="6.03386">
        <ele>2200.455078125</ele>
        <time>2017-11-26T13:08:40Z</time>
      </trkpt>
      <trkpt lat="45.25251" lon="6.03383">
        <ele>2200.455078125</ele>
        <time>2017-11-26T13:08:45Z</time>
      </trkpt>
      <trkpt lat="45.25246" lon="6.03382">
        <ele>2201.455078125</ele>
        <time>2017-11-26T13:08:51Z</time>
      </trkpt>
      <trkpt lat="45.2524" lon="6.03379">
        <ele>2202.455078125</ele>
        <time>2017-11-26T13:08:56Z</time>
      </trkpt>
      <trkpt lat="45.25235" lon="6.03378">
        <ele>2204.455078125</ele>
        <time>2017-11-26T13:09:01Z</time>
      </trkpt>
      <trkpt lat="45.2523" lon="6.03377">
        <ele>2207.455078125</ele>
        <time>2017-11-26T13:09:06Z</time>
      </trkpt>
      <trkpt lat="45.25225" lon="6.03378">
        <ele>2209.455078125</ele>
        <time>2017-11-26T13:09:32Z</time>
      </trkpt>
      <trkpt lat="45.25225" lon="6.03385">
        <ele>2214.455078125</ele>
        <time>2017-11-26T13:12:45Z</time>
      </trkpt>
      <trkpt lat="45.2522" lon="6.0339">
        <ele>2212.455078125</ele>
        <time>2017-11-26T13:13:03Z</time>
      </trkpt>
      <trkpt lat="45.25216" lon="6.03394">
        <ele>2211.455078125</ele>
        <time>2017-11-26T13:13:04Z</time>
      </trkpt>
      <trkpt lat="45.25216" lon="6.03402">
        <ele>2208.455078125</ele>
        <time>2017-11-26T13:13:06Z</time>
      </trkpt>
      <trkpt lat="45.25218" lon="6.03411">
        <ele>2204.455078125</ele>
        <time>2017-11-26T13:13:08Z</time>
      </trkpt>
      <trkpt lat="45.25211" lon="6.03421">
        <ele>2199.455078125</ele>
        <time>2017-11-26T13:13:11Z</time>
      </trkpt>
      <trkpt lat="45.25206" lon="6.03425">
        <ele>2197.455078125</ele>
        <time>2017-11-26T13:13:13Z</time>
      </trkpt>
      <trkpt lat="45.25204" lon="6.03434">
        <ele>2193.455078125</ele>
        <time>2017-11-26T13:13:15Z</time>
      </trkpt>
      <trkpt lat="45.25201" lon="6.03441">
        <ele>2188.455078125</ele>
        <time>2017-11-26T13:13:17Z</time>
      </trkpt>
      <trkpt lat="45.25206" lon="6.03444">
        <ele>2183.455078125</ele>
        <time>2017-11-26T13:13:23Z</time>
      </trkpt>
      <trkpt lat="45.25212" lon="6.03449">
        <ele>2180.455078125</ele>
        <time>2017-11-26T13:13:25Z</time>
      </trkpt>
      <trkpt lat="45.25216" lon="6.0346">
        <ele>2176.455078125</ele>
        <time>2017-11-26T13:13:28Z</time>
      </trkpt>
      <trkpt lat="45.25215" lon="6.0347">
        <ele>2171.455078125</ele>
        <time>2017-11-26T13:13:31Z</time>
      </trkpt>
      <trkpt lat="45.25208" lon="6.03485">
        <ele>2162.455078125</ele>
        <time>2017-11-26T13:13:41Z</time>
      </trkpt>
      <trkpt lat="45.25206" lon="6.03493">
        <ele>2159.455078125</ele>
        <time>2017-11-26T13:13:43Z</time>
      </trkpt>
      <trkpt lat="45.25207" lon="6.03502">
        <ele>2154.455078125</ele>
        <time>2017-11-26T13:13:45Z</time>
      </trkpt>
      <trkpt lat="45.25202" lon="6.0351">
        <ele>2150.455078125</ele>
        <time>2017-11-26T13:13:47Z</time>
      </trkpt>
      <trkpt lat="45.25196" lon="6.03515">
        <ele>2145.455078125</ele>
        <time>2017-11-26T13:13:49Z</time>
      </trkpt>
      <trkpt lat="45.2519" lon="6.03518">
        <ele>2141.455078125</ele>
        <time>2017-11-26T13:13:51Z</time>
      </trkpt>
      <trkpt lat="45.25186" lon="6.03524">
        <ele>2137.455078125</ele>
        <time>2017-11-26T13:13:53Z</time>
      </trkpt>
      <trkpt lat="45.2518" lon="6.03531">
        <ele>2134.455078125</ele>
        <time>2017-11-26T13:13:55Z</time>
      </trkpt>
      <trkpt lat="45.25171" lon="6.03539">
        <ele>2131.455078125</ele>
        <time>2017-11-26T13:13:57Z</time>
      </trkpt>
      <trkpt lat="45.25164" lon="6.03552">
        <ele>2125.455078125</ele>
        <time>2017-11-26T13:14:00Z</time>
      </trkpt>
      <trkpt lat="45.2516" lon="6.03563">
        <ele>2120.455078125</ele>
        <time>2017-11-26T13:14:02Z</time>
      </trkpt>
      <trkpt lat="45.25155" lon="6.03566">
        <ele>2117.455078125</ele>
        <time>2017-11-26T13:14:04Z</time>
      </trkpt>
      <trkpt lat="45.25144" lon="6.03572">
        <ele>2112.455078125</ele>
        <time>2017-11-26T13:14:07Z</time>
      </trkpt>
      <trkpt lat="45.25137" lon="6.03576">
        <ele>2107.455078125</ele>
        <time>2017-11-26T13:14:09Z</time>
      </trkpt>
      <trkpt lat="45.25134" lon="6.03581">
        <ele>2103.455078125</ele>
        <time>2017-11-26T13:14:11Z</time>
      </trkpt>
      <trkpt lat="45.2513" lon="6.03584">
        <ele>2093.455078125</ele>
        <time>2017-11-26T13:14:19Z</time>
      </trkpt>
      <trkpt lat="45.25125" lon="6.03588">
        <ele>2091.455078125</ele>
        <time>2017-11-26T13:14:21Z</time>
      </trkpt>
      <trkpt lat="45.25121" lon="6.03588">
        <ele>2090.455078125</ele>
        <time>2017-11-26T13:14:23Z</time>
      </trkpt>
      <trkpt lat="45.25116" lon="6.03592">
        <ele>2091.455078125</ele>
        <time>2017-11-26T13:14:25Z</time>
      </trkpt>
      <trkpt lat="45.25107" lon="6.03597">
        <ele>2090.455078125</ele>
        <time>2017-11-26T13:14:27Z</time>
      </trkpt>
      <trkpt lat="45.25101" lon="6.03599">
        <ele>2089.455078125</ele>
        <time>2017-11-26T13:14:29Z</time>
      </trkpt>
      <trkpt lat="45.25097" lon="6.03603">
        <ele>2087.455078125</ele>
        <time>2017-11-26T13:14:32Z</time>
      </trkpt>
      <trkpt lat="45.25091" lon="6.03611">
        <ele>2084.455078125</ele>
        <time>2017-11-26T13:14:34Z</time>
      </trkpt>
      <trkpt lat="45.25083" lon="6.03619">
        <ele>2084.455078125</ele>
        <time>2017-11-26T13:14:36Z</time>
      </trkpt>
      <trkpt lat="45.25077" lon="6.03626">
        <ele>2081.455078125</ele>
        <time>2017-11-26T13:14:38Z</time>
      </trkpt>
      <trkpt lat="45.25074" lon="6.03631">
        <ele>2078.455078125</ele>
        <time>2017-11-26T13:14:40Z</time>
      </trkpt>
      <trkpt lat="45.2507" lon="6.03637">
        <ele>2077.455078125</ele>
        <time>2017-11-26T13:14:43Z</time>
      </trkpt>
      <trkpt lat="45.25066" lon="6.03644">
        <ele>2074.455078125</ele>
        <time>2017-11-26T13:14:45Z</time>
      </trkpt>
      <trkpt lat="45.25062" lon="6.03651">
        <ele>2072.455078125</ele>
        <time>2017-11-26T13:14:47Z</time>
      </trkpt>
      <trkpt lat="45.25059" lon="6.03656">
        <ele>2072.455078125</ele>
        <time>2017-11-26T13:14:51Z</time>
      </trkpt>
      <trkpt lat="45.25057" lon="6.03663">
        <ele>2068.455078125</ele>
        <time>2017-11-26T13:14:54Z</time>
      </trkpt>
      <trkpt lat="45.25057" lon="6.03671">
        <ele>2065.455078125</ele>
        <time>2017-11-26T13:14:56Z</time>
      </trkpt>
      <trkpt lat="45.25054" lon="6.03683">
        <ele>2062.455078125</ele>
        <time>2017-11-26T13:14:58Z</time>
      </trkpt>
      <trkpt lat="45.25055" lon="6.03695">
        <ele>2057.455078125</ele>
        <time>2017-11-26T13:15:00Z</time>
      </trkpt>
      <trkpt lat="45.25052" lon="6.03704">
        <ele>2052.455078125</ele>
        <time>2017-11-26T13:15:02Z</time>
      </trkpt>
      <trkpt lat="45.25049" lon="6.03711">
        <ele>2050.455078125</ele>
        <time>2017-11-26T13:15:03Z</time>
      </trkpt>
      <trkpt lat="45.25051" lon="6.03727">
        <ele>2045.4549560547</ele>
        <time>2017-11-26T13:15:05Z</time>
      </trkpt>
      <trkpt lat="45.25048" lon="6.03737">
        <ele>2042.4549560547</ele>
        <time>2017-11-26T13:15:07Z</time>
      </trkpt>
      <trkpt lat="45.25042" lon="6.03748">
        <ele>2040.4549560547</ele>
        <time>2017-11-26T13:15:09Z</time>
      </trkpt>
      <trkpt lat="45.25035" lon="6.03769">
        <ele>2036.4549560547</ele>
        <time>2017-11-26T13:15:13Z</time>
      </trkpt>
      <trkpt lat="45.2503" lon="6.03774">
        <ele>2035.4549560547</ele>
        <time>2017-11-26T13:15:15Z</time>
      </trkpt>
      <trkpt lat="45.25036" lon="6.03772">
        <ele>2028.4549560547</ele>
        <time>2017-11-26T13:15:31Z</time>
      </trkpt>
      <trkpt lat="45.25044" lon="6.03778">
        <ele>2025.4549560547</ele>
        <time>2017-11-26T13:15:33Z</time>
      </trkpt>
      <trkpt lat="45.25049" lon="6.03781">
        <ele>2021.4549560547</ele>
        <time>2017-11-26T13:15:35Z</time>
      </trkpt>
      <trkpt lat="45.25044" lon="6.03786">
        <ele>2019.4549560547</ele>
        <time>2017-11-26T13:15:38Z</time>
      </trkpt>
      <trkpt lat="45.25037" lon="6.03793">
        <ele>2018.4549560547</ele>
        <time>2017-11-26T13:15:40Z</time>
      </trkpt>
      <trkpt lat="45.25028" lon="6.03807">
        <ele>2016.4549560547</ele>
        <time>2017-11-26T13:15:42Z</time>
      </trkpt>
      <trkpt lat="45.25022" lon="6.03817">
        <ele>2013.4549560547</ele>
        <time>2017-11-26T13:15:43Z</time>
      </trkpt>
      <trkpt lat="45.25017" lon="6.03825">
        <ele>2013.4549560547</ele>
        <time>2017-11-26T13:15:44Z</time>
      </trkpt>
      <trkpt lat="45.25007" lon="6.03837">
        <ele>2008.4549560547</ele>
        <time>2017-11-26T13:15:46Z</time>
      </trkpt>
      <trkpt lat="45.25001" lon="6.03842">
        <ele>2007.4549560547</ele>
        <time>2017-11-26T13:15:47Z</time>
      </trkpt>
      <trkpt lat="45.24992" lon="6.03852">
        <ele>2006.4549560547</ele>
        <time>2017-11-26T13:15:49Z</time>
      </trkpt>
      <trkpt lat="45.24983" lon="6.03859">
        <ele>2003.4549560547</ele>
        <time>2017-11-26T13:15:51Z</time>
      </trkpt>
      <trkpt lat="45.24973" lon="6.03867">
        <ele>2001.4549560547</ele>
        <time>2017-11-26T13:15:53Z</time>
      </trkpt>
      <trkpt lat="45.24963" lon="6.03877">
        <ele>2000.4549560547</ele>
        <time>2017-11-26T13:15:55Z</time>
      </trkpt>
      <trkpt lat="45.24958" lon="6.03886">
        <ele>1991.4549560547</ele>
        <time>2017-11-26T13:15:58Z</time>
      </trkpt>
      <trkpt lat="45.24955" lon="6.03895">
        <ele>1985.4549560547</ele>
        <time>2017-11-26T13:16:00Z</time>
      </trkpt>
      <trkpt lat="45.24958" lon="6.0391">
        <ele>1982.4549560547</ele>
        <time>2017-11-26T13:16:02Z</time>
      </trkpt>
      <trkpt lat="45.24959" lon="6.03927">
        <ele>1978.4549560547</ele>
        <time>2017-11-26T13:16:04Z</time>
      </trkpt>
      <trkpt lat="45.2496" lon="6.03934">
        <ele>1975.4549560547</ele>
        <time>2017-11-26T13:16:05Z</time>
      </trkpt>
      <trkpt lat="45.24958" lon="6.03956">
        <ele>1973.4549560547</ele>
        <time>2017-11-26T13:16:08Z</time>
      </trkpt>
      <trkpt lat="45.24956" lon="6.03972">
        <ele>1967.4549560547</ele>
        <time>2017-11-26T13:16:11Z</time>
      </trkpt>
      <trkpt lat="45.24952" lon="6.03993">
        <ele>1962.4549560547</ele>
        <time>2017-11-26T13:16:13Z</time>
      </trkpt>
      <trkpt lat="45.24948" lon="6.04003">
        <ele>1961.4549560547</ele>
        <time>2017-11-26T13:16:14Z</time>
      </trkpt>
      <trkpt lat="45.24938" lon="6.04016">
        <ele>1958.4549560547</ele>
        <time>2017-11-26T13:16:16Z</time>
      </trkpt>
      <trkpt lat="45.24931" lon="6.04025">
        <ele>1956.4549560547</ele>
        <time>2017-11-26T13:16:18Z</time>
      </trkpt>
      <trkpt lat="45.24924" lon="6.04031">
        <ele>1955.4549560547</ele>
        <time>2017-11-26T13:16:20Z</time>
      </trkpt>
      <trkpt lat="45.24919" lon="6.04035">
        <ele>1951.4549560547</ele>
        <time>2017-11-26T13:16:22Z</time>
      </trkpt>
      <trkpt lat="45.24913" lon="6.04038">
        <ele>1947.4549560547</ele>
        <time>2017-11-26T13:16:24Z</time>
      </trkpt>
      <trkpt lat="45.24907" lon="6.04043">
        <ele>1946.4549560547</ele>
        <time>2017-11-26T13:16:26Z</time>
      </trkpt>
      <trkpt lat="45.24899" lon="6.04047">
        <ele>1944.4549560547</ele>
        <time>2017-11-26T13:16:28Z</time>
      </trkpt>
      <trkpt lat="45.24895" lon="6.0405">
        <ele>1940.4549560547</ele>
        <time>2017-11-26T13:16:30Z</time>
      </trkpt>
      <trkpt lat="45.24891" lon="6.04054">
        <ele>1940.4549560547</ele>
        <time>2017-11-26T13:16:32Z</time>
      </trkpt>
      <trkpt lat="45.24887" lon="6.04062">
        <ele>1941.4549560547</ele>
        <time>2017-11-26T13:16:34Z</time>
      </trkpt>
      <trkpt lat="45.24883" lon="6.04068">
        <ele>1940.4549560547</ele>
        <time>2017-11-26T13:16:36Z</time>
      </trkpt>
      <trkpt lat="45.24881" lon="6.04074">
        <ele>1937.4549560547</ele>
        <time>2017-11-26T13:17:33Z</time>
      </trkpt>
      <trkpt lat="45.24876" lon="6.04076">
        <ele>1931.4549560547</ele>
        <time>2017-11-26T13:18:14Z</time>
      </trkpt>
      <trkpt lat="45.24871" lon="6.0408">
        <ele>1925.4549560547</ele>
        <time>2017-11-26T13:18:21Z</time>
      </trkpt>
      <trkpt lat="45.24866" lon="6.04083">
        <ele>1925.4549560547</ele>
        <time>2017-11-26T13:18:25Z</time>
      </trkpt>
      <trkpt lat="45.24863" lon="6.04088">
        <ele>1925.4549560547</ele>
        <time>2017-11-26T13:18:30Z</time>
      </trkpt>
      <trkpt lat="45.24857" lon="6.04092">
        <ele>1926.4549560547</ele>
        <time>2017-11-26T13:18:34Z</time>
      </trkpt>
      <trkpt lat="45.24851" lon="6.04094">
        <ele>1925.4549560547</ele>
        <time>2017-11-26T13:18:38Z</time>
      </trkpt>
      <trkpt lat="45.24847" lon="6.04097">
        <ele>1927.4549560547</ele>
        <time>2017-11-26T13:18:42Z</time>
      </trkpt>
      <trkpt lat="45.24843" lon="6.04101">
        <ele>1928.4549560547</ele>
        <time>2017-11-26T13:18:47Z</time>
      </trkpt>
      <trkpt lat="45.24839" lon="6.04106">
        <ele>1930.4549560547</ele>
        <time>2017-11-26T13:18:51Z</time>
      </trkpt>
      <trkpt lat="45.24835" lon="6.04109">
        <ele>1932.4549560547</ele>
        <time>2017-11-26T13:18:56Z</time>
      </trkpt>
      <trkpt lat="45.24832" lon="6.04114">
        <ele>1931.4549560547</ele>
        <time>2017-11-26T13:18:59Z</time>
      </trkpt>
      <trkpt lat="45.2483" lon="6.0412">
        <ele>1935.4549560547</ele>
        <time>2017-11-26T13:19:02Z</time>
      </trkpt>
      <trkpt lat="45.24827" lon="6.04126">
        <ele>1936.4549560547</ele>
        <time>2017-11-26T13:19:06Z</time>
      </trkpt>
      <trkpt lat="45.24825" lon="6.04132">
        <ele>1939.4549560547</ele>
        <time>2017-11-26T13:19:10Z</time>
      </trkpt>
      <trkpt lat="45.24821" lon="6.04137">
        <ele>1940.4549560547</ele>
        <time>2017-11-26T13:19:16Z</time>
      </trkpt>
      <trkpt lat="45.24817" lon="6.04142">
        <ele>1940.4549560547</ele>
        <time>2017-11-26T13:19:22Z</time>
      </trkpt>
      <trkpt lat="45.24813" lon="6.04145">
        <ele>1940.4549560547</ele>
        <time>2017-11-26T13:19:27Z</time>
      </trkpt>
      <trkpt lat="45.24808" lon="6.04148">
        <ele>1942.4549560547</ele>
        <time>2017-11-26T13:19:32Z</time>
      </trkpt>
      <trkpt lat="45.24803" lon="6.04151">
        <ele>1941.4549560547</ele>
        <time>2017-11-26T13:19:36Z</time>
      </trkpt>
      <trkpt lat="45.24799" lon="6.04151">
        <ele>1943.4549560547</ele>
        <time>2017-11-26T13:19:40Z</time>
      </trkpt>
      <trkpt lat="45.24798" lon="6.04144">
        <ele>1944.4549560547</ele>
        <time>2017-11-26T13:19:47Z</time>
      </trkpt>
      <trkpt lat="45.24796" lon="6.04137">
        <ele>1942.4549560547</ele>
        <time>2017-11-26T13:19:51Z</time>
      </trkpt>
      <trkpt lat="45.24794" lon="6.0413">
        <ele>1943.4549560547</ele>
        <time>2017-11-26T13:19:56Z</time>
      </trkpt>
      <trkpt lat="45.24792" lon="6.04124">
        <ele>1943.4549560547</ele>
        <time>2017-11-26T13:20:00Z</time>
      </trkpt>
      <trkpt lat="45.24791" lon="6.04117">
        <ele>1945.4549560547</ele>
        <time>2017-11-26T13:20:04Z</time>
      </trkpt>
      <trkpt lat="45.24788" lon="6.04112">
        <ele>1946.4549560547</ele>
        <time>2017-11-26T13:20:10Z</time>
      </trkpt>
      <trkpt lat="45.24785" lon="6.04106">
        <ele>1946.4549560547</ele>
        <time>2017-11-26T13:20:14Z</time>
      </trkpt>
      <trkpt lat="45.24783" lon="6.04101">
        <ele>1951.4549560547</ele>
        <time>2017-11-26T13:20:19Z</time>
      </trkpt>
      <trkpt lat="45.24781" lon="6.04093">
        <ele>1954.4549560547</ele>
        <time>2017-11-26T13:20:24Z</time>
      </trkpt>
      <trkpt lat="45.24782" lon="6.04086">
        <ele>1957.4549560547</ele>
        <time>2017-11-26T13:20:29Z</time>
      </trkpt>
      <trkpt lat="45.24778" lon="6.0408">
        <ele>1957.4549560547</ele>
        <time>2017-11-26T13:20:34Z</time>
      </trkpt>
      <trkpt lat="45.24776" lon="6.04074">
        <ele>1959.4549560547</ele>
        <time>2017-11-26T13:20:37Z</time>
      </trkpt>
      <trkpt lat="45.24774" lon="6.04067">
        <ele>1962.4549560547</ele>
        <time>2017-11-26T13:20:44Z</time>
      </trkpt>
      <trkpt lat="45.24768" lon="6.04066">
        <ele>1959.4549560547</ele>
        <time>2017-11-26T13:20:56Z</time>
      </trkpt>
      <trkpt lat="45.24764" lon="6.0407">
        <ele>1956.4549560547</ele>
        <time>2017-11-26T13:21:01Z</time>
      </trkpt>
      <trkpt lat="45.24759" lon="6.04073">
        <ele>1956.4549560547</ele>
        <time>2017-11-26T13:21:06Z</time>
      </trkpt>
      <trkpt lat="45.24755" lon="6.04076">
        <ele>1958.4549560547</ele>
        <time>2017-11-26T13:21:11Z</time>
      </trkpt>
      <trkpt lat="45.24751" lon="6.04081">
        <ele>1957.4549560547</ele>
        <time>2017-11-26T13:21:16Z</time>
      </trkpt>
      <trkpt lat="45.24747" lon="6.04086">
        <ele>1958.4549560547</ele>
        <time>2017-11-26T13:21:21Z</time>
      </trkpt>
      <trkpt lat="45.24742" lon="6.04087">
        <ele>1963.4549560547</ele>
        <time>2017-11-26T13:21:27Z</time>
      </trkpt>
      <trkpt lat="45.24738" lon="6.04091">
        <ele>1965.4549560547</ele>
        <time>2017-11-26T13:21:32Z</time>
      </trkpt>
      <trkpt lat="45.24733" lon="6.04095">
        <ele>1968.4549560547</ele>
        <time>2017-11-26T13:21:38Z</time>
      </trkpt>
      <trkpt lat="45.24729" lon="6.04098">
        <ele>1969.4549560547</ele>
        <time>2017-11-26T13:21:43Z</time>
      </trkpt>
      <trkpt lat="45.24723" lon="6.04099">
        <ele>1969.4549560547</ele>
        <time>2017-11-26T13:21:47Z</time>
      </trkpt>
      <trkpt lat="45.24719" lon="6.04101">
        <ele>1966.4549560547</ele>
        <time>2017-11-26T13:21:53Z</time>
      </trkpt>
      <trkpt lat="45.24714" lon="6.041">
        <ele>1968.4549560547</ele>
        <time>2017-11-26T13:21:57Z</time>
      </trkpt>
      <trkpt lat="45.2471" lon="6.04103">
        <ele>1967.4549560547</ele>
        <time>2017-11-26T13:22:03Z</time>
      </trkpt>
      <trkpt lat="45.24705" lon="6.04105">
        <ele>1971.4549560547</ele>
        <time>2017-11-26T13:22:09Z</time>
      </trkpt>
      <trkpt lat="45.24702" lon="6.04112">
        <ele>1974.4549560547</ele>
        <time>2017-11-26T13:22:15Z</time>
      </trkpt>
      <trkpt lat="45.247" lon="6.04118">
        <ele>1972.4549560547</ele>
        <time>2017-11-26T13:22:19Z</time>
      </trkpt>
      <trkpt lat="45.24698" lon="6.04124">
        <ele>1972.4549560547</ele>
        <time>2017-11-26T13:22:24Z</time>
      </trkpt>
      <trkpt lat="45.24696" lon="6.04129">
        <ele>1972.4549560547</ele>
        <time>2017-11-26T13:22:29Z</time>
      </trkpt>
      <trkpt lat="45.24691" lon="6.04132">
        <ele>1979.4549560547</ele>
        <time>2017-11-26T13:22:45Z</time>
      </trkpt>
      <trkpt lat="45.24687" lon="6.04131">
        <ele>1980.4549560547</ele>
        <time>2017-11-26T13:22:51Z</time>
      </trkpt>
      <trkpt lat="45.24683" lon="6.04125">
        <ele>1981.4549560547</ele>
        <time>2017-11-26T13:22:54Z</time>
      </trkpt>
      <trkpt lat="45.24678" lon="6.04123">
        <ele>1984.4549560547</ele>
        <time>2017-11-26T13:23:05Z</time>
      </trkpt>
      <trkpt lat="45.24675" lon="6.04119">
        <ele>1987.4549560547</ele>
        <time>2017-11-26T13:23:19Z</time>
      </trkpt>
      <trkpt lat="45.2467" lon="6.04114">
        <ele>1990.4549560547</ele>
        <time>2017-11-26T13:23:22Z</time>
      </trkpt>
      <trkpt lat="45.24667" lon="6.04106">
        <ele>1994.4549560547</ele>
        <time>2017-11-26T13:23:25Z</time>
      </trkpt>
      <trkpt lat="45.24664" lon="6.04099">
        <ele>1994.4549560547</ele>
        <time>2017-11-26T13:23:28Z</time>
      </trkpt>
      <trkpt lat="45.2466" lon="6.04093">
        <ele>1998.4549560547</ele>
        <time>2017-11-26T13:23:33Z</time>
      </trkpt>
      <trkpt lat="45.24657" lon="6.04087">
        <ele>2004.4549560547</ele>
        <time>2017-11-26T13:23:41Z</time>
      </trkpt>
      <trkpt lat="45.24655" lon="6.04081">
        <ele>2004.4549560547</ele>
        <time>2017-11-26T13:23:50Z</time>
      </trkpt>
      <trkpt lat="45.24651" lon="6.04075">
        <ele>2007.4549560547</ele>
        <time>2017-11-26T13:23:55Z</time>
      </trkpt>
      <trkpt lat="45.24649" lon="6.04068">
        <ele>2008.4549560547</ele>
        <time>2017-11-26T13:23:59Z</time>
      </trkpt>
      <trkpt lat="45.24649" lon="6.04061">
        <ele>2009.4549560547</ele>
        <time>2017-11-26T13:24:04Z</time>
      </trkpt>
      <trkpt lat="45.24648" lon="6.04054">
        <ele>2013.4549560547</ele>
        <time>2017-11-26T13:24:11Z</time>
      </trkpt>
      <trkpt lat="45.24644" lon="6.04048">
        <ele>2012.4549560547</ele>
        <time>2017-11-26T13:24:16Z</time>
      </trkpt>
      <trkpt lat="45.24642" lon="6.04042">
        <ele>2016.4549560547</ele>
        <time>2017-11-26T13:24:23Z</time>
      </trkpt>
      <trkpt lat="45.24637" lon="6.0404">
        <ele>2018.4549560547</ele>
        <time>2017-11-26T13:24:28Z</time>
      </trkpt>
      <trkpt lat="45.24637" lon="6.04031">
        <ele>2019.4549560547</ele>
        <time>2017-11-26T13:24:39Z</time>
      </trkpt>
      <trkpt lat="45.24638" lon="6.04025">
        <ele>2022.4549560547</ele>
        <time>2017-11-26T13:24:45Z</time>
      </trkpt>
      <trkpt lat="45.24633" lon="6.04021">
        <ele>2021.4549560547</ele>
        <time>2017-11-26T13:24:49Z</time>
      </trkpt>
      <trkpt lat="45.24629" lon="6.04017">
        <ele>2024.4549560547</ele>
        <time>2017-11-26T13:24:59Z</time>
      </trkpt>
      <trkpt lat="45.24624" lon="6.04021">
        <ele>2026.4549560547</ele>
        <time>2017-11-26T13:25:05Z</time>
      </trkpt>
      <trkpt lat="45.24622" lon="6.04014">
        <ele>2031.4549560547</ele>
        <time>2017-11-26T13:25:17Z</time>
      </trkpt>
      <trkpt lat="45.24621" lon="6.04007">
        <ele>2037.4549560547</ele>
        <time>2017-11-26T13:25:23Z</time>
      </trkpt>
      <trkpt lat="45.24622" lon="6.04">
        <ele>2038.4549560547</ele>
        <time>2017-11-26T13:25:28Z</time>
      </trkpt>
      <trkpt lat="45.2462" lon="6.03994">
        <ele>2041.4549560547</ele>
        <time>2017-11-26T13:25:35Z</time>
      </trkpt>
      <trkpt lat="45.24615" lon="6.03995">
        <ele>2040.4549560547</ele>
        <time>2017-11-26T13:25:42Z</time>
      </trkpt>
      <trkpt lat="45.24611" lon="6.03999">
        <ele>2040.4549560547</ele>
        <time>2017-11-26T13:25:48Z</time>
      </trkpt>
      <trkpt lat="45.24606" lon="6.04">
        <ele>2039.4549560547</ele>
        <time>2017-11-26T13:25:54Z</time>
      </trkpt>
      <trkpt lat="45.24601" lon="6.04004">
        <ele>2044.4549560547</ele>
        <time>2017-11-26T13:26:02Z</time>
      </trkpt>
      <trkpt lat="45.246" lon="6.03997">
        <ele>2048.455078125</ele>
        <time>2017-11-26T13:26:09Z</time>
      </trkpt>
      <trkpt lat="45.24601" lon="6.0399">
        <ele>2051.455078125</ele>
        <time>2017-11-26T13:26:14Z</time>
      </trkpt>
      <trkpt lat="45.246" lon="6.03984">
        <ele>2052.455078125</ele>
        <time>2017-11-26T13:26:19Z</time>
      </trkpt>
      <trkpt lat="45.24596" lon="6.03982">
        <ele>2053.455078125</ele>
        <time>2017-11-26T13:26:28Z</time>
      </trkpt>
      <trkpt lat="45.24591" lon="6.03984">
        <ele>2055.455078125</ele>
        <time>2017-11-26T13:26:34Z</time>
      </trkpt>
      <trkpt lat="45.24586" lon="6.03987">
        <ele>2057.455078125</ele>
        <time>2017-11-26T13:26:40Z</time>
      </trkpt>
      <trkpt lat="45.24581" lon="6.03986">
        <ele>2057.455078125</ele>
        <time>2017-11-26T13:26:45Z</time>
      </trkpt>
      <trkpt lat="45.24576" lon="6.03987">
        <ele>2058.455078125</ele>
        <time>2017-11-26T13:26:51Z</time>
      </trkpt>
      <trkpt lat="45.24571" lon="6.03988">
        <ele>2063.455078125</ele>
        <time>2017-11-26T13:27:06Z</time>
      </trkpt>
      <trkpt lat="45.24568" lon="6.03983">
        <ele>2065.455078125</ele>
        <time>2017-11-26T13:27:10Z</time>
      </trkpt>
      <trkpt lat="45.24563" lon="6.0398">
        <ele>2069.455078125</ele>
        <time>2017-11-26T13:27:20Z</time>
      </trkpt>
      <trkpt lat="45.24558" lon="6.03975">
        <ele>2071.455078125</ele>
        <time>2017-11-26T13:27:35Z</time>
      </trkpt>
      <trkpt lat="45.24554" lon="6.03979">
        <ele>2073.455078125</ele>
        <time>2017-11-26T13:27:53Z</time>
      </trkpt>
      <trkpt lat="45.24552" lon="6.03972">
        <ele>2076.455078125</ele>
        <time>2017-11-26T13:28:12Z</time>
      </trkpt>
      <trkpt lat="45.24555" lon="6.03968">
        <ele>2078.455078125</ele>
        <time>2017-11-26T13:28:18Z</time>
      </trkpt>
      <trkpt lat="45.24551" lon="6.03971">
        <ele>2075.455078125</ele>
        <time>2017-11-26T13:28:26Z</time>
      </trkpt>
      <trkpt lat="45.24548" lon="6.03976">
        <ele>2078.455078125</ele>
        <time>2017-11-26T13:28:32Z</time>
      </trkpt>
      <trkpt lat="45.24547" lon="6.03983">
        <ele>2080.455078125</ele>
        <time>2017-11-26T13:28:42Z</time>
      </trkpt>
      <trkpt lat="45.24543" lon="6.0398">
        <ele>2083.455078125</ele>
        <time>2017-11-26T13:28:57Z</time>
      </trkpt>
      <trkpt lat="45.24539" lon="6.03977">
        <ele>2081.455078125</ele>
        <time>2017-11-26T13:29:00Z</time>
      </trkpt>
      <trkpt lat="45.24535" lon="6.03973">
        <ele>2080.455078125</ele>
        <time>2017-11-26T13:29:04Z</time>
      </trkpt>
      <trkpt lat="45.24533" lon="6.03966">
        <ele>2082.455078125</ele>
        <time>2017-11-26T13:29:08Z</time>
      </trkpt>
      <trkpt lat="45.24535" lon="6.0396">
        <ele>2090.455078125</ele>
        <time>2017-11-26T13:29:14Z</time>
      </trkpt>
      <trkpt lat="45.24537" lon="6.03953">
        <ele>2092.455078125</ele>
        <time>2017-11-26T13:29:20Z</time>
      </trkpt>
      <trkpt lat="45.24542" lon="6.03947">
        <ele>2096.455078125</ele>
        <time>2017-11-26T13:29:28Z</time>
      </trkpt>
      <trkpt lat="45.24536" lon="6.03947">
        <ele>2097.455078125</ele>
        <time>2017-11-26T13:29:42Z</time>
      </trkpt>
      <trkpt lat="45.24532" lon="6.03945">
        <ele>2098.455078125</ele>
        <time>2017-11-26T13:29:48Z</time>
      </trkpt>
      <trkpt lat="45.24527" lon="6.03944">
        <ele>2099.4541015625</ele>
        <time>2017-11-26T13:29:55Z</time>
      </trkpt>
      <trkpt lat="45.24523" lon="6.03943">
        <ele>2101.4541015625</ele>
        <time>2017-11-26T13:30:03Z</time>
      </trkpt>
      <trkpt lat="45.24518" lon="6.03944">
        <ele>2104.4541015625</ele>
        <time>2017-11-26T13:30:12Z</time>
      </trkpt>
      <trkpt lat="45.24512" lon="6.03947">
        <ele>2103.4541015625</ele>
        <time>2017-11-26T13:30:18Z</time>
      </trkpt>
      <trkpt lat="45.24507" lon="6.03946">
        <ele>2105.4541015625</ele>
        <time>2017-11-26T13:30:26Z</time>
      </trkpt>
      <trkpt lat="45.24505" lon="6.03941">
        <ele>2106.4541015625</ele>
        <time>2017-11-26T13:30:44Z</time>
      </trkpt>
      <trkpt lat="45.24507" lon="6.03934">
        <ele>2108.4541015625</ele>
        <time>2017-11-26T13:30:53Z</time>
      </trkpt>
      <trkpt lat="45.24511" lon="6.03929">
        <ele>2110.4541015625</ele>
        <time>2017-11-26T13:30:59Z</time>
      </trkpt>
      <trkpt lat="45.24514" lon="6.03924">
        <ele>2115.4541015625</ele>
        <time>2017-11-26T13:31:04Z</time>
      </trkpt>
      <trkpt lat="45.24518" lon="6.03918">
        <ele>2117.4541015625</ele>
        <time>2017-11-26T13:31:10Z</time>
      </trkpt>
      <trkpt lat="45.2452" lon="6.03912">
        <ele>2117.4541015625</ele>
        <time>2017-11-26T13:31:15Z</time>
      </trkpt>
      <trkpt lat="45.24521" lon="6.03906">
        <ele>2117.4541015625</ele>
        <time>2017-11-26T13:31:20Z</time>
      </trkpt>
      <trkpt lat="45.24524" lon="6.03899">
        <ele>2118.4541015625</ele>
        <time>2017-11-26T13:31:25Z</time>
      </trkpt>
      <trkpt lat="45.24525" lon="6.03891">
        <ele>2119.4541015625</ele>
        <time>2017-11-26T13:31:31Z</time>
      </trkpt>
      <trkpt lat="45.24524" lon="6.03884">
        <ele>2119.4541015625</ele>
        <time>2017-11-26T13:31:38Z</time>
      </trkpt>
      <trkpt lat="45.24522" lon="6.03877">
        <ele>2121.4541015625</ele>
        <time>2017-11-26T13:31:46Z</time>
      </trkpt>
      <trkpt lat="45.24518" lon="6.03877">
        <ele>2122.4541015625</ele>
        <time>2017-11-26T13:31:58Z</time>
      </trkpt>
      <trkpt lat="45.24513" lon="6.03878">
        <ele>2120.4541015625</ele>
        <time>2017-11-26T13:32:04Z</time>
      </trkpt>
      <trkpt lat="45.2451" lon="6.03873">
        <ele>2121.4541015625</ele>
        <time>2017-11-26T13:32:10Z</time>
      </trkpt>
      <trkpt lat="45.24506" lon="6.03868">
        <ele>2124.4541015625</ele>
        <time>2017-11-26T13:32:15Z</time>
      </trkpt>
      <trkpt lat="45.24504" lon="6.0386">
        <ele>2125.4541015625</ele>
        <time>2017-11-26T13:32:21Z</time>
      </trkpt>
      <trkpt lat="45.24502" lon="6.03854">
        <ele>2127.4541015625</ele>
        <time>2017-11-26T13:32:28Z</time>
      </trkpt>
      <trkpt lat="45.245" lon="6.03848">
        <ele>2132.4541015625</ele>
        <time>2017-11-26T13:32:34Z</time>
      </trkpt>
      <trkpt lat="45.24495" lon="6.03846">
        <ele>2136.4541015625</ele>
        <time>2017-11-26T13:32:43Z</time>
      </trkpt>
      <trkpt lat="45.24495" lon="6.03839">
        <ele>2138.4541015625</ele>
        <time>2017-11-26T13:32:50Z</time>
      </trkpt>
      <trkpt lat="45.2449" lon="6.03838">
        <ele>2142.4541015625</ele>
        <time>2017-11-26T13:33:45Z</time>
      </trkpt>
      <trkpt lat="45.24487" lon="6.03832">
        <ele>2138.4541015625</ele>
        <time>2017-11-26T13:33:50Z</time>
      </trkpt>
      <trkpt lat="45.24483" lon="6.03827">
        <ele>2142.4541015625</ele>
        <time>2017-11-26T13:33:55Z</time>
      </trkpt>
      <trkpt lat="45.24477" lon="6.03824">
        <ele>2142.4541015625</ele>
        <time>2017-11-26T13:34:00Z</time>
      </trkpt>
      <trkpt lat="45.24472" lon="6.03822">
        <ele>2145.4541015625</ele>
        <time>2017-11-26T13:34:05Z</time>
      </trkpt>
      <trkpt lat="45.24467" lon="6.03823">
        <ele>2145.4541015625</ele>
        <time>2017-11-26T13:34:14Z</time>
      </trkpt>
      <trkpt lat="45.24463" lon="6.0382">
        <ele>2148.4541015625</ele>
        <time>2017-11-26T13:34:19Z</time>
      </trkpt>
      <trkpt lat="45.24458" lon="6.03818">
        <ele>2148.4541015625</ele>
        <time>2017-11-26T13:34:24Z</time>
      </trkpt>
      <trkpt lat="45.24454" lon="6.03816">
        <ele>2149.4541015625</ele>
        <time>2017-11-26T13:34:29Z</time>
      </trkpt>
      <trkpt lat="45.24449" lon="6.03814">
        <ele>2153.4541015625</ele>
        <time>2017-11-26T13:34:37Z</time>
      </trkpt>
      <trkpt lat="45.24445" lon="6.03812">
        <ele>2148.4541015625</ele>
        <time>2017-11-26T13:34:47Z</time>
      </trkpt>
      <trkpt lat="45.2444" lon="6.03809">
        <ele>2152.4541015625</ele>
        <time>2017-11-26T13:34:51Z</time>
      </trkpt>
      <trkpt lat="45.24436" lon="6.03806">
        <ele>2155.4541015625</ele>
        <time>2017-11-26T13:34:56Z</time>
      </trkpt>
      <trkpt lat="45.24431" lon="6.03804">
        <ele>2158.4541015625</ele>
        <time>2017-11-26T13:35:03Z</time>
      </trkpt>
      <trkpt lat="45.24427" lon="6.03802">
        <ele>2159.4541015625</ele>
        <time>2017-11-26T13:35:10Z</time>
      </trkpt>
      <trkpt lat="45.24423" lon="6.03799">
        <ele>2159.4541015625</ele>
        <time>2017-11-26T13:35:23Z</time>
      </trkpt>
      <trkpt lat="45.24419" lon="6.03792">
        <ele>2165.4541015625</ele>
        <time>2017-11-26T13:35:27Z</time>
      </trkpt>
      <trkpt lat="45.24416" lon="6.03786">
        <ele>2166.4541015625</ele>
        <time>2017-11-26T13:35:32Z</time>
      </trkpt>
      <trkpt lat="45.24412" lon="6.03782">
        <ele>2164.4541015625</ele>
        <time>2017-11-26T13:35:37Z</time>
      </trkpt>
      <trkpt lat="45.2441" lon="6.03776">
        <ele>2165.4541015625</ele>
        <time>2017-11-26T13:35:43Z</time>
      </trkpt>
      <trkpt lat="45.24406" lon="6.0377">
        <ele>2163.4541015625</ele>
        <time>2017-11-26T13:35:56Z</time>
      </trkpt>
      <trkpt lat="45.24403" lon="6.03766">
        <ele>2165.4541015625</ele>
        <time>2017-11-26T13:36:01Z</time>
      </trkpt>
      <trkpt lat="45.244" lon="6.03761">
        <ele>2169.4541015625</ele>
        <time>2017-11-26T13:36:06Z</time>
      </trkpt>
      <trkpt lat="45.24398" lon="6.03755">
        <ele>2174.4541015625</ele>
        <time>2017-11-26T13:36:14Z</time>
      </trkpt>
      <trkpt lat="45.24396" lon="6.03749">
        <ele>2176.4541015625</ele>
        <time>2017-11-26T13:36:23Z</time>
      </trkpt>
      <trkpt lat="45.24393" lon="6.03742">
        <ele>2178.4541015625</ele>
        <time>2017-11-26T13:36:33Z</time>
      </trkpt>
      <trkpt lat="45.24391" lon="6.03736">
        <ele>2181.4541015625</ele>
        <time>2017-11-26T13:36:38Z</time>
      </trkpt>
      <trkpt lat="45.2439" lon="6.03729">
        <ele>2182.4541015625</ele>
        <time>2017-11-26T13:36:43Z</time>
      </trkpt>
      <trkpt lat="45.24386" lon="6.03723">
        <ele>2185.4541015625</ele>
        <time>2017-11-26T13:36:49Z</time>
      </trkpt>
      <trkpt lat="45.24383" lon="6.03718">
        <ele>2188.4541015625</ele>
        <time>2017-11-26T13:36:54Z</time>
      </trkpt>
      <trkpt lat="45.24382" lon="6.03712">
        <ele>2189.4541015625</ele>
        <time>2017-11-26T13:37:04Z</time>
      </trkpt>
      <trkpt lat="45.2438" lon="6.03706">
        <ele>2191.4541015625</ele>
        <time>2017-11-26T13:37:12Z</time>
      </trkpt>
      <trkpt lat="45.24378" lon="6.037">
        <ele>2196.4541015625</ele>
        <time>2017-11-26T13:37:18Z</time>
      </trkpt>
      <trkpt lat="45.24376" lon="6.03694">
        <ele>2203.4541015625</ele>
        <time>2017-11-26T13:37:32Z</time>
      </trkpt>
      <trkpt lat="45.24373" lon="6.03689">
        <ele>2205.4541015625</ele>
        <time>2017-11-26T13:37:40Z</time>
      </trkpt>
      <trkpt lat="45.2437" lon="6.03683">
        <ele>2205.4541015625</ele>
        <time>2017-11-26T13:37:48Z</time>
      </trkpt>
      <trkpt lat="45.24367" lon="6.03677">
        <ele>2208.4541015625</ele>
        <time>2017-11-26T13:37:54Z</time>
      </trkpt>
      <trkpt lat="45.24365" lon="6.03672">
        <ele>2208.4541015625</ele>
        <time>2017-11-26T13:38:00Z</time>
      </trkpt>
      <trkpt lat="45.24361" lon="6.03676">
        <ele>2215.4541015625</ele>
        <time>2017-11-26T13:38:19Z</time>
      </trkpt>
      <trkpt lat="45.24357" lon="6.03681">
        <ele>2215.4541015625</ele>
        <time>2017-11-26T13:38:25Z</time>
      </trkpt>
      <trkpt lat="45.24354" lon="6.03686">
        <ele>2218.4541015625</ele>
        <time>2017-11-26T13:38:30Z</time>
      </trkpt>
      <trkpt lat="45.24349" lon="6.03689">
        <ele>2220.4541015625</ele>
        <time>2017-11-26T13:38:39Z</time>
      </trkpt>
      <trkpt lat="45.24345" lon="6.03694">
        <ele>2223.4541015625</ele>
        <time>2017-11-26T13:38:46Z</time>
      </trkpt>
      <trkpt lat="45.2434" lon="6.03698">
        <ele>2221.4541015625</ele>
        <time>2017-11-26T13:38:54Z</time>
      </trkpt>
      <trkpt lat="45.24335" lon="6.03699">
        <ele>2220.4541015625</ele>
        <time>2017-11-26T13:39:00Z</time>
      </trkpt>
      <trkpt lat="45.2433" lon="6.037">
        <ele>2227.4541015625</ele>
        <time>2017-11-26T13:39:11Z</time>
      </trkpt>
      <trkpt lat="45.2433" lon="6.03693">
        <ele>2227.4541015625</ele>
        <time>2017-11-26T13:39:23Z</time>
      </trkpt>
      <trkpt lat="45.24329" lon="6.03687">
        <ele>2227.4541015625</ele>
        <time>2017-11-26T13:39:29Z</time>
      </trkpt>
      <trkpt lat="45.24326" lon="6.0368">
        <ele>2226.4541015625</ele>
        <time>2017-11-26T13:39:33Z</time>
      </trkpt>
      <trkpt lat="45.24321" lon="6.03682">
        <ele>2234.4541015625</ele>
        <time>2017-11-26T13:39:48Z</time>
      </trkpt>
      <trkpt lat="45.24318" lon="6.03687">
        <ele>2236.4541015625</ele>
        <time>2017-11-26T13:39:53Z</time>
      </trkpt>
      <trkpt lat="45.24314" lon="6.03691">
        <ele>2239.4541015625</ele>
        <time>2017-11-26T13:40:00Z</time>
      </trkpt>
      <trkpt lat="45.2431" lon="6.03695">
        <ele>2241.4541015625</ele>
        <time>2017-11-26T13:40:06Z</time>
      </trkpt>
      <trkpt lat="45.24308" lon="6.03689">
        <ele>2242.4541015625</ele>
        <time>2017-11-26T13:40:19Z</time>
      </trkpt>
      <trkpt lat="45.24306" lon="6.03682">
        <ele>2247.4541015625</ele>
        <time>2017-11-26T13:40:45Z</time>
      </trkpt>
      <trkpt lat="45.24305" lon="6.03674">
        <ele>2245.4541015625</ele>
        <time>2017-11-26T13:40:50Z</time>
      </trkpt>
      <trkpt lat="45.24303" lon="6.03668">
        <ele>2245.4541015625</ele>
        <time>2017-11-26T13:40:57Z</time>
      </trkpt>
      <trkpt lat="45.24298" lon="6.0367">
        <ele>2249.4541015625</ele>
        <time>2017-11-26T13:41:04Z</time>
      </trkpt>
      <trkpt lat="45.24294" lon="6.03673">
        <ele>2254.4541015625</ele>
        <time>2017-11-26T13:41:21Z</time>
      </trkpt>
      <trkpt lat="45.24289" lon="6.03677">
        <ele>2255.4541015625</ele>
        <time>2017-11-26T13:41:26Z</time>
      </trkpt>
      <trkpt lat="45.24285" lon="6.0368">
        <ele>2259.4541015625</ele>
        <time>2017-11-26T13:41:39Z</time>
      </trkpt>
      <trkpt lat="45.24284" lon="6.03674">
        <ele>2261.4541015625</ele>
        <time>2017-11-26T13:41:49Z</time>
      </trkpt>
      <trkpt lat="45.24282" lon="6.03667">
        <ele>2263.4541015625</ele>
        <time>2017-11-26T13:41:55Z</time>
      </trkpt>
      <trkpt lat="45.24279" lon="6.03662">
        <ele>2263.4541015625</ele>
        <time>2017-11-26T13:42:01Z</time>
      </trkpt>
      <trkpt lat="45.24277" lon="6.03655">
        <ele>2267.4541015625</ele>
        <time>2017-11-26T13:42:09Z</time>
      </trkpt>
      <trkpt lat="45.24275" lon="6.03649">
        <ele>2266.4541015625</ele>
        <time>2017-11-26T13:42:18Z</time>
      </trkpt>
      <trkpt lat="45.24272" lon="6.03655">
        <ele>2268.4541015625</ele>
        <time>2017-11-26T13:42:27Z</time>
      </trkpt>
      <trkpt lat="45.24268" lon="6.0366">
        <ele>2270.4541015625</ele>
        <time>2017-11-26T13:42:32Z</time>
      </trkpt>
      <trkpt lat="45.24263" lon="6.03664">
        <ele>2272.4541015625</ele>
        <time>2017-11-26T13:42:37Z</time>
      </trkpt>
      <trkpt lat="45.24262" lon="6.03671">
        <ele>2272.4541015625</ele>
        <time>2017-11-26T13:42:44Z</time>
      </trkpt>
      <trkpt lat="45.24259" lon="6.03676">
        <ele>2275.4541015625</ele>
        <time>2017-11-26T13:42:59Z</time>
      </trkpt>
      <trkpt lat="45.24256" lon="6.03669">
        <ele>2277.4541015625</ele>
        <time>2017-11-26T13:43:05Z</time>
      </trkpt>
      <trkpt lat="45.24252" lon="6.03664">
        <ele>2278.4541015625</ele>
        <time>2017-11-26T13:43:12Z</time>
      </trkpt>
      <trkpt lat="45.24252" lon="6.03658">
        <ele>2280.4541015625</ele>
        <time>2017-11-26T13:43:19Z</time>
      </trkpt>
      <trkpt lat="45.24253" lon="6.03651">
        <ele>2284.4541015625</ele>
        <time>2017-11-26T13:43:23Z</time>
      </trkpt>
      <trkpt lat="45.24252" lon="6.03644">
        <ele>2289.4541015625</ele>
        <time>2017-11-26T13:43:29Z</time>
      </trkpt>
      <trkpt lat="45.24251" lon="6.03637">
        <ele>2293.4541015625</ele>
        <time>2017-11-26T13:43:34Z</time>
      </trkpt>
      <trkpt lat="45.24251" lon="6.0363">
        <ele>2295.4541015625</ele>
        <time>2017-11-26T13:43:40Z</time>
      </trkpt>
      <trkpt lat="45.24253" lon="6.03623">
        <ele>2298.4541015625</ele>
        <time>2017-11-26T13:43:46Z</time>
      </trkpt>
      <trkpt lat="45.24249" lon="6.03618">
        <ele>2297.4528808594</ele>
        <time>2017-11-26T13:43:52Z</time>
      </trkpt>
      <trkpt lat="45.24248" lon="6.03611">
        <ele>2299.4528808594</ele>
        <time>2017-11-26T13:44:00Z</time>
      </trkpt>
      <trkpt lat="45.24248" lon="6.03604">
        <ele>2302.4528808594</ele>
        <time>2017-11-26T13:44:11Z</time>
      </trkpt>
      <trkpt lat="45.24246" lon="6.03597">
        <ele>2304.4528808594</ele>
        <time>2017-11-26T13:44:17Z</time>
      </trkpt>
      <trkpt lat="45.24246" lon="6.0359">
        <ele>2301.4528808594</ele>
        <time>2017-11-26T13:44:24Z</time>
      </trkpt>
      <trkpt lat="45.24242" lon="6.03586">
        <ele>2301.4528808594</ele>
        <time>2017-11-26T13:44:28Z</time>
      </trkpt>
      <trkpt lat="45.24243" lon="6.0358">
        <ele>2309.4528808594</ele>
        <time>2017-11-26T13:44:39Z</time>
      </trkpt>
      <trkpt lat="45.2424" lon="6.03575">
        <ele>2311.4528808594</ele>
        <time>2017-11-26T13:44:52Z</time>
      </trkpt>
      <trkpt lat="45.24236" lon="6.03577">
        <ele>2314.4528808594</ele>
        <time>2017-11-26T13:44:58Z</time>
      </trkpt>
      <trkpt lat="45.24232" lon="6.0358">
        <ele>2320.4528808594</ele>
        <time>2017-11-26T13:45:05Z</time>
      </trkpt>
      <trkpt lat="45.24228" lon="6.03584">
        <ele>2322.4528808594</ele>
        <time>2017-11-26T13:45:11Z</time>
      </trkpt>
      <trkpt lat="45.24223" lon="6.03587">
        <ele>2323.4528808594</ele>
        <time>2017-11-26T13:45:19Z</time>
      </trkpt>
      <trkpt lat="45.24219" lon="6.03591">
        <ele>2323.4528808594</ele>
        <time>2017-11-26T13:45:25Z</time>
      </trkpt>
      <trkpt lat="45.24217" lon="6.03584">
        <ele>2326.4528808594</ele>
        <time>2017-11-26T13:45:45Z</time>
      </trkpt>
      <trkpt lat="45.24216" lon="6.03576">
        <ele>2327.4528808594</ele>
        <time>2017-11-26T13:45:52Z</time>
      </trkpt>
      <trkpt lat="45.24217" lon="6.0357">
        <ele>2329.4528808594</ele>
        <time>2017-11-26T13:46:00Z</time>
      </trkpt>
      <trkpt lat="45.24214" lon="6.03563">
        <ele>2329.4528808594</ele>
        <time>2017-11-26T13:46:06Z</time>
      </trkpt>
      <trkpt lat="45.24213" lon="6.03556">
        <ele>2330.4528808594</ele>
        <time>2017-11-26T13:46:12Z</time>
      </trkpt>
      <trkpt lat="45.24214" lon="6.0355">
        <ele>2333.4528808594</ele>
        <time>2017-11-26T13:46:19Z</time>
      </trkpt>
      <trkpt lat="45.2421" lon="6.03549">
        <ele>2337.4528808594</ele>
        <time>2017-11-26T13:46:34Z</time>
      </trkpt>
      <trkpt lat="45.24204" lon="6.03551">
        <ele>2333.4528808594</ele>
        <time>2017-11-26T13:46:39Z</time>
      </trkpt>
      <trkpt lat="45.24204" lon="6.03558">
        <ele>2341.4528808594</ele>
        <time>2017-11-26T13:48:12Z</time>
      </trkpt>
      <trkpt lat="45.24204" lon="6.03566">
        <ele>2349.4528808594</ele>
        <time>2017-11-26T13:49:00Z</time>
      </trkpt>
      <trkpt lat="45.24211" lon="6.03568">
        <ele>2344.4528808594</ele>
        <time>2017-11-26T13:49:03Z</time>
      </trkpt>
      <trkpt lat="45.2422" lon="6.03571">
        <ele>2341.4528808594</ele>
        <time>2017-11-26T13:49:05Z</time>
      </trkpt>
      <trkpt lat="45.2423" lon="6.03577">
        <ele>2337.4528808594</ele>
        <time>2017-11-26T13:49:07Z</time>
      </trkpt>
      <trkpt lat="45.2423" lon="6.03599">
        <ele>2334.4528808594</ele>
        <time>2017-11-26T13:49:10Z</time>
      </trkpt>
      <trkpt lat="45.24247" lon="6.03615">
        <ele>2329.4528808594</ele>
        <time>2017-11-26T13:49:13Z</time>
      </trkpt>
      <trkpt lat="45.24261" lon="6.03625">
        <ele>2321.4541015625</ele>
        <time>2017-11-26T13:49:16Z</time>
      </trkpt>
      <trkpt lat="45.24269" lon="6.03631">
        <ele>2317.4541015625</ele>
        <time>2017-11-26T13:49:18Z</time>
      </trkpt>
      <trkpt lat="45.24278" lon="6.03638">
        <ele>2312.4541015625</ele>
        <time>2017-11-26T13:49:20Z</time>
      </trkpt>
      <trkpt lat="45.24282" lon="6.03648">
        <ele>2306.4541015625</ele>
        <time>2017-11-26T13:49:22Z</time>
      </trkpt>
      <trkpt lat="45.24283" lon="6.03665">
        <ele>2302.4541015625</ele>
        <time>2017-11-26T13:49:24Z</time>
      </trkpt>
      <trkpt lat="45.24284" lon="6.03677">
        <ele>2298.4541015625</ele>
        <time>2017-11-26T13:49:26Z</time>
      </trkpt>
      <trkpt lat="45.24292" lon="6.03685">
        <ele>2293.4541015625</ele>
        <time>2017-11-26T13:49:28Z</time>
      </trkpt>
      <trkpt lat="45.24296" lon="6.03695">
        <ele>2291.4541015625</ele>
        <time>2017-11-26T13:49:30Z</time>
      </trkpt>
      <trkpt lat="45.24307" lon="6.03699">
        <ele>2284.4541015625</ele>
        <time>2017-11-26T13:49:33Z</time>
      </trkpt>
      <trkpt lat="45.24305" lon="6.03707">
        <ele>2281.4541015625</ele>
        <time>2017-11-26T13:49:34Z</time>
      </trkpt>
      <trkpt lat="45.24307" lon="6.03717">
        <ele>2277.4541015625</ele>
        <time>2017-11-26T13:49:36Z</time>
      </trkpt>
      <trkpt lat="45.24307" lon="6.03723">
        <ele>2273.4541015625</ele>
        <time>2017-11-26T13:49:38Z</time>
      </trkpt>
      <trkpt lat="45.24306" lon="6.03731">
        <ele>2263.4541015625</ele>
        <time>2017-11-26T13:49:46Z</time>
      </trkpt>
      <trkpt lat="45.24309" lon="6.03742">
        <ele>2259.4541015625</ele>
        <time>2017-11-26T13:49:48Z</time>
      </trkpt>
      <trkpt lat="45.24314" lon="6.03748">
        <ele>2254.4541015625</ele>
        <time>2017-11-26T13:49:50Z</time>
      </trkpt>
      <trkpt lat="45.24316" lon="6.03757">
        <ele>2248.4541015625</ele>
        <time>2017-11-26T13:49:52Z</time>
      </trkpt>
      <trkpt lat="45.2432" lon="6.03766">
        <ele>2244.4541015625</ele>
        <time>2017-11-26T13:49:54Z</time>
      </trkpt>
      <trkpt lat="45.24331" lon="6.03777">
        <ele>2239.4541015625</ele>
        <time>2017-11-26T13:49:57Z</time>
      </trkpt>
      <trkpt lat="45.24343" lon="6.03788">
        <ele>2232.4541015625</ele>
        <time>2017-11-26T13:50:00Z</time>
      </trkpt>
      <trkpt lat="45.24357" lon="6.03789">
        <ele>2222.4541015625</ele>
        <time>2017-11-26T13:50:03Z</time>
      </trkpt>
      <trkpt lat="45.24368" lon="6.03792">
        <ele>2221.4541015625</ele>
        <time>2017-11-26T13:50:05Z</time>
      </trkpt>
      <trkpt lat="45.24378" lon="6.03794">
        <ele>2218.4541015625</ele>
        <time>2017-11-26T13:50:07Z</time>
      </trkpt>
      <trkpt lat="45.24389" lon="6.03798">
        <ele>2212.4541015625</ele>
        <time>2017-11-26T13:50:09Z</time>
      </trkpt>
      <trkpt lat="45.24395" lon="6.038">
        <ele>2211.4541015625</ele>
        <time>2017-11-26T13:50:10Z</time>
      </trkpt>
      <trkpt lat="45.24404" lon="6.03804">
        <ele>2203.4541015625</ele>
        <time>2017-11-26T13:50:12Z</time>
      </trkpt>
      <trkpt lat="45.24413" lon="6.03804">
        <ele>2201.4541015625</ele>
        <time>2017-11-26T13:50:13Z</time>
      </trkpt>
      <trkpt lat="45.24429" lon="6.03806">
        <ele>2197.4541015625</ele>
        <time>2017-11-26T13:50:15Z</time>
      </trkpt>
      <trkpt lat="45.24444" lon="6.0381">
        <ele>2195.4541015625</ele>
        <time>2017-11-26T13:50:17Z</time>
      </trkpt>
      <trkpt lat="45.24454" lon="6.03807">
        <ele>2193.4541015625</ele>
        <time>2017-11-26T13:50:19Z</time>
      </trkpt>
      <trkpt lat="45.24465" lon="6.03807">
        <ele>2189.4541015625</ele>
        <time>2017-11-26T13:50:21Z</time>
      </trkpt>
      <trkpt lat="45.24477" lon="6.03801">
        <ele>2182.4541015625</ele>
        <time>2017-11-26T13:50:24Z</time>
      </trkpt>
      <trkpt lat="45.24493" lon="6.038">
        <ele>2177.4541015625</ele>
        <time>2017-11-26T13:50:26Z</time>
      </trkpt>
      <trkpt lat="45.24498" lon="6.03798">
        <ele>2176.4541015625</ele>
        <time>2017-11-26T13:50:27Z</time>
      </trkpt>
      <trkpt lat="45.24504" lon="6.03795">
        <ele>2174.4541015625</ele>
        <time>2017-11-26T13:50:28Z</time>
      </trkpt>
      <trkpt lat="45.24518" lon="6.03786">
        <ele>2169.4541015625</ele>
        <time>2017-11-26T13:50:31Z</time>
      </trkpt>
      <trkpt lat="45.24524" lon="6.03783">
        <ele>2169.4541015625</ele>
        <time>2017-11-26T13:50:33Z</time>
      </trkpt>
      <trkpt lat="45.24529" lon="6.0378">
        <ele>2167.4541015625</ele>
        <time>2017-11-26T13:50:35Z</time>
      </trkpt>
      <trkpt lat="45.24532" lon="6.03775">
        <ele>2165.4541015625</ele>
        <time>2017-11-26T13:50:38Z</time>
      </trkpt>
      <trkpt lat="45.24535" lon="6.03767">
        <ele>2161.4541015625</ele>
        <time>2017-11-26T13:50:40Z</time>
      </trkpt>
      <trkpt lat="45.2454" lon="6.03759">
        <ele>2157.4541015625</ele>
        <time>2017-11-26T13:50:42Z</time>
      </trkpt>
      <trkpt lat="45.24551" lon="6.03759">
        <ele>2153.4541015625</ele>
        <time>2017-11-26T13:50:44Z</time>
      </trkpt>
      <trkpt lat="45.24561" lon="6.03755">
        <ele>2150.4541015625</ele>
        <time>2017-11-26T13:50:46Z</time>
      </trkpt>
      <trkpt lat="45.24565" lon="6.03762">
        <ele>2146.4541015625</ele>
        <time>2017-11-26T13:50:47Z</time>
      </trkpt>
      <trkpt lat="45.24577" lon="6.03772">
        <ele>2143.4541015625</ele>
        <time>2017-11-26T13:50:49Z</time>
      </trkpt>
      <trkpt lat="45.24589" lon="6.03781">
        <ele>2141.4541015625</ele>
        <time>2017-11-26T13:50:51Z</time>
      </trkpt>
      <trkpt lat="45.24598" lon="6.03789">
        <ele>2139.4541015625</ele>
        <time>2017-11-26T13:50:53Z</time>
      </trkpt>
      <trkpt lat="45.24607" lon="6.03791">
        <ele>2137.4541015625</ele>
        <time>2017-11-26T13:50:55Z</time>
      </trkpt>
      <trkpt lat="45.24612" lon="6.03789">
        <ele>2135.4541015625</ele>
        <time>2017-11-26T13:50:58Z</time>
      </trkpt>
      <trkpt lat="45.24618" lon="6.03791">
        <ele>2130.4541015625</ele>
        <time>2017-11-26T13:51:02Z</time>
      </trkpt>
      <trkpt lat="45.24624" lon="6.038">
        <ele>2120.4541015625</ele>
        <time>2017-11-26T13:51:06Z</time>
      </trkpt>
      <trkpt lat="45.24626" lon="6.03807">
        <ele>2117.4541015625</ele>
        <time>2017-11-26T13:51:08Z</time>
      </trkpt>
      <trkpt lat="45.24624" lon="6.03814">
        <ele>2113.455078125</ele>
        <time>2017-11-26T13:51:12Z</time>
      </trkpt>
      <trkpt lat="45.24626" lon="6.0382">
        <ele>2104.455078125</ele>
        <time>2017-11-26T13:51:22Z</time>
      </trkpt>
      <trkpt lat="45.24627" lon="6.03827">
        <ele>2101.455078125</ele>
        <time>2017-11-26T13:51:25Z</time>
      </trkpt>
      <trkpt lat="45.24632" lon="6.03832">
        <ele>2096.455078125</ele>
        <time>2017-11-26T13:51:32Z</time>
      </trkpt>
      <trkpt lat="45.24636" lon="6.03835">
        <ele>2087.455078125</ele>
        <time>2017-11-26T13:51:43Z</time>
      </trkpt>
      <trkpt lat="45.24641" lon="6.0384">
        <ele>2083.455078125</ele>
        <time>2017-11-26T13:51:46Z</time>
      </trkpt>
      <trkpt lat="45.2465" lon="6.03842">
        <ele>2080.455078125</ele>
        <time>2017-11-26T13:51:48Z</time>
      </trkpt>
      <trkpt lat="45.24656" lon="6.03843">
        <ele>2078.455078125</ele>
        <time>2017-11-26T13:51:50Z</time>
      </trkpt>
      <trkpt lat="45.24662" lon="6.03845">
        <ele>2077.455078125</ele>
        <time>2017-11-26T13:51:52Z</time>
      </trkpt>
      <trkpt lat="45.24667" lon="6.03847">
        <ele>2074.455078125</ele>
        <time>2017-11-26T13:51:55Z</time>
      </trkpt>
      <trkpt lat="45.24671" lon="6.03851">
        <ele>2072.455078125</ele>
        <time>2017-11-26T13:51:57Z</time>
      </trkpt>
      <trkpt lat="45.24677" lon="6.03856">
        <ele>2068.455078125</ele>
        <time>2017-11-26T13:51:59Z</time>
      </trkpt>
      <trkpt lat="45.24682" lon="6.0386">
        <ele>2066.455078125</ele>
        <time>2017-11-26T13:52:01Z</time>
      </trkpt>
      <trkpt lat="45.24686" lon="6.03864">
        <ele>2064.455078125</ele>
        <time>2017-11-26T13:52:03Z</time>
      </trkpt>
      <trkpt lat="45.2469" lon="6.03869">
        <ele>2060.455078125</ele>
        <time>2017-11-26T13:52:05Z</time>
      </trkpt>
      <trkpt lat="45.24693" lon="6.03881">
        <ele>2053.455078125</ele>
        <time>2017-11-26T13:52:07Z</time>
      </trkpt>
      <trkpt lat="45.247" lon="6.0389">
        <ele>2049.455078125</ele>
        <time>2017-11-26T13:52:09Z</time>
      </trkpt>
      <trkpt lat="45.24704" lon="6.03902">
        <ele>2044.4549560547</ele>
        <time>2017-11-26T13:52:11Z</time>
      </trkpt>
      <trkpt lat="45.24708" lon="6.0392">
        <ele>2034.4549560547</ele>
        <time>2017-11-26T13:52:14Z</time>
      </trkpt>
      <trkpt lat="45.24712" lon="6.03929">
        <ele>2026.4549560547</ele>
        <time>2017-11-26T13:52:16Z</time>
      </trkpt>
      <trkpt lat="45.24717" lon="6.03942">
        <ele>2020.4549560547</ele>
        <time>2017-11-26T13:52:18Z</time>
      </trkpt>
      <trkpt lat="45.24723" lon="6.03955">
        <ele>2015.4549560547</ele>
        <time>2017-11-26T13:52:20Z</time>
      </trkpt>
      <trkpt lat="45.24729" lon="6.03959">
        <ele>2012.4549560547</ele>
        <time>2017-11-26T13:52:22Z</time>
      </trkpt>
      <trkpt lat="45.24734" lon="6.03966">
        <ele>2007.4549560547</ele>
        <time>2017-11-26T13:52:40Z</time>
      </trkpt>
      <trkpt lat="45.24742" lon="6.03977">
        <ele>2002.4549560547</ele>
        <time>2017-11-26T13:52:42Z</time>
      </trkpt>
      <trkpt lat="45.24745" lon="6.03992">
        <ele>1997.4549560547</ele>
        <time>2017-11-26T13:52:44Z</time>
      </trkpt>
      <trkpt lat="45.2476" lon="6.04017">
        <ele>1991.4549560547</ele>
        <time>2017-11-26T13:52:47Z</time>
      </trkpt>
      <trkpt lat="45.24764" lon="6.04022">
        <ele>1985.4549560547</ele>
        <time>2017-11-26T13:52:48Z</time>
      </trkpt>
      <trkpt lat="45.24775" lon="6.04034">
        <ele>1979.4549560547</ele>
        <time>2017-11-26T13:52:50Z</time>
      </trkpt>
      <trkpt lat="45.24782" lon="6.04037">
        <ele>1976.4549560547</ele>
        <time>2017-11-26T13:52:51Z</time>
      </trkpt>
      <trkpt lat="45.24797" lon="6.04043">
        <ele>1974.4549560547</ele>
        <time>2017-11-26T13:52:53Z</time>
      </trkpt>
      <trkpt lat="45.24807" lon="6.04061">
        <ele>1967.4549560547</ele>
        <time>2017-11-26T13:52:55Z</time>
      </trkpt>
      <trkpt lat="45.24816" lon="6.04074">
        <ele>1963.4549560547</ele>
        <time>2017-11-26T13:52:57Z</time>
      </trkpt>
      <trkpt lat="45.24826" lon="6.04083">
        <ele>1963.4549560547</ele>
        <time>2017-11-26T13:52:59Z</time>
      </trkpt>
      <trkpt lat="45.24835" lon="6.04085">
        <ele>1960.4549560547</ele>
        <time>2017-11-26T13:53:00Z</time>
      </trkpt>
      <trkpt lat="45.24849" lon="6.0409">
        <ele>1957.4549560547</ele>
        <time>2017-11-26T13:53:02Z</time>
      </trkpt>
      <trkpt lat="45.24863" lon="6.04096">
        <ele>1955.4549560547</ele>
        <time>2017-11-26T13:53:04Z</time>
      </trkpt>
      <trkpt lat="45.24868" lon="6.04102">
        <ele>1951.4549560547</ele>
        <time>2017-11-26T13:53:05Z</time>
      </trkpt>
      <trkpt lat="45.24882" lon="6.04108">
        <ele>1949.4549560547</ele>
        <time>2017-11-26T13:53:07Z</time>
      </trkpt>
      <trkpt lat="45.24887" lon="6.04112">
        <ele>1946.4549560547</ele>
        <time>2017-11-26T13:53:08Z</time>
      </trkpt>
      <trkpt lat="45.24897" lon="6.04118">
        <ele>1942.4549560547</ele>
        <time>2017-11-26T13:53:10Z</time>
      </trkpt>
      <trkpt lat="45.24906" lon="6.04127">
        <ele>1939.4549560547</ele>
        <time>2017-11-26T13:53:12Z</time>
      </trkpt>
      <trkpt lat="45.24923" lon="6.04135">
        <ele>1935.4560546875</ele>
        <time>2017-11-26T13:53:15Z</time>
      </trkpt>
      <trkpt lat="45.24934" lon="6.0414">
        <ele>1934.4560546875</ele>
        <time>2017-11-26T13:53:17Z</time>
      </trkpt>
      <trkpt lat="45.24941" lon="6.04141">
        <ele>1933.4560546875</ele>
        <time>2017-11-26T13:53:18Z</time>
      </trkpt>
      <trkpt lat="45.24946" lon="6.04148">
        <ele>1929.4560546875</ele>
        <time>2017-11-26T13:53:20Z</time>
      </trkpt>
      <trkpt lat="45.24951" lon="6.04151">
        <ele>1926.4560546875</ele>
        <time>2017-11-26T13:53:21Z</time>
      </trkpt>
      <trkpt lat="45.24964" lon="6.04158">
        <ele>1925.4560546875</ele>
        <time>2017-11-26T13:53:23Z</time>
      </trkpt>
      <trkpt lat="45.24975" lon="6.04162">
        <ele>1925.4560546875</ele>
        <time>2017-11-26T13:53:25Z</time>
      </trkpt>
      <trkpt lat="45.24983" lon="6.04168">
        <ele>1923.4560546875</ele>
        <time>2017-11-26T13:53:27Z</time>
      </trkpt>
      <trkpt lat="45.24988" lon="6.04179">
        <ele>1920.4560546875</ele>
        <time>2017-11-26T13:53:29Z</time>
      </trkpt>
      <trkpt lat="45.24995" lon="6.04187">
        <ele>1916.4560546875</ele>
        <time>2017-11-26T13:53:31Z</time>
      </trkpt>
      <trkpt lat="45.25001" lon="6.04193">
        <ele>1911.4560546875</ele>
        <time>2017-11-26T13:53:33Z</time>
      </trkpt>
      <trkpt lat="45.25005" lon="6.04196">
        <ele>1906.4560546875</ele>
        <time>2017-11-26T13:53:35Z</time>
      </trkpt>
      <trkpt lat="45.2501" lon="6.04195">
        <ele>1898.4560546875</ele>
        <time>2017-11-26T13:53:42Z</time>
      </trkpt>
      <trkpt lat="45.25014" lon="6.04201">
        <ele>1894.4560546875</ele>
        <time>2017-11-26T13:53:46Z</time>
      </trkpt>
      <trkpt lat="45.25017" lon="6.04207">
        <ele>1890.4560546875</ele>
        <time>2017-11-26T13:53:50Z</time>
      </trkpt>
      <trkpt lat="45.25024" lon="6.04205">
        <ele>1887.4560546875</ele>
        <time>2017-11-26T13:53:52Z</time>
      </trkpt>
      <trkpt lat="45.25034" lon="6.04204">
        <ele>1883.4560546875</ele>
        <time>2017-11-26T13:53:54Z</time>
      </trkpt>
      <trkpt lat="45.25045" lon="6.04202">
        <ele>1880.4560546875</ele>
        <time>2017-11-26T13:53:56Z</time>
      </trkpt>
      <trkpt lat="45.25055" lon="6.04202">
        <ele>1877.4560546875</ele>
        <time>2017-11-26T13:53:58Z</time>
      </trkpt>
      <trkpt lat="45.25068" lon="6.04197">
        <ele>1874.4560546875</ele>
        <time>2017-11-26T13:54:01Z</time>
      </trkpt>
      <trkpt lat="45.25073" lon="6.04198">
        <ele>1873.4560546875</ele>
        <time>2017-11-26T13:54:03Z</time>
      </trkpt>
      <trkpt lat="45.25071" lon="6.04203">
        <ele>1866.4560546875</ele>
        <time>2017-11-26T13:54:32Z</time>
      </trkpt>
      <trkpt lat="45.25075" lon="6.042">
        <ele>1865.4560546875</ele>
        <time>2017-11-26T13:56:05Z</time>
      </trkpt>
      <trkpt lat="45.2508" lon="6.042">
        <ele>1864.4560546875</ele>
        <time>2017-11-26T13:56:09Z</time>
      </trkpt>
      <trkpt lat="45.25085" lon="6.04199">
        <ele>1861.4560546875</ele>
        <time>2017-11-26T13:56:17Z</time>
      </trkpt>
      <trkpt lat="45.2509" lon="6.04198">
        <ele>1863.4560546875</ele>
        <time>2017-11-26T13:56:26Z</time>
      </trkpt>
      <trkpt lat="45.25093" lon="6.04194">
        <ele>1863.4560546875</ele>
        <time>2017-11-26T13:57:12Z</time>
      </trkpt>
      <trkpt lat="45.25097" lon="6.04189">
        <ele>1866.4560546875</ele>
        <time>2017-11-26T13:57:22Z</time>
      </trkpt>
      <trkpt lat="45.25101" lon="6.04186">
        <ele>1868.4560546875</ele>
        <time>2017-11-26T13:57:25Z</time>
      </trkpt>
      <trkpt lat="45.25104" lon="6.04181">
        <ele>1869.4560546875</ele>
        <time>2017-11-26T13:57:30Z</time>
      </trkpt>
      <trkpt lat="45.25109" lon="6.04177">
        <ele>1870.4560546875</ele>
        <time>2017-11-26T13:57:35Z</time>
      </trkpt>
      <trkpt lat="45.25113" lon="6.04174">
        <ele>1873.4560546875</ele>
        <time>2017-11-26T13:57:39Z</time>
      </trkpt>
      <trkpt lat="45.25116" lon="6.04168">
        <ele>1870.4560546875</ele>
        <time>2017-11-26T13:57:44Z</time>
      </trkpt>
      <trkpt lat="45.25118" lon="6.0416">
        <ele>1869.4560546875</ele>
        <time>2017-11-26T13:57:51Z</time>
      </trkpt>
      <trkpt lat="45.25113" lon="6.04158">
        <ele>1868.4560546875</ele>
        <time>2017-11-26T13:57:58Z</time>
      </trkpt>
      <trkpt lat="45.25111" lon="6.04151">
        <ele>1872.4560546875</ele>
        <time>2017-11-26T13:58:03Z</time>
      </trkpt>
      <trkpt lat="45.25116" lon="6.04148">
        <ele>1877.4560546875</ele>
        <time>2017-11-26T13:58:06Z</time>
      </trkpt>
      <trkpt lat="45.25117" lon="6.04141">
        <ele>1880.4560546875</ele>
        <time>2017-11-26T13:58:11Z</time>
      </trkpt>
      <trkpt lat="45.25117" lon="6.04134">
        <ele>1880.4560546875</ele>
        <time>2017-11-26T13:58:19Z</time>
      </trkpt>
      <trkpt lat="45.25114" lon="6.04129">
        <ele>1879.4560546875</ele>
        <time>2017-11-26T13:58:28Z</time>
      </trkpt>
      <trkpt lat="45.2511" lon="6.04125">
        <ele>1881.4560546875</ele>
        <time>2017-11-26T13:58:51Z</time>
      </trkpt>
      <trkpt lat="45.25105" lon="6.04122">
        <ele>1880.4560546875</ele>
        <time>2017-11-26T13:59:01Z</time>
      </trkpt>
      <trkpt lat="45.25102" lon="6.04117">
        <ele>1878.4560546875</ele>
        <time>2017-11-26T13:59:15Z</time>
      </trkpt>
      <trkpt lat="45.251" lon="6.04111">
        <ele>1882.4560546875</ele>
        <time>2017-11-26T13:59:26Z</time>
      </trkpt>
      <trkpt lat="45.251" lon="6.04104">
        <ele>1878.4560546875</ele>
        <time>2017-11-26T13:59:29Z</time>
      </trkpt>
      <trkpt lat="45.25097" lon="6.041">
        <ele>1889.4560546875</ele>
        <time>2017-11-26T13:59:40Z</time>
      </trkpt>
      <trkpt lat="45.25098" lon="6.04092">
        <ele>1890.4560546875</ele>
        <time>2017-11-26T13:59:44Z</time>
      </trkpt>
      <trkpt lat="45.25097" lon="6.04086">
        <ele>1888.4560546875</ele>
        <time>2017-11-26T13:59:47Z</time>
      </trkpt>
      <trkpt lat="45.25094" lon="6.0408">
        <ele>1888.4560546875</ele>
        <time>2017-11-26T13:59:51Z</time>
      </trkpt>
      <trkpt lat="45.25093" lon="6.04073">
        <ele>1888.4560546875</ele>
        <time>2017-11-26T13:59:56Z</time>
      </trkpt>
      <trkpt lat="45.25091" lon="6.04066">
        <ele>1893.4560546875</ele>
        <time>2017-11-26T14:00:02Z</time>
      </trkpt>
      <trkpt lat="45.25091" lon="6.0406">
        <ele>1898.4560546875</ele>
        <time>2017-11-26T14:00:07Z</time>
      </trkpt>
      <trkpt lat="45.25091" lon="6.04053">
        <ele>1898.4560546875</ele>
        <time>2017-11-26T14:00:13Z</time>
      </trkpt>
      <trkpt lat="45.25089" lon="6.04046">
        <ele>1901.4560546875</ele>
        <time>2017-11-26T14:00:21Z</time>
      </trkpt>
      <trkpt lat="45.25087" lon="6.04039">
        <ele>1903.4560546875</ele>
        <time>2017-11-26T14:00:29Z</time>
      </trkpt>
      <trkpt lat="45.25086" lon="6.04032">
        <ele>1904.4560546875</ele>
        <time>2017-11-26T14:00:34Z</time>
      </trkpt>
      <trkpt lat="45.25084" lon="6.04026">
        <ele>1905.4560546875</ele>
        <time>2017-11-26T14:00:39Z</time>
      </trkpt>
      <trkpt lat="45.25082" lon="6.0402">
        <ele>1909.4560546875</ele>
        <time>2017-11-26T14:00:44Z</time>
      </trkpt>
      <trkpt lat="45.25079" lon="6.04015">
        <ele>1909.4560546875</ele>
        <time>2017-11-26T14:00:48Z</time>
      </trkpt>
      <trkpt lat="45.25076" lon="6.04009">
        <ele>1913.4560546875</ele>
        <time>2017-11-26T14:00:53Z</time>
      </trkpt>
      <trkpt lat="45.25075" lon="6.04002">
        <ele>1917.4560546875</ele>
        <time>2017-11-26T14:00:59Z</time>
      </trkpt>
      <trkpt lat="45.25073" lon="6.03996">
        <ele>1917.4560546875</ele>
        <time>2017-11-26T14:01:04Z</time>
      </trkpt>
      <trkpt lat="45.25069" lon="6.03994">
        <ele>1917.4560546875</ele>
        <time>2017-11-26T14:01:16Z</time>
      </trkpt>
      <trkpt lat="45.25064" lon="6.03991">
        <ele>1919.4560546875</ele>
        <time>2017-11-26T14:01:21Z</time>
      </trkpt>
      <trkpt lat="45.2506" lon="6.03988">
        <ele>1918.4560546875</ele>
        <time>2017-11-26T14:01:26Z</time>
      </trkpt>
      <trkpt lat="45.25055" lon="6.03987">
        <ele>1917.4560546875</ele>
        <time>2017-11-26T14:01:31Z</time>
      </trkpt>
      <trkpt lat="45.25051" lon="6.03983">
        <ele>1919.4560546875</ele>
        <time>2017-11-26T14:01:38Z</time>
      </trkpt>
      <trkpt lat="45.25047" lon="6.03981">
        <ele>1922.4560546875</ele>
        <time>2017-11-26T14:01:45Z</time>
      </trkpt>
      <trkpt lat="45.25048" lon="6.03974">
        <ele>1920.4560546875</ele>
        <time>2017-11-26T14:01:50Z</time>
      </trkpt>
      <trkpt lat="45.25051" lon="6.03968">
        <ele>1923.4560546875</ele>
        <time>2017-11-26T14:01:55Z</time>
      </trkpt>
      <trkpt lat="45.25053" lon="6.03962">
        <ele>1923.4560546875</ele>
        <time>2017-11-26T14:02:01Z</time>
      </trkpt>
      <trkpt lat="45.25054" lon="6.03956">
        <ele>1926.4560546875</ele>
        <time>2017-11-26T14:02:05Z</time>
      </trkpt>
      <trkpt lat="45.25058" lon="6.0395">
        <ele>1926.4560546875</ele>
        <time>2017-11-26T14:02:10Z</time>
      </trkpt>
      <trkpt lat="45.25061" lon="6.03946">
        <ele>1928.4560546875</ele>
        <time>2017-11-26T14:02:15Z</time>
      </trkpt>
      <trkpt lat="45.25065" lon="6.03941">
        <ele>1929.4560546875</ele>
        <time>2017-11-26T14:02:19Z</time>
      </trkpt>
      <trkpt lat="45.2507" lon="6.03939">
        <ele>1932.4560546875</ele>
        <time>2017-11-26T14:02:26Z</time>
      </trkpt>
      <trkpt lat="45.2507" lon="6.03931">
        <ele>1935.4560546875</ele>
        <time>2017-11-26T14:02:38Z</time>
      </trkpt>
      <trkpt lat="45.25065" lon="6.03928">
        <ele>1935.4560546875</ele>
        <time>2017-11-26T14:02:45Z</time>
      </trkpt>
      <trkpt lat="45.2506" lon="6.03925">
        <ele>1935.4560546875</ele>
        <time>2017-11-26T14:02:51Z</time>
      </trkpt>
      <trkpt lat="45.25055" lon="6.03922">
        <ele>1935.4560546875</ele>
        <time>2017-11-26T14:02:57Z</time>
      </trkpt>
      <trkpt lat="45.25051" lon="6.03919">
        <ele>1936.4549560547</ele>
        <time>2017-11-26T14:03:04Z</time>
      </trkpt>
      <trkpt lat="45.25054" lon="6.03914">
        <ele>1938.4549560547</ele>
        <time>2017-11-26T14:03:09Z</time>
      </trkpt>
      <trkpt lat="45.25057" lon="6.03909">
        <ele>1940.4549560547</ele>
        <time>2017-11-26T14:03:14Z</time>
      </trkpt>
      <trkpt lat="45.25061" lon="6.03906">
        <ele>1941.4549560547</ele>
        <time>2017-11-26T14:03:18Z</time>
      </trkpt>
      <trkpt lat="45.25066" lon="6.03902">
        <ele>1946.4549560547</ele>
        <time>2017-11-26T14:03:23Z</time>
      </trkpt>
      <trkpt lat="45.2507" lon="6.03899">
        <ele>1947.4549560547</ele>
        <time>2017-11-26T14:03:29Z</time>
      </trkpt>
      <trkpt lat="45.25075" lon="6.03898">
        <ele>1950.4560546875</ele>
        <time>2017-11-26T14:03:35Z</time>
      </trkpt>
      <trkpt lat="45.2508" lon="6.03896">
        <ele>1953.4560546875</ele>
        <time>2017-11-26T14:03:40Z</time>
      </trkpt>
      <trkpt lat="45.25085" lon="6.03894">
        <ele>1954.4560546875</ele>
        <time>2017-11-26T14:03:44Z</time>
      </trkpt>
      <trkpt lat="45.2509" lon="6.03892">
        <ele>1954.4560546875</ele>
        <time>2017-11-26T14:03:50Z</time>
      </trkpt>
      <trkpt lat="45.25095" lon="6.03888">
        <ele>1955.4560546875</ele>
        <time>2017-11-26T14:03:55Z</time>
      </trkpt>
      <trkpt lat="45.25099" lon="6.03886">
        <ele>1957.4560546875</ele>
        <time>2017-11-26T14:04:00Z</time>
      </trkpt>
      <trkpt lat="45.25104" lon="6.03883">
        <ele>1960.4560546875</ele>
        <time>2017-11-26T14:04:05Z</time>
      </trkpt>
      <trkpt lat="45.2511" lon="6.0388">
        <ele>1958.4560546875</ele>
        <time>2017-11-26T14:04:09Z</time>
      </trkpt>
      <trkpt lat="45.25114" lon="6.03877">
        <ele>1960.4560546875</ele>
        <time>2017-11-26T14:04:14Z</time>
      </trkpt>
      <trkpt lat="45.25118" lon="6.03873">
        <ele>1959.4560546875</ele>
        <time>2017-11-26T14:04:20Z</time>
      </trkpt>
      <trkpt lat="45.25122" lon="6.03869">
        <ele>1963.4560546875</ele>
        <time>2017-11-26T14:04:27Z</time>
      </trkpt>
      <trkpt lat="45.25122" lon="6.03862">
        <ele>1964.4560546875</ele>
        <time>2017-11-26T14:04:42Z</time>
      </trkpt>
      <trkpt lat="45.25117" lon="6.0386">
        <ele>1963.4560546875</ele>
        <time>2017-11-26T14:04:46Z</time>
      </trkpt>
      <trkpt lat="45.25118" lon="6.03853">
        <ele>1963.4560546875</ele>
        <time>2017-11-26T14:04:53Z</time>
      </trkpt>
      <trkpt lat="45.25123" lon="6.03848">
        <ele>1962.4560546875</ele>
        <time>2017-11-26T14:04:58Z</time>
      </trkpt>
      <trkpt lat="45.25127" lon="6.03844">
        <ele>1962.4560546875</ele>
        <time>2017-11-26T14:05:04Z</time>
      </trkpt>
      <trkpt lat="45.25131" lon="6.03839">
        <ele>1961.4560546875</ele>
        <time>2017-11-26T14:05:09Z</time>
      </trkpt>
      <trkpt lat="45.25134" lon="6.03835">
        <ele>1964.4560546875</ele>
        <time>2017-11-26T14:05:14Z</time>
      </trkpt>
      <trkpt lat="45.25137" lon="6.0383">
        <ele>1968.4560546875</ele>
        <time>2017-11-26T14:05:19Z</time>
      </trkpt>
      <trkpt lat="45.2514" lon="6.03824">
        <ele>1971.4560546875</ele>
        <time>2017-11-26T14:05:25Z</time>
      </trkpt>
      <trkpt lat="45.25143" lon="6.03818">
        <ele>1974.4560546875</ele>
        <time>2017-11-26T14:05:32Z</time>
      </trkpt>
      <trkpt lat="45.25141" lon="6.03813">
        <ele>1976.4560546875</ele>
        <time>2017-11-26T14:05:40Z</time>
      </trkpt>
      <trkpt lat="45.25136" lon="6.0381">
        <ele>1977.4560546875</ele>
        <time>2017-11-26T14:05:47Z</time>
      </trkpt>
      <trkpt lat="45.25139" lon="6.03804">
        <ele>1979.4560546875</ele>
        <time>2017-11-26T14:05:54Z</time>
      </trkpt>
      <trkpt lat="45.25144" lon="6.03801">
        <ele>1980.4560546875</ele>
        <time>2017-11-26T14:05:59Z</time>
      </trkpt>
      <trkpt lat="45.25149" lon="6.03797">
        <ele>1984.4560546875</ele>
        <time>2017-11-26T14:06:06Z</time>
      </trkpt>
      <trkpt lat="45.25154" lon="6.03794">
        <ele>1985.4560546875</ele>
        <time>2017-11-26T14:06:13Z</time>
      </trkpt>
      <trkpt lat="45.2516" lon="6.03793">
        <ele>1987.4560546875</ele>
        <time>2017-11-26T14:06:17Z</time>
      </trkpt>
      <trkpt lat="45.25164" lon="6.0379">
        <ele>1990.4560546875</ele>
        <time>2017-11-26T14:06:22Z</time>
      </trkpt>
      <trkpt lat="45.25168" lon="6.03787">
        <ele>1991.4560546875</ele>
        <time>2017-11-26T14:06:25Z</time>
      </trkpt>
      <trkpt lat="45.25173" lon="6.03785">
        <ele>1993.4560546875</ele>
        <time>2017-11-26T14:06:32Z</time>
      </trkpt>
      <trkpt lat="45.25179" lon="6.03784">
        <ele>1993.4560546875</ele>
        <time>2017-11-26T14:06:37Z</time>
      </trkpt>
      <trkpt lat="45.25183" lon="6.03783">
        <ele>1993.4560546875</ele>
        <time>2017-11-26T14:06:41Z</time>
      </trkpt>
      <trkpt lat="45.25188" lon="6.03781">
        <ele>1998.4560546875</ele>
        <time>2017-11-26T14:06:49Z</time>
      </trkpt>
      <trkpt lat="45.25193" lon="6.03781">
        <ele>2000.4560546875</ele>
        <time>2017-11-26T14:06:53Z</time>
      </trkpt>
      <trkpt lat="45.25198" lon="6.03781">
        <ele>2002.4560546875</ele>
        <time>2017-11-26T14:06:57Z</time>
      </trkpt>
      <trkpt lat="45.25203" lon="6.03778">
        <ele>2001.4560546875</ele>
        <time>2017-11-26T14:07:05Z</time>
      </trkpt>
      <trkpt lat="45.25207" lon="6.03775">
        <ele>2000.4560546875</ele>
        <time>2017-11-26T14:07:10Z</time>
      </trkpt>
      <trkpt lat="45.25212" lon="6.03776">
        <ele>2004.4560546875</ele>
        <time>2017-11-26T14:07:15Z</time>
      </trkpt>
      <trkpt lat="45.25217" lon="6.03775">
        <ele>2006.4560546875</ele>
        <time>2017-11-26T14:07:17Z</time>
      </trkpt>
      <trkpt lat="45.25221" lon="6.03771">
        <ele>2011.4560546875</ele>
        <time>2017-11-26T14:07:35Z</time>
      </trkpt>
      <trkpt lat="45.25218" lon="6.03766">
        <ele>2011.4560546875</ele>
        <time>2017-11-26T14:07:48Z</time>
      </trkpt>
      <trkpt lat="45.25218" lon="6.0376">
        <ele>2011.4560546875</ele>
        <time>2017-11-26T14:07:58Z</time>
      </trkpt>
      <trkpt lat="45.25218" lon="6.03752">
        <ele>2009.4560546875</ele>
        <time>2017-11-26T14:08:11Z</time>
      </trkpt>
      <trkpt lat="45.25224" lon="6.03751">
        <ele>2007.4560546875</ele>
        <time>2017-11-26T14:08:20Z</time>
      </trkpt>
      <trkpt lat="45.25229" lon="6.03752">
        <ele>2007.4560546875</ele>
        <time>2017-11-26T14:08:23Z</time>
      </trkpt>
      <trkpt lat="45.25235" lon="6.03753">
        <ele>2009.4560546875</ele>
        <time>2017-11-26T14:08:28Z</time>
      </trkpt>
      <trkpt lat="45.25239" lon="6.03752">
        <ele>2013.4560546875</ele>
        <time>2017-11-26T14:08:32Z</time>
      </trkpt>
      <trkpt lat="45.25243" lon="6.03747">
        <ele>2012.4560546875</ele>
        <time>2017-11-26T14:08:42Z</time>
      </trkpt>
      <trkpt lat="45.25245" lon="6.0374">
        <ele>2016.4560546875</ele>
        <time>2017-11-26T14:08:47Z</time>
      </trkpt>
      <trkpt lat="45.25248" lon="6.03736">
        <ele>2018.4560546875</ele>
        <time>2017-11-26T14:08:51Z</time>
      </trkpt>
      <trkpt lat="45.25252" lon="6.03733">
        <ele>2018.4560546875</ele>
        <time>2017-11-26T14:08:57Z</time>
      </trkpt>
      <trkpt lat="45.25254" lon="6.03727">
        <ele>2023.4560546875</ele>
        <time>2017-11-26T14:09:06Z</time>
      </trkpt>
      <trkpt lat="45.25252" lon="6.03721">
        <ele>2025.4560546875</ele>
        <time>2017-11-26T14:09:14Z</time>
      </trkpt>
      <trkpt lat="45.25251" lon="6.03715">
        <ele>2027.4560546875</ele>
        <time>2017-11-26T14:09:20Z</time>
      </trkpt>
      <trkpt lat="45.25249" lon="6.03709">
        <ele>2026.4560546875</ele>
        <time>2017-11-26T14:09:33Z</time>
      </trkpt>
      <trkpt lat="45.25248" lon="6.03701">
        <ele>2029.4560546875</ele>
        <time>2017-11-26T14:09:43Z</time>
      </trkpt>
      <trkpt lat="45.25245" lon="6.03697">
        <ele>2031.4560546875</ele>
        <time>2017-11-26T14:09:51Z</time>
      </trkpt>
      <trkpt lat="45.25247" lon="6.0369">
        <ele>2032.4560546875</ele>
        <time>2017-11-26T14:09:57Z</time>
      </trkpt>
      <trkpt lat="45.25251" lon="6.03688">
        <ele>2032.4560546875</ele>
        <time>2017-11-26T14:10:02Z</time>
      </trkpt>
      <trkpt lat="45.25256" lon="6.03684">
        <ele>2035.4560546875</ele>
        <time>2017-11-26T14:10:06Z</time>
      </trkpt>
      <trkpt lat="45.25259" lon="6.03678">
        <ele>2038.4560546875</ele>
        <time>2017-11-26T14:10:15Z</time>
      </trkpt>
      <trkpt lat="45.25257" lon="6.03671">
        <ele>2039.4560546875</ele>
        <time>2017-11-26T14:10:23Z</time>
      </trkpt>
      <trkpt lat="45.25259" lon="6.03664">
        <ele>2040.4560546875</ele>
        <time>2017-11-26T14:10:29Z</time>
      </trkpt>
      <trkpt lat="45.25263" lon="6.0366">
        <ele>2044.4560546875</ele>
        <time>2017-11-26T14:10:35Z</time>
      </trkpt>
      <trkpt lat="45.25268" lon="6.03659">
        <ele>2044.4560546875</ele>
        <time>2017-11-26T14:10:45Z</time>
      </trkpt>
      <trkpt lat="45.25272" lon="6.03656">
        <ele>2046.4560546875</ele>
        <time>2017-11-26T14:10:49Z</time>
      </trkpt>
      <trkpt lat="45.25277" lon="6.03656">
        <ele>2047.4560546875</ele>
        <time>2017-11-26T14:10:51Z</time>
      </trkpt>
      <trkpt lat="45.25282" lon="6.03656">
        <ele>2048.4560546875</ele>
        <time>2017-11-26T14:10:58Z</time>
      </trkpt>
      <trkpt lat="45.25289" lon="6.03655">
        <ele>2049.4560546875</ele>
        <time>2017-11-26T14:11:03Z</time>
      </trkpt>
      <trkpt lat="45.25295" lon="6.03654">
        <ele>2051.4560546875</ele>
        <time>2017-11-26T14:11:10Z</time>
      </trkpt>
      <trkpt lat="45.253" lon="6.03654">
        <ele>2052.4560546875</ele>
        <time>2017-11-26T14:11:16Z</time>
      </trkpt>
      <trkpt lat="45.25305" lon="6.03654">
        <ele>2053.4560546875</ele>
        <time>2017-11-26T14:11:25Z</time>
      </trkpt>
      <trkpt lat="45.2531" lon="6.03653">
        <ele>2052.4560546875</ele>
        <time>2017-11-26T14:11:29Z</time>
      </trkpt>
      <trkpt lat="45.25314" lon="6.03651">
        <ele>2055.4560546875</ele>
        <time>2017-11-26T14:11:32Z</time>
      </trkpt>
      <trkpt lat="45.25319" lon="6.03649">
        <ele>2057.4560546875</ele>
        <time>2017-11-26T14:11:40Z</time>
      </trkpt>
      <trkpt lat="45.25323" lon="6.03647">
        <ele>2057.4560546875</ele>
        <time>2017-11-26T14:11:46Z</time>
      </trkpt>
      <trkpt lat="45.25328" lon="6.03645">
        <ele>2059.4560546875</ele>
        <time>2017-11-26T14:11:51Z</time>
      </trkpt>
      <trkpt lat="45.25333" lon="6.03643">
        <ele>2060.4560546875</ele>
        <time>2017-11-26T14:11:54Z</time>
      </trkpt>
      <trkpt lat="45.25337" lon="6.03641">
        <ele>2062.4560546875</ele>
        <time>2017-11-26T14:12:00Z</time>
      </trkpt>
      <trkpt lat="45.25341" lon="6.03637">
        <ele>2063.4560546875</ele>
        <time>2017-11-26T14:12:05Z</time>
      </trkpt>
      <trkpt lat="45.25345" lon="6.03633">
        <ele>2065.4560546875</ele>
        <time>2017-11-26T14:12:10Z</time>
      </trkpt>
      <trkpt lat="45.25347" lon="6.03626">
        <ele>2064.4560546875</ele>
        <time>2017-11-26T14:12:16Z</time>
      </trkpt>
      <trkpt lat="45.2535" lon="6.03621">
        <ele>2067.4560546875</ele>
        <time>2017-11-26T14:12:20Z</time>
      </trkpt>
      <trkpt lat="45.25354" lon="6.03618">
        <ele>2067.4560546875</ele>
        <time>2017-11-26T14:12:26Z</time>
      </trkpt>
      <trkpt lat="45.25359" lon="6.03617">
        <ele>2069.4560546875</ele>
        <time>2017-11-26T14:12:32Z</time>
      </trkpt>
      <trkpt lat="45.25364" lon="6.03617">
        <ele>2069.4560546875</ele>
        <time>2017-11-26T14:12:40Z</time>
      </trkpt>
      <trkpt lat="45.2537" lon="6.03616">
        <ele>2070.4560546875</ele>
        <time>2017-11-26T14:12:44Z</time>
      </trkpt>
      <trkpt lat="45.25375" lon="6.03618">
        <ele>2072.4560546875</ele>
        <time>2017-11-26T14:12:51Z</time>
      </trkpt>
      <trkpt lat="45.2538" lon="6.03622">
        <ele>2074.4560546875</ele>
        <time>2017-11-26T14:12:56Z</time>
      </trkpt>
      <trkpt lat="45.25385" lon="6.03625">
        <ele>2075.4560546875</ele>
        <time>2017-11-26T14:13:00Z</time>
      </trkpt>
      <trkpt lat="45.2539" lon="6.03628">
        <ele>2076.4560546875</ele>
        <time>2017-11-26T14:13:04Z</time>
      </trkpt>
      <trkpt lat="45.25396" lon="6.03627">
        <ele>2077.4560546875</ele>
        <time>2017-11-26T14:13:11Z</time>
      </trkpt>
      <trkpt lat="45.254" lon="6.03623">
        <ele>2077.4560546875</ele>
        <time>2017-11-26T14:13:15Z</time>
      </trkpt>
      <trkpt lat="45.25404" lon="6.03619">
        <ele>2078.4560546875</ele>
        <time>2017-11-26T14:13:18Z</time>
      </trkpt>
      <trkpt lat="45.25407" lon="6.03614">
        <ele>2077.4560546875</ele>
        <time>2017-11-26T14:13:24Z</time>
      </trkpt>
      <trkpt lat="45.2541" lon="6.03607">
        <ele>2079.4560546875</ele>
        <time>2017-11-26T14:13:29Z</time>
      </trkpt>
      <trkpt lat="45.25414" lon="6.03603">
        <ele>2080.4560546875</ele>
        <time>2017-11-26T14:13:35Z</time>
      </trkpt>
      <trkpt lat="45.25419" lon="6.03601">
        <ele>2082.4560546875</ele>
        <time>2017-11-26T14:13:41Z</time>
      </trkpt>
      <trkpt lat="45.25425" lon="6.03599">
        <ele>2085.4560546875</ele>
        <time>2017-11-26T14:13:52Z</time>
      </trkpt>
      <trkpt lat="45.25429" lon="6.03595">
        <ele>2088.4560546875</ele>
        <time>2017-11-26T14:13:56Z</time>
      </trkpt>
      <trkpt lat="45.2543" lon="6.03589">
        <ele>2090.4560546875</ele>
        <time>2017-11-26T14:14:02Z</time>
      </trkpt>
      <trkpt lat="45.25432" lon="6.03582">
        <ele>2092.4560546875</ele>
        <time>2017-11-26T14:14:08Z</time>
      </trkpt>
      <trkpt lat="45.25434" lon="6.03576">
        <ele>2093.4560546875</ele>
        <time>2017-11-26T14:14:13Z</time>
      </trkpt>
      <trkpt lat="45.2544" lon="6.03574">
        <ele>2093.4560546875</ele>
        <time>2017-11-26T14:14:18Z</time>
      </trkpt>
      <trkpt lat="45.25445" lon="6.03573">
        <ele>2096.4560546875</ele>
        <time>2017-11-26T14:14:21Z</time>
      </trkpt>
      <trkpt lat="45.25451" lon="6.03572">
        <ele>2097.4560546875</ele>
        <time>2017-11-26T14:14:27Z</time>
      </trkpt>
      <trkpt lat="45.25456" lon="6.03572">
        <ele>2099.4560546875</ele>
        <time>2017-11-26T14:14:30Z</time>
      </trkpt>
      <trkpt lat="45.25462" lon="6.03574">
        <ele>2100.4560546875</ele>
        <time>2017-11-26T14:14:39Z</time>
      </trkpt>
      <trkpt lat="45.25466" lon="6.03579">
        <ele>2101.4560546875</ele>
        <time>2017-11-26T14:14:44Z</time>
      </trkpt>
      <trkpt lat="45.2547" lon="6.03581">
        <ele>2101.4560546875</ele>
        <time>2017-11-26T14:14:48Z</time>
      </trkpt>
      <trkpt lat="45.25471" lon="6.03573">
        <ele>2104.4560546875</ele>
        <time>2017-11-26T14:14:59Z</time>
      </trkpt>
      <trkpt lat="45.25471" lon="6.03567">
        <ele>2107.4560546875</ele>
        <time>2017-11-26T14:15:05Z</time>
      </trkpt>
      <trkpt lat="45.2547" lon="6.0356">
        <ele>2111.4560546875</ele>
        <time>2017-11-26T14:15:11Z</time>
      </trkpt>
      <trkpt lat="45.25469" lon="6.03552">
        <ele>2112.4560546875</ele>
        <time>2017-11-26T14:15:17Z</time>
      </trkpt>
      <trkpt lat="45.25474" lon="6.03549">
        <ele>2112.4560546875</ele>
        <time>2017-11-26T14:15:32Z</time>
      </trkpt>
      <trkpt lat="45.25479" lon="6.03549">
        <ele>2115.4560546875</ele>
        <time>2017-11-26T14:15:37Z</time>
      </trkpt>
      <trkpt lat="45.25484" lon="6.03548">
        <ele>2117.4560546875</ele>
        <time>2017-11-26T14:15:43Z</time>
      </trkpt>
      <trkpt lat="45.25487" lon="6.03543">
        <ele>2116.4560546875</ele>
        <time>2017-11-26T14:15:50Z</time>
      </trkpt>
      <trkpt lat="45.25486" lon="6.03536">
        <ele>2117.4560546875</ele>
        <time>2017-11-26T14:15:55Z</time>
      </trkpt>
      <trkpt lat="45.25486" lon="6.03529">
        <ele>2119.4560546875</ele>
        <time>2017-11-26T14:15:59Z</time>
      </trkpt>
      <trkpt lat="45.25487" lon="6.03523">
        <ele>2122.4560546875</ele>
        <time>2017-11-26T14:16:05Z</time>
      </trkpt>
      <trkpt lat="45.25486" lon="6.03516">
        <ele>2123.4560546875</ele>
        <time>2017-11-26T14:16:10Z</time>
      </trkpt>
      <trkpt lat="45.25485" lon="6.03509">
        <ele>2123.4560546875</ele>
        <time>2017-11-26T14:16:15Z</time>
      </trkpt>
      <trkpt lat="45.25485" lon="6.03502">
        <ele>2124.4560546875</ele>
        <time>2017-11-26T14:16:21Z</time>
      </trkpt>
      <trkpt lat="45.25484" lon="6.03494">
        <ele>2123.4560546875</ele>
        <time>2017-11-26T14:16:25Z</time>
      </trkpt>
      <trkpt lat="45.25484" lon="6.03486">
        <ele>2125.4560546875</ele>
        <time>2017-11-26T14:16:30Z</time>
      </trkpt>
      <trkpt lat="45.25485" lon="6.03479">
        <ele>2126.4560546875</ele>
        <time>2017-11-26T14:16:35Z</time>
      </trkpt>
      <trkpt lat="45.25485" lon="6.0347">
        <ele>2126.4560546875</ele>
        <time>2017-11-26T14:16:39Z</time>
      </trkpt>
      <trkpt lat="45.25485" lon="6.03462">
        <ele>2126.4560546875</ele>
        <time>2017-11-26T14:16:43Z</time>
      </trkpt>
      <trkpt lat="45.25485" lon="6.03455">
        <ele>2126.4560546875</ele>
        <time>2017-11-26T14:16:49Z</time>
      </trkpt>
      <trkpt lat="45.25484" lon="6.03448">
        <ele>2126.4560546875</ele>
        <time>2017-11-26T14:16:52Z</time>
      </trkpt>
      <trkpt lat="45.25484" lon="6.03442">
        <ele>2126.4560546875</ele>
        <time>2017-11-26T14:16:55Z</time>
      </trkpt>
      <trkpt lat="45.25484" lon="6.03435">
        <ele>2127.4560546875</ele>
        <time>2017-11-26T14:16:58Z</time>
      </trkpt>
      <trkpt lat="45.25483" lon="6.03428">
        <ele>2127.4560546875</ele>
        <time>2017-11-26T14:17:02Z</time>
      </trkpt>
      <trkpt lat="45.25482" lon="6.03421">
        <ele>2127.4560546875</ele>
        <time>2017-11-26T14:17:05Z</time>
      </trkpt>
      <trkpt lat="45.25482" lon="6.03413">
        <ele>2129.4560546875</ele>
        <time>2017-11-26T14:17:08Z</time>
      </trkpt>
      <trkpt lat="45.25483" lon="6.03405">
        <ele>2129.4560546875</ele>
        <time>2017-11-26T14:17:13Z</time>
      </trkpt>
      <trkpt lat="45.25482" lon="6.03397">
        <ele>2129.4560546875</ele>
        <time>2017-11-26T14:17:16Z</time>
      </trkpt>
      <trkpt lat="45.25482" lon="6.0339">
        <ele>2130.4560546875</ele>
        <time>2017-11-26T14:17:21Z</time>
      </trkpt>
      <trkpt lat="45.25482" lon="6.03383">
        <ele>2131.4560546875</ele>
        <time>2017-11-26T14:17:24Z</time>
      </trkpt>
      <trkpt lat="45.25481" lon="6.03376">
        <ele>2129.4560546875</ele>
        <time>2017-11-26T14:17:27Z</time>
      </trkpt>
      <trkpt lat="45.25481" lon="6.03369">
        <ele>2129.4560546875</ele>
        <time>2017-11-26T14:17:32Z</time>
      </trkpt>
      <trkpt lat="45.2548" lon="6.03362">
        <ele>2131.4560546875</ele>
        <time>2017-11-26T14:17:38Z</time>
      </trkpt>
      <trkpt lat="45.2548" lon="6.03355">
        <ele>2133.4560546875</ele>
        <time>2017-11-26T14:17:44Z</time>
      </trkpt>
      <trkpt lat="45.25479" lon="6.03348">
        <ele>2133.4560546875</ele>
        <time>2017-11-26T14:17:48Z</time>
      </trkpt>
      <trkpt lat="45.25478" lon="6.03342">
        <ele>2133.4560546875</ele>
        <time>2017-11-26T14:17:52Z</time>
      </trkpt>
      <trkpt lat="45.25476" lon="6.03334">
        <ele>2133.4560546875</ele>
        <time>2017-11-26T14:17:57Z</time>
      </trkpt>
      <trkpt lat="45.25474" lon="6.03328">
        <ele>2133.4560546875</ele>
        <time>2017-11-26T14:18:01Z</time>
      </trkpt>
      <trkpt lat="45.25474" lon="6.0332">
        <ele>2135.4560546875</ele>
        <time>2017-11-26T14:18:07Z</time>
      </trkpt>
      <trkpt lat="45.25473" lon="6.03313">
        <ele>2136.455078125</ele>
        <time>2017-11-26T14:18:11Z</time>
      </trkpt>
      <trkpt lat="45.25473" lon="6.03305">
        <ele>2139.455078125</ele>
        <time>2017-11-26T14:18:16Z</time>
      </trkpt>
      <trkpt lat="45.25474" lon="6.03298">
        <ele>2140.455078125</ele>
        <time>2017-11-26T14:18:21Z</time>
      </trkpt>
      <trkpt lat="45.25475" lon="6.03292">
        <ele>2141.455078125</ele>
        <time>2017-11-26T14:18:27Z</time>
      </trkpt>
      <trkpt lat="45.25477" lon="6.03284">
        <ele>2142.455078125</ele>
        <time>2017-11-26T14:18:32Z</time>
      </trkpt>
      <trkpt lat="45.25478" lon="6.03277">
        <ele>2142.455078125</ele>
        <time>2017-11-26T14:18:36Z</time>
      </trkpt>
      <trkpt lat="45.2548" lon="6.03271">
        <ele>2142.455078125</ele>
        <time>2017-11-26T14:18:40Z</time>
      </trkpt>
      <trkpt lat="45.25481" lon="6.03264">
        <ele>2143.455078125</ele>
        <time>2017-11-26T14:18:45Z</time>
      </trkpt>
      <trkpt lat="45.25484" lon="6.03257">
        <ele>2145.455078125</ele>
        <time>2017-11-26T14:18:51Z</time>
      </trkpt>
      <trkpt lat="45.25486" lon="6.0325">
        <ele>2147.455078125</ele>
        <time>2017-11-26T14:18:57Z</time>
      </trkpt>
      <trkpt lat="45.25488" lon="6.03244">
        <ele>2148.455078125</ele>
        <time>2017-11-26T14:19:02Z</time>
      </trkpt>
      <trkpt lat="45.2549" lon="6.03237">
        <ele>2150.455078125</ele>
        <time>2017-11-26T14:19:08Z</time>
      </trkpt>
      <trkpt lat="45.25491" lon="6.03231">
        <ele>2153.455078125</ele>
        <time>2017-11-26T14:19:14Z</time>
      </trkpt>
      <trkpt lat="45.25492" lon="6.03223">
        <ele>2154.455078125</ele>
        <time>2017-11-26T14:19:19Z</time>
      </trkpt>
      <trkpt lat="45.25494" lon="6.03216">
        <ele>2156.455078125</ele>
        <time>2017-11-26T14:19:25Z</time>
      </trkpt>
      <trkpt lat="45.25495" lon="6.03209">
        <ele>2159.455078125</ele>
        <time>2017-11-26T14:19:31Z</time>
      </trkpt>
      <trkpt lat="45.25492" lon="6.03202">
        <ele>2162.455078125</ele>
        <time>2017-11-26T14:19:37Z</time>
      </trkpt>
      <trkpt lat="45.25489" lon="6.03197">
        <ele>2165.455078125</ele>
        <time>2017-11-26T14:19:41Z</time>
      </trkpt>
      <trkpt lat="45.25485" lon="6.03194">
        <ele>2166.455078125</ele>
        <time>2017-11-26T14:19:46Z</time>
      </trkpt>
      <trkpt lat="45.25482" lon="6.03189">
        <ele>2167.455078125</ele>
        <time>2017-11-26T14:19:50Z</time>
      </trkpt>
      <trkpt lat="45.25477" lon="6.0319">
        <ele>2168.455078125</ele>
        <time>2017-11-26T14:19:57Z</time>
      </trkpt>
      <trkpt lat="45.25472" lon="6.03191">
        <ele>2170.455078125</ele>
        <time>2017-11-26T14:20:03Z</time>
      </trkpt>
      <trkpt lat="45.25467" lon="6.03191">
        <ele>2169.455078125</ele>
        <time>2017-11-26T14:20:11Z</time>
      </trkpt>
      <trkpt lat="45.25462" lon="6.03194">
        <ele>2169.455078125</ele>
        <time>2017-11-26T14:20:18Z</time>
      </trkpt>
      <trkpt lat="45.25472" lon="6.03199">
        <ele>2168.455078125</ele>
        <time>2017-11-26T14:21:43Z</time>
      </trkpt>
      <trkpt lat="45.25484" lon="6.03197">
        <ele>2163.455078125</ele>
        <time>2017-11-26T14:21:45Z</time>
      </trkpt>
      <trkpt lat="45.25495" lon="6.03207">
        <ele>2161.455078125</ele>
        <time>2017-11-26T14:21:47Z</time>
      </trkpt>
      <trkpt lat="45.25492" lon="6.03222">
        <ele>2157.455078125</ele>
        <time>2017-11-26T14:21:49Z</time>
      </trkpt>
      <trkpt lat="45.25491" lon="6.03244">
        <ele>2153.455078125</ele>
        <time>2017-11-26T14:21:51Z</time>
      </trkpt>
      <trkpt lat="45.25486" lon="6.03267">
        <ele>2150.455078125</ele>
        <time>2017-11-26T14:21:53Z</time>
      </trkpt>
      <trkpt lat="45.25479" lon="6.03292">
        <ele>2147.455078125</ele>
        <time>2017-11-26T14:21:55Z</time>
      </trkpt>
      <trkpt lat="45.2548" lon="6.03321">
        <ele>2143.4560546875</ele>
        <time>2017-11-26T14:21:57Z</time>
      </trkpt>
      <trkpt lat="45.25484" lon="6.03343">
        <ele>2138.4560546875</ele>
        <time>2017-11-26T14:21:59Z</time>
      </trkpt>
      <trkpt lat="45.25488" lon="6.03338">
        <ele>2137.4560546875</ele>
        <time>2017-11-26T14:22:01Z</time>
      </trkpt>
      <trkpt lat="45.25492" lon="6.03333">
        <ele>2138.4560546875</ele>
        <time>2017-11-26T14:22:07Z</time>
      </trkpt>
      <trkpt lat="45.2551" lon="6.03337">
        <ele>2133.4560546875</ele>
        <time>2017-11-26T14:22:10Z</time>
      </trkpt>
      <trkpt lat="45.25525" lon="6.03335">
        <ele>2129.4560546875</ele>
        <time>2017-11-26T14:22:12Z</time>
      </trkpt>
      <trkpt lat="45.25539" lon="6.03306">
        <ele>2128.4560546875</ele>
        <time>2017-11-26T14:22:14Z</time>
      </trkpt>
      <trkpt lat="45.25548" lon="6.03274">
        <ele>2125.4560546875</ele>
        <time>2017-11-26T14:22:16Z</time>
      </trkpt>
      <trkpt lat="45.25559" lon="6.03247">
        <ele>2119.4560546875</ele>
        <time>2017-11-26T14:22:18Z</time>
      </trkpt>
      <trkpt lat="45.25573" lon="6.03221">
        <ele>2116.4560546875</ele>
        <time>2017-11-26T14:22:20Z</time>
      </trkpt>
      <trkpt lat="45.25579" lon="6.03208">
        <ele>2115.4560546875</ele>
        <time>2017-11-26T14:22:21Z</time>
      </trkpt>
      <trkpt lat="45.25592" lon="6.03186">
        <ele>2115.4560546875</ele>
        <time>2017-11-26T14:22:23Z</time>
      </trkpt>
      <trkpt lat="45.25603" lon="6.03168">
        <ele>2111.4560546875</ele>
        <time>2017-11-26T14:22:25Z</time>
      </trkpt>
      <trkpt lat="45.25611" lon="6.03155">
        <ele>2108.4560546875</ele>
        <time>2017-11-26T14:22:27Z</time>
      </trkpt>
      <trkpt lat="45.2562" lon="6.03158">
        <ele>2107.4560546875</ele>
        <time>2017-11-26T14:22:29Z</time>
      </trkpt>
      <trkpt lat="45.25632" lon="6.03165">
        <ele>2104.4560546875</ele>
        <time>2017-11-26T14:22:30Z</time>
      </trkpt>
      <trkpt lat="45.25651" lon="6.03175">
        <ele>2101.4560546875</ele>
        <time>2017-11-26T14:22:32Z</time>
      </trkpt>
      <trkpt lat="45.25673" lon="6.03187">
        <ele>2097.4560546875</ele>
        <time>2017-11-26T14:22:34Z</time>
      </trkpt>
      <trkpt lat="45.25705" lon="6.03189">
        <ele>2092.4560546875</ele>
        <time>2017-11-26T14:22:36Z</time>
      </trkpt>
      <trkpt lat="45.2573" lon="6.0319">
        <ele>2089.4560546875</ele>
        <time>2017-11-26T14:22:38Z</time>
      </trkpt>
      <trkpt lat="45.25756" lon="6.03199">
        <ele>2084.4560546875</ele>
        <time>2017-11-26T14:22:40Z</time>
      </trkpt>
      <trkpt lat="45.25773" lon="6.03203">
        <ele>2076.4560546875</ele>
        <time>2017-11-26T14:22:42Z</time>
      </trkpt>
      <trkpt lat="45.25789" lon="6.0321">
        <ele>2070.4560546875</ele>
        <time>2017-11-26T14:22:44Z</time>
      </trkpt>
      <trkpt lat="45.25807" lon="6.03203">
        <ele>2065.4560546875</ele>
        <time>2017-11-26T14:22:46Z</time>
      </trkpt>
      <trkpt lat="45.25814" lon="6.0319">
        <ele>2060.4560546875</ele>
        <time>2017-11-26T14:22:48Z</time>
      </trkpt>
      <trkpt lat="45.25817" lon="6.03179">
        <ele>2058.4560546875</ele>
        <time>2017-11-26T14:22:49Z</time>
      </trkpt>
      <trkpt lat="45.25817" lon="6.03173">
        <ele>2054.4560546875</ele>
        <time>2017-11-26T14:22:50Z</time>
      </trkpt>
      <trkpt lat="45.25815" lon="6.03167">
        <ele>2049.4560546875</ele>
        <time>2017-11-26T14:22:53Z</time>
      </trkpt>
      <trkpt lat="45.25816" lon="6.03159">
        <ele>2043.4560546875</ele>
        <time>2017-11-26T14:23:08Z</time>
      </trkpt>
      <trkpt lat="45.25822" lon="6.03148">
        <ele>2043.4560546875</ele>
        <time>2017-11-26T14:23:10Z</time>
      </trkpt>
      <trkpt lat="45.25824" lon="6.03131">
        <ele>2040.4560546875</ele>
        <time>2017-11-26T14:23:12Z</time>
      </trkpt>
      <trkpt lat="45.25826" lon="6.03112">
        <ele>2038.4560546875</ele>
        <time>2017-11-26T14:23:14Z</time>
      </trkpt>
      <trkpt lat="45.25833" lon="6.03101">
        <ele>2032.4560546875</ele>
        <time>2017-11-26T14:23:16Z</time>
      </trkpt>
      <trkpt lat="45.25844" lon="6.03095">
        <ele>2031.4560546875</ele>
        <time>2017-11-26T14:23:18Z</time>
      </trkpt>
      <trkpt lat="45.25855" lon="6.03098">
        <ele>2025.4560546875</ele>
        <time>2017-11-26T14:23:20Z</time>
      </trkpt>
      <trkpt lat="45.2587" lon="6.03094">
        <ele>2021.4560546875</ele>
        <time>2017-11-26T14:23:22Z</time>
      </trkpt>
      <trkpt lat="45.25881" lon="6.03109">
        <ele>2016.4560546875</ele>
        <time>2017-11-26T14:23:24Z</time>
      </trkpt>
      <trkpt lat="45.2589" lon="6.03123">
        <ele>2011.4560546875</ele>
        <time>2017-11-26T14:23:26Z</time>
      </trkpt>
      <trkpt lat="45.25902" lon="6.03144">
        <ele>2007.4560546875</ele>
        <time>2017-11-26T14:23:28Z</time>
      </trkpt>
      <trkpt lat="45.2592" lon="6.03158">
        <ele>2002.4560546875</ele>
        <time>2017-11-26T14:23:30Z</time>
      </trkpt>
      <trkpt lat="45.25939" lon="6.03171">
        <ele>2001.4560546875</ele>
        <time>2017-11-26T14:23:32Z</time>
      </trkpt>
      <trkpt lat="45.25947" lon="6.03175">
        <ele>1996.4560546875</ele>
        <time>2017-11-26T14:23:34Z</time>
      </trkpt>
      <trkpt lat="45.25952" lon="6.03179">
        <ele>1994.4560546875</ele>
        <time>2017-11-26T14:23:35Z</time>
      </trkpt>
      <trkpt lat="45.25962" lon="6.03192">
        <ele>1992.4560546875</ele>
        <time>2017-11-26T14:23:37Z</time>
      </trkpt>
      <trkpt lat="45.25974" lon="6.03195">
        <ele>1990.4560546875</ele>
        <time>2017-11-26T14:23:39Z</time>
      </trkpt>
      <trkpt lat="45.25987" lon="6.03199">
        <ele>1984.4560546875</ele>
        <time>2017-11-26T14:23:41Z</time>
      </trkpt>
      <trkpt lat="45.25995" lon="6.032">
        <ele>1982.4560546875</ele>
        <time>2017-11-26T14:23:42Z</time>
      </trkpt>
      <trkpt lat="45.26007" lon="6.03198">
        <ele>1979.4560546875</ele>
        <time>2017-11-26T14:23:44Z</time>
      </trkpt>
      <trkpt lat="45.2601" lon="6.03193">
        <ele>1978.4560546875</ele>
        <time>2017-11-26T14:23:45Z</time>
      </trkpt>
      <trkpt lat="45.26014" lon="6.03178">
        <ele>1974.4560546875</ele>
        <time>2017-11-26T14:23:47Z</time>
      </trkpt>
      <trkpt lat="45.26015" lon="6.03167">
        <ele>1971.4560546875</ele>
        <time>2017-11-26T14:23:48Z</time>
      </trkpt>
      <trkpt lat="45.26016" lon="6.0315">
        <ele>1965.4560546875</ele>
        <time>2017-11-26T14:23:50Z</time>
      </trkpt>
      <trkpt lat="45.26022" lon="6.03136">
        <ele>1961.4560546875</ele>
        <time>2017-11-26T14:23:52Z</time>
      </trkpt>
      <trkpt lat="45.26029" lon="6.03128">
        <ele>1952.4560546875</ele>
        <time>2017-11-26T14:23:54Z</time>
      </trkpt>
      <trkpt lat="45.26039" lon="6.03117">
        <ele>1949.4560546875</ele>
        <time>2017-11-26T14:23:56Z</time>
      </trkpt>
      <trkpt lat="45.26046" lon="6.03111">
        <ele>1946.4560546875</ele>
        <time>2017-11-26T14:23:57Z</time>
      </trkpt>
      <trkpt lat="45.26046" lon="6.03091">
        <ele>1936.4560546875</ele>
        <time>2017-11-26T14:26:44Z</time>
      </trkpt>
      <trkpt lat="45.26046" lon="6.03073">
        <ele>1934.4560546875</ele>
        <time>2017-11-26T14:26:46Z</time>
      </trkpt>
      <trkpt lat="45.26051" lon="6.03053">
        <ele>1929.4560546875</ele>
        <time>2017-11-26T14:26:48Z</time>
      </trkpt>
      <trkpt lat="45.26062" lon="6.03035">
        <ele>1928.4560546875</ele>
        <time>2017-11-26T14:26:50Z</time>
      </trkpt>
      <trkpt lat="45.26068" lon="6.03014">
        <ele>1926.4560546875</ele>
        <time>2017-11-26T14:26:52Z</time>
      </trkpt>
      <trkpt lat="45.26067" lon="6.02995">
        <ele>1925.4560546875</ele>
        <time>2017-11-26T14:26:54Z</time>
      </trkpt>
      <trkpt lat="45.26069" lon="6.02962">
        <ele>1917.4560546875</ele>
        <time>2017-11-26T14:26:57Z</time>
      </trkpt>
      <trkpt lat="45.26075" lon="6.02942">
        <ele>1914.4560546875</ele>
        <time>2017-11-26T14:26:59Z</time>
      </trkpt>
      <trkpt lat="45.2608" lon="6.0292">
        <ele>1910.4560546875</ele>
        <time>2017-11-26T14:27:01Z</time>
      </trkpt>
      <trkpt lat="45.26083" lon="6.029">
        <ele>1908.4560546875</ele>
        <time>2017-11-26T14:27:03Z</time>
      </trkpt>
      <trkpt lat="45.26088" lon="6.02879">
        <ele>1903.4560546875</ele>
        <time>2017-11-26T14:27:05Z</time>
      </trkpt>
      <trkpt lat="45.26093" lon="6.02856">
        <ele>1898.4560546875</ele>
        <time>2017-11-26T14:27:07Z</time>
      </trkpt>
      <trkpt lat="45.26091" lon="6.02835">
        <ele>1897.4560546875</ele>
        <time>2017-11-26T14:27:09Z</time>
      </trkpt>
      <trkpt lat="45.26089" lon="6.02813">
        <ele>1892.4560546875</ele>
        <time>2017-11-26T14:27:11Z</time>
      </trkpt>
      <trkpt lat="45.26089" lon="6.02799">
        <ele>1889.4560546875</ele>
        <time>2017-11-26T14:27:12Z</time>
      </trkpt>
      <trkpt lat="45.26088" lon="6.02776">
        <ele>1885.4560546875</ele>
        <time>2017-11-26T14:27:14Z</time>
      </trkpt>
      <trkpt lat="45.26092" lon="6.02757">
        <ele>1878.4560546875</ele>
        <time>2017-11-26T14:27:16Z</time>
      </trkpt>
      <trkpt lat="45.26096" lon="6.02736">
        <ele>1873.4560546875</ele>
        <time>2017-11-26T14:27:18Z</time>
      </trkpt>
      <trkpt lat="45.26098" lon="6.02717">
        <ele>1870.4560546875</ele>
        <time>2017-11-26T14:27:20Z</time>
      </trkpt>
      <trkpt lat="45.26102" lon="6.02692">
        <ele>1868.4560546875</ele>
        <time>2017-11-26T14:27:22Z</time>
      </trkpt>
      <trkpt lat="45.2611" lon="6.02677">
        <ele>1863.4560546875</ele>
        <time>2017-11-26T14:27:24Z</time>
      </trkpt>
      <trkpt lat="45.2612" lon="6.0269">
        <ele>1860.4560546875</ele>
        <time>2017-11-26T14:27:25Z</time>
      </trkpt>
      <trkpt lat="45.26127" lon="6.02696">
        <ele>1856.4560546875</ele>
        <time>2017-11-26T14:27:26Z</time>
      </trkpt>
      <trkpt lat="45.26139" lon="6.0271">
        <ele>1852.4560546875</ele>
        <time>2017-11-26T14:27:28Z</time>
      </trkpt>
      <trkpt lat="45.26149" lon="6.02724">
        <ele>1849.4560546875</ele>
        <time>2017-11-26T14:27:30Z</time>
      </trkpt>
      <trkpt lat="45.26167" lon="6.02735">
        <ele>1847.4560546875</ele>
        <time>2017-11-26T14:27:32Z</time>
      </trkpt>
      <trkpt lat="45.2618" lon="6.02737">
        <ele>1841.4560546875</ele>
        <time>2017-11-26T14:27:34Z</time>
      </trkpt>
      <trkpt lat="45.26186" lon="6.02747">
        <ele>1834.4560546875</ele>
        <time>2017-11-26T14:27:37Z</time>
      </trkpt>
      <trkpt lat="45.26193" lon="6.02753">
        <ele>1831.4560546875</ele>
        <time>2017-11-26T14:27:38Z</time>
      </trkpt>
      <trkpt lat="45.26206" lon="6.02763">
        <ele>1826.4560546875</ele>
        <time>2017-11-26T14:27:41Z</time>
      </trkpt>
      <trkpt lat="45.26216" lon="6.0277">
        <ele>1820.4560546875</ele>
        <time>2017-11-26T14:27:43Z</time>
      </trkpt>
      <trkpt lat="45.26222" lon="6.02773">
        <ele>1817.4560546875</ele>
        <time>2017-11-26T14:27:44Z</time>
      </trkpt>
      <trkpt lat="45.2623" lon="6.02782">
        <ele>1813.4560546875</ele>
        <time>2017-11-26T14:27:46Z</time>
      </trkpt>
      <trkpt lat="45.26235" lon="6.02789">
        <ele>1810.4560546875</ele>
        <time>2017-11-26T14:27:48Z</time>
      </trkpt>
      <trkpt lat="45.26242" lon="6.02797">
        <ele>1807.4560546875</ele>
        <time>2017-11-26T14:27:50Z</time>
      </trkpt>
      <trkpt lat="45.26251" lon="6.02799">
        <ele>1804.4560546875</ele>
        <time>2017-11-26T14:27:52Z</time>
      </trkpt>
      <trkpt lat="45.26263" lon="6.02805">
        <ele>1797.4560546875</ele>
        <time>2017-11-26T14:27:55Z</time>
      </trkpt>
      <trkpt lat="45.26271" lon="6.02809">
        <ele>1794.4560546875</ele>
        <time>2017-11-26T14:27:56Z</time>
      </trkpt>
      <trkpt lat="45.26283" lon="6.02813">
        <ele>1790.4560546875</ele>
        <time>2017-11-26T14:27:58Z</time>
      </trkpt>
      <trkpt lat="45.26296" lon="6.0281">
        <ele>1789.4560546875</ele>
        <time>2017-11-26T14:28:00Z</time>
      </trkpt>
      <trkpt lat="45.26311" lon="6.02806">
        <ele>1786.4560546875</ele>
        <time>2017-11-26T14:28:02Z</time>
      </trkpt>
      <trkpt lat="45.26316" lon="6.02802">
        <ele>1782.4560546875</ele>
        <time>2017-11-26T14:28:03Z</time>
      </trkpt>
      <trkpt lat="45.26336" lon="6.02794">
        <ele>1781.4560546875</ele>
        <time>2017-11-26T14:28:05Z</time>
      </trkpt>
      <trkpt lat="45.26354" lon="6.02781">
        <ele>1778.45703125</ele>
        <time>2017-11-26T14:28:07Z</time>
      </trkpt>
      <trkpt lat="45.26362" lon="6.0277">
        <ele>1775.45703125</ele>
        <time>2017-11-26T14:28:08Z</time>
      </trkpt>
      <trkpt lat="45.26381" lon="6.02756">
        <ele>1771.45703125</ele>
        <time>2017-11-26T14:28:10Z</time>
      </trkpt>
      <trkpt lat="45.26391" lon="6.0274">
        <ele>1768.45703125</ele>
        <time>2017-11-26T14:28:12Z</time>
      </trkpt>
      <trkpt lat="45.26391" lon="6.02728">
        <ele>1766.45703125</ele>
        <time>2017-11-26T14:28:13Z</time>
      </trkpt>
      <trkpt lat="45.26389" lon="6.02706">
        <ele>1807.4560546875</ele>
        <time>2017-11-26T14:28:15Z</time>
      </trkpt>
      <trkpt lat="45.26384" lon="6.02684">
        <ele>1785.4560546875</ele>
        <time>2017-11-26T14:28:17Z</time>
      </trkpt>
      <trkpt lat="45.26381" lon="6.02673">
        <ele>1776.4560546875</ele>
        <time>2017-11-26T14:28:18Z</time>
      </trkpt>
      <trkpt lat="45.26374" lon="6.02651">
        <ele>1770.4560546875</ele>
        <time>2017-11-26T14:28:20Z</time>
      </trkpt>
      <trkpt lat="45.2637" lon="6.02641">
        <ele>1765.4560546875</ele>
        <time>2017-11-26T14:28:21Z</time>
      </trkpt>
      <trkpt lat="45.2636" lon="6.02622">
        <ele>1761.4560546875</ele>
        <time>2017-11-26T14:28:23Z</time>
      </trkpt>
      <trkpt lat="45.2635" lon="6.02604">
        <ele>1758.4560546875</ele>
        <time>2017-11-26T14:28:25Z</time>
      </trkpt>
      <trkpt lat="45.26346" lon="6.02598">
        <ele>1756.4560546875</ele>
        <time>2017-11-26T14:28:26Z</time>
      </trkpt>
      <trkpt lat="45.26336" lon="6.02587">
        <ele>1751.4560546875</ele>
        <time>2017-11-26T14:28:28Z</time>
      </trkpt>
      <trkpt lat="45.26326" lon="6.02574">
        <ele>1750.4560546875</ele>
        <time>2017-11-26T14:28:30Z</time>
      </trkpt>
      <trkpt lat="45.26316" lon="6.02566">
        <ele>1749.4560546875</ele>
        <time>2017-11-26T14:28:32Z</time>
      </trkpt>
      <trkpt lat="45.26304" lon="6.02557">
        <ele>1749.4560546875</ele>
        <time>2017-11-26T14:28:34Z</time>
      </trkpt>
      <trkpt lat="45.26298" lon="6.02553">
        <ele>1747.4560546875</ele>
        <time>2017-11-26T14:28:35Z</time>
      </trkpt>
      <trkpt lat="45.26288" lon="6.02543">
        <ele>1745.4560546875</ele>
        <time>2017-11-26T14:28:37Z</time>
      </trkpt>
      <trkpt lat="45.26279" lon="6.0253">
        <ele>1744.4560546875</ele>
        <time>2017-11-26T14:28:39Z</time>
      </trkpt>
      <trkpt lat="45.26277" lon="6.02515">
        <ele>1741.4560546875</ele>
        <time>2017-11-26T14:28:41Z</time>
      </trkpt>
      <trkpt lat="45.26279" lon="6.02498">
        <ele>1741.4560546875</ele>
        <time>2017-11-26T14:28:43Z</time>
      </trkpt>
      <trkpt lat="45.26281" lon="6.02491">
        <ele>1741.4560546875</ele>
        <time>2017-11-26T14:28:44Z</time>
      </trkpt>
      <trkpt lat="45.26285" lon="6.02474">
        <ele>1737.4560546875</ele>
        <time>2017-11-26T14:28:46Z</time>
      </trkpt>
      <trkpt lat="45.26291" lon="6.02451">
        <ele>1734.4560546875</ele>
        <time>2017-11-26T14:28:48Z</time>
      </trkpt>
      <trkpt lat="45.26299" lon="6.02422">
        <ele>1731.4560546875</ele>
        <time>2017-11-26T14:28:50Z</time>
      </trkpt>
      <trkpt lat="45.26303" lon="6.02396">
        <ele>1731.4560546875</ele>
        <time>2017-11-26T14:28:52Z</time>
      </trkpt>
      <trkpt lat="45.26309" lon="6.02372">
        <ele>1730.4560546875</ele>
        <time>2017-11-26T14:28:54Z</time>
      </trkpt>
      <trkpt lat="45.2631" lon="6.02346">
        <ele>1724.4560546875</ele>
        <time>2017-11-26T14:28:56Z</time>
      </trkpt>
      <trkpt lat="45.26296" lon="6.02315">
        <ele>1718.4560546875</ele>
        <time>2017-11-26T14:28:59Z</time>
      </trkpt>
      <trkpt lat="45.26283" lon="6.02301">
        <ele>1718.4560546875</ele>
        <time>2017-11-26T14:29:01Z</time>
      </trkpt>
      <trkpt lat="45.2627" lon="6.02291">
        <ele>1716.4560546875</ele>
        <time>2017-11-26T14:29:03Z</time>
      </trkpt>
      <trkpt lat="45.26257" lon="6.02278">
        <ele>1715.4560546875</ele>
        <time>2017-11-26T14:29:05Z</time>
      </trkpt>
      <trkpt lat="45.26246" lon="6.02265">
        <ele>1713.4560546875</ele>
        <time>2017-11-26T14:29:07Z</time>
      </trkpt>
      <trkpt lat="45.26239" lon="6.02249">
        <ele>1709.4560546875</ele>
        <time>2017-11-26T14:29:09Z</time>
      </trkpt>
      <trkpt lat="45.26231" lon="6.02232">
        <ele>1704.4560546875</ele>
        <time>2017-11-26T14:29:11Z</time>
      </trkpt>
      <trkpt lat="45.26221" lon="6.02213">
        <ele>1703.4549560547</ele>
        <time>2017-11-26T14:29:13Z</time>
      </trkpt>
      <trkpt lat="45.26218" lon="6.02204">
        <ele>1702.4549560547</ele>
        <time>2017-11-26T14:29:14Z</time>
      </trkpt>
      <trkpt lat="45.26211" lon="6.02181">
        <ele>1701.4549560547</ele>
        <time>2017-11-26T14:29:16Z</time>
      </trkpt>
      <trkpt lat="45.26205" lon="6.02162">
        <ele>1700.4549560547</ele>
        <time>2017-11-26T14:29:18Z</time>
      </trkpt>
      <trkpt lat="45.26202" lon="6.02151">
        <ele>1698.4549560547</ele>
        <time>2017-11-26T14:29:19Z</time>
      </trkpt>
      <trkpt lat="45.26197" lon="6.0213">
        <ele>1695.4549560547</ele>
        <time>2017-11-26T14:29:21Z</time>
      </trkpt>
      <trkpt lat="45.26195" lon="6.02109">
        <ele>1692.4549560547</ele>
        <time>2017-11-26T14:29:23Z</time>
      </trkpt>
      <trkpt lat="45.26192" lon="6.02075">
        <ele>1690.4549560547</ele>
        <time>2017-11-26T14:29:26Z</time>
      </trkpt>
      <trkpt lat="45.2619" lon="6.02064">
        <ele>1689.4549560547</ele>
        <time>2017-11-26T14:29:27Z</time>
      </trkpt>
      <trkpt lat="45.26189" lon="6.02044">
        <ele>1688.4549560547</ele>
        <time>2017-11-26T14:29:29Z</time>
      </trkpt>
      <trkpt lat="45.26186" lon="6.02026">
        <ele>1687.4549560547</ele>
        <time>2017-11-26T14:29:31Z</time>
      </trkpt>
      <trkpt lat="45.26187" lon="6.02016">
        <ele>1684.4549560547</ele>
        <time>2017-11-26T14:29:32Z</time>
      </trkpt>
      <trkpt lat="45.26186" lon="6.02002">
        <ele>1683.4549560547</ele>
        <time>2017-11-26T14:29:34Z</time>
      </trkpt>
      <trkpt lat="45.26189" lon="6.01995">
        <ele>1682.4549560547</ele>
        <time>2017-11-26T14:29:35Z</time>
      </trkpt>
      <trkpt lat="45.26191" lon="6.01981">
        <ele>1678.4549560547</ele>
        <time>2017-11-26T14:29:37Z</time>
      </trkpt>
      <trkpt lat="45.26197" lon="6.01968">
        <ele>1677.4549560547</ele>
        <time>2017-11-26T14:29:39Z</time>
      </trkpt>
      <trkpt lat="45.26206" lon="6.01956">
        <ele>1674.4549560547</ele>
        <time>2017-11-26T14:29:41Z</time>
      </trkpt>
      <trkpt lat="45.26217" lon="6.01949">
        <ele>1670.4549560547</ele>
        <time>2017-11-26T14:29:43Z</time>
      </trkpt>
      <trkpt lat="45.2623" lon="6.01953">
        <ele>1668.4549560547</ele>
        <time>2017-11-26T14:29:45Z</time>
      </trkpt>
      <trkpt lat="45.26235" lon="6.01958">
        <ele>1665.4549560547</ele>
        <time>2017-11-26T14:29:46Z</time>
      </trkpt>
      <trkpt lat="45.26245" lon="6.01962">
        <ele>1664.4549560547</ele>
        <time>2017-11-26T14:29:48Z</time>
      </trkpt>
      <trkpt lat="45.26258" lon="6.01963">
        <ele>1662.4549560547</ele>
        <time>2017-11-26T14:29:50Z</time>
      </trkpt>
      <trkpt lat="45.26262" lon="6.01954">
        <ele>1659.4549560547</ele>
        <time>2017-11-26T14:29:52Z</time>
      </trkpt>
      <trkpt lat="45.26266" lon="6.01945">
        <ele>1659.4549560547</ele>
        <time>2017-11-26T14:29:53Z</time>
      </trkpt>
      <trkpt lat="45.26275" lon="6.01941">
        <ele>1655.4549560547</ele>
        <time>2017-11-26T14:29:55Z</time>
      </trkpt>
      <trkpt lat="45.26281" lon="6.01932">
        <ele>1651.4549560547</ele>
        <time>2017-11-26T14:29:57Z</time>
      </trkpt>
      <trkpt lat="45.26283" lon="6.01923">
        <ele>1648.4549560547</ele>
        <time>2017-11-26T14:29:58Z</time>
      </trkpt>
      <trkpt lat="45.26291" lon="6.01914">
        <ele>1644.4549560547</ele>
        <time>2017-11-26T14:30:00Z</time>
      </trkpt>
      <trkpt lat="45.26298" lon="6.01912">
        <ele>1641.4549560547</ele>
        <time>2017-11-26T14:30:02Z</time>
      </trkpt>
      <trkpt lat="45.26304" lon="6.01912">
        <ele>1640.4549560547</ele>
        <time>2017-11-26T14:30:03Z</time>
      </trkpt>
      <trkpt lat="45.26313" lon="6.01904">
        <ele>1641.4549560547</ele>
        <time>2017-11-26T14:30:05Z</time>
      </trkpt>
      <trkpt lat="45.26318" lon="6.019">
        <ele>1640.4549560547</ele>
        <time>2017-11-26T14:30:06Z</time>
      </trkpt>
      <trkpt lat="45.2632" lon="6.01892">
        <ele>1638.4549560547</ele>
        <time>2017-11-26T14:30:07Z</time>
      </trkpt>
      <trkpt lat="45.26328" lon="6.01875">
        <ele>1636.4549560547</ele>
        <time>2017-11-26T14:30:09Z</time>
      </trkpt>
      <trkpt lat="45.26339" lon="6.01862">
        <ele>1633.4549560547</ele>
        <time>2017-11-26T14:30:11Z</time>
      </trkpt>
      <trkpt lat="45.2635" lon="6.01853">
        <ele>1630.4549560547</ele>
        <time>2017-11-26T14:30:13Z</time>
      </trkpt>
      <trkpt lat="45.26359" lon="6.01848">
        <ele>1626.4549560547</ele>
        <time>2017-11-26T14:30:15Z</time>
      </trkpt>
      <trkpt lat="45.26367" lon="6.01833">
        <ele>1623.4549560547</ele>
        <time>2017-11-26T14:30:17Z</time>
      </trkpt>
      <trkpt lat="45.26378" lon="6.01818">
        <ele>1621.4549560547</ele>
        <time>2017-11-26T14:30:19Z</time>
      </trkpt>
      <trkpt lat="45.26376" lon="6.01799">
        <ele>1617.4549560547</ele>
        <time>2017-11-26T14:30:21Z</time>
      </trkpt>
      <trkpt lat="45.26376" lon="6.01776">
        <ele>1615.4549560547</ele>
        <time>2017-11-26T14:30:23Z</time>
      </trkpt>
      <trkpt lat="45.2638" lon="6.01752">
        <ele>1613.4549560547</ele>
        <time>2017-11-26T14:30:25Z</time>
      </trkpt>
      <trkpt lat="45.26379" lon="6.01724">
        <ele>1612.4549560547</ele>
        <time>2017-11-26T14:30:27Z</time>
      </trkpt>
      <trkpt lat="45.2638" lon="6.01713">
        <ele>1609.4549560547</ele>
        <time>2017-11-26T14:30:28Z</time>
      </trkpt>
      <trkpt lat="45.26385" lon="6.01688">
        <ele>1608.4549560547</ele>
        <time>2017-11-26T14:30:30Z</time>
      </trkpt>
      <trkpt lat="45.26389" lon="6.01678">
        <ele>1603.4549560547</ele>
        <time>2017-11-26T14:30:31Z</time>
      </trkpt>
      <trkpt lat="45.26398" lon="6.01653">
        <ele>1601.4549560547</ele>
        <time>2017-11-26T14:30:33Z</time>
      </trkpt>
      <trkpt lat="45.26411" lon="6.01631">
        <ele>1599.4549560547</ele>
        <time>2017-11-26T14:30:35Z</time>
      </trkpt>
      <trkpt lat="45.26426" lon="6.01616">
        <ele>1595.4549560547</ele>
        <time>2017-11-26T14:30:37Z</time>
      </trkpt>
      <trkpt lat="45.26441" lon="6.01606">
        <ele>1592.4549560547</ele>
        <time>2017-11-26T14:30:39Z</time>
      </trkpt>
      <trkpt lat="45.26455" lon="6.01596">
        <ele>1590.4549560547</ele>
        <time>2017-11-26T14:30:41Z</time>
      </trkpt>
      <trkpt lat="45.26463" lon="6.01586">
        <ele>1589.4549560547</ele>
        <time>2017-11-26T14:30:43Z</time>
      </trkpt>
      <trkpt lat="45.26466" lon="6.01575">
        <ele>1586.4549560547</ele>
        <time>2017-11-26T14:30:45Z</time>
      </trkpt>
      <trkpt lat="45.26464" lon="6.01563">
        <ele>1583.4549560547</ele>
        <time>2017-11-26T14:30:47Z</time>
      </trkpt>
      <trkpt lat="45.26459" lon="6.0156">
        <ele>1581.4549560547</ele>
        <time>2017-11-26T14:30:48Z</time>
      </trkpt>
      <trkpt lat="45.26453" lon="6.01552">
        <ele>1578.4549560547</ele>
        <time>2017-11-26T14:30:50Z</time>
      </trkpt>
      <trkpt lat="45.26448" lon="6.01548">
        <ele>1575.4549560547</ele>
        <time>2017-11-26T14:30:52Z</time>
      </trkpt>
      <trkpt lat="45.26448" lon="6.01539">
        <ele>1568.4549560547</ele>
        <time>2017-11-26T14:31:10Z</time>
      </trkpt>
      <trkpt lat="45.2645" lon="6.01532">
        <ele>1568.4549560547</ele>
        <time>2017-11-26T14:31:12Z</time>
      </trkpt>
      <trkpt lat="45.26451" lon="6.01526">
        <ele>1567.4549560547</ele>
        <time>2017-11-26T14:31:15Z</time>
      </trkpt>
      <trkpt lat="45.26446" lon="6.01524">
        <ele>1566.4549560547</ele>
        <time>2017-11-26T14:31:19Z</time>
      </trkpt>
      <trkpt lat="45.26442" lon="6.01528">
        <ele>1564.4549560547</ele>
        <time>2017-11-26T14:31:26Z</time>
      </trkpt>
    </trkseg>
  </trk>
</gpx>